Provisional Data: Baldwin Run near Wellsboro Junction, PA


Please select a monitoring station.
Please select start date.
Please select start date.

Toggle Unit: C/F Toggle Unit: C/F
Sample Time Temperature (C) Temperature (F) Specific Conductivity (mS/cm) pH   Turbidity (NTU+) DO (mg/L)
3/23/2021 12:00:00 AM 4.18 39.524 0.045 7.55 39.15 12.68
3/23/2021 12:15:00 AM 4.11 39.398 0.045 7.59 30.51 12.7
3/23/2021 12:30:00 AM 4.05 39.29 0.045 7.6 68.62 12.72
3/23/2021 12:45:00 AM 3.98 39.164 0.045 7.6 39.37 12.74
3/23/2021 1:00:00 AM 3.92 39.056 0.045 7.59 43.01 12.76
3/23/2021 1:15:00 AM 3.86 38.948 0.045 7.59 43.33 12.78
3/23/2021 1:30:00 AM 3.8 38.84 0.045 7.59 43.39 12.8
3/23/2021 1:45:00 AM 3.75 38.75 0.045 7.58 31.6 12.82
3/23/2021 2:00:00 AM 3.69 38.642 0.045 7.59 34.55 12.83
3/23/2021 2:15:00 AM 3.64 38.552 0.045 7.44 45.3 12.86
3/23/2021 2:30:00 AM 3.59 38.462 0.045 7.56 55.7 12.87
3/23/2021 2:45:00 AM 3.54 38.372 0.045 7.59 48.68 12.9
3/23/2021 3:00:00 AM 3.5 38.3 0.045 7.58 38.07 12.91
3/23/2021 3:15:00 AM 3.45 38.21 0.045 7.59 37.06 12.92
3/23/2021 3:30:00 AM 3.41 38.138 0.045 7.58 47.57 12.94
3/23/2021 3:45:00 AM 3.37 38.066 0.045 7.58 33.28 12.95
3/23/2021 4:00:00 AM 3.33 37.994 0.045 7.58 47.99 12.96
3/23/2021 4:15:00 AM 3.29 37.922 0.045 7.57 43.5 12.98
3/23/2021 4:30:00 AM 3.25 37.85 0.045 7.52 54.5 12.99
3/23/2021 4:45:00 AM 3.21 37.778 0.045 7.53 32.52 13
3/23/2021 5:00:00 AM 3.17 37.706 0.045 7.48 35.01 13.01
3/23/2021 5:15:00 AM 3.13 37.634 0.045 7.58 43.11 13.03
3/23/2021 5:30:00 AM 3.09 37.562 0.045 7.58 35.02 13.05
3/23/2021 5:45:00 AM 3.06 37.508 0.045 7.58 45.79 13.06
3/23/2021 6:00:00 AM 3.02 37.436 0.045 7.58 28.64 13.07
3/23/2021 6:15:00 AM 2.99 37.382 0.045 7.57 37.63 13.08
3/23/2021 6:30:00 AM 2.95 37.31 0.045 7.57 31.95 13.1
3/23/2021 6:45:00 AM 2.92 37.256 0.045 7.56 42.43 13.11
3/23/2021 7:00:00 AM 2.89 37.202 0.045 7.47 51.2 13.13
3/23/2021 7:15:00 AM 2.85 37.13 0.045 7.51 60.17 13.14
3/23/2021 7:30:00 AM 2.83 37.094 0.045 7.57 32.2 13.16
3/23/2021 7:45:00 AM 2.82 37.076 0.045 7.58 37.53 13.18
3/23/2021 8:00:00 AM 2.84 37.112 0.045 7.58 38.87 13.19
3/23/2021 8:15:00 AM 2.86 37.148 0.045 7.49 35.13 13.2
3/23/2021 8:30:00 AM 2.9 37.22 0.045 7.6 35.2 13.2
3/23/2021 8:45:00 AM 2.95 37.31 0.045 7.59 36.95 13.2
3/23/2021 9:00:00 AM 3.01 37.418 0.045 7.6 51.7 13.19
3/23/2021 9:15:00 AM 3.08 37.544 0.045 7.61 39.05 13.17
3/23/2021 9:30:00 AM 3.17 37.706 0.045 7.61 40.08 13.15
3/23/2021 9:45:00 AM 3.29 37.922 0.045 7.52 25.51 13.12
3/23/2021 10:00:00 AM 3.43 38.174 0.045 7.61 41.3 13.08
3/23/2021 10:15:00 AM 3.57 38.426 0.045 7.62 38.93 13.04
3/23/2021 10:30:00 AM 3.73 38.714 0.045 7.63 36.54 12.99
3/23/2021 10:45:00 AM 3.92 39.056 0.045 7.63 31.02 12.92
3/23/2021 11:00:00 AM 4.09 39.362 0.044 7.53 38.98 12.86
3/23/2021 11:15:00 AM 4.28 39.704 0.044 7.64 43.84 12.81
3/23/2021 11:30:00 AM 4.48 40.064 0.044 7.57 39.41 12.74
3/23/2021 11:45:00 AM 4.7 40.46 0.044 7.66 50.5 12.67
3/23/2021 12:00:00 PM 4.91 40.838 0.044 7.66 44.25 12.6
3/23/2021 12:15:00 PM 5.1 41.18 0.044 7.56 44.15 12.53
3/23/2021 12:30:00 PM 5.27 41.486 0.044 7.68 50.27 12.47
3/23/2021 12:45:00 PM 5.43 41.774 0.044 7.68 39.86 12.42
3/23/2021 1:00:00 PM 5.65 42.17 0.044 7.7 45.15 12.35
3/23/2021 1:15:00 PM 5.82 42.476 0.044 7.71 69.73 12.28
3/23/2021 1:30:00 PM 5.9 42.62 0.044 7.71 40.73 12.25
3/23/2021 1:45:00 PM 6.08 42.944 0.044 7.64 49.41 12.19
3/23/2021 2:00:00 PM 6.19 43.142 0.044 7.72 52.48 12.15
3/23/2021 2:15:00 PM 6.34 43.412 0.044 7.72 42.55 12.1
3/23/2021 2:30:00 PM 6.38 43.484 0.044 7.73 36.12 12.07
3/23/2021 2:45:00 PM 6.47 43.646 0.044 7.73 64.74 12.05
3/23/2021 3:00:00 PM 6.53 43.754 0.044 7.62 46.44 12.01
3/23/2021 3:15:00 PM 6.57 43.826 0.044 7.74 48.96 12
3/23/2021 3:30:00 PM 6.64 43.952 0.044 7.73 67.56 11.98
3/23/2021 3:45:00 PM 6.69 44.042 0.044 7.75 49.61 11.96
3/23/2021 4:00:00 PM 6.69 44.042 0.044 7.62 37.89 11.95
3/23/2021 4:15:00 PM 6.69 44.042 0.044 7.7 47.28 11.94
3/23/2021 4:30:00 PM 6.7 44.06 0.044 7.73 57.83 11.94
3/23/2021 4:45:00 PM 6.74 44.132 0.044 7.74 45.85 11.93
3/23/2021 5:00:00 PM 6.73 44.114 0.044 7.73 67.45 11.91
3/23/2021 5:15:00 PM 6.74 44.132 0.044 7.73 49.54 11.91
3/23/2021 5:30:00 PM 6.75 44.15 0.044 7.6 51.89 11.91
3/23/2021 5:45:00 PM 6.77 44.186 0.044 7.65 61.4 11.9
3/23/2021 6:00:00 PM 6.73 44.114 0.044 7.73 47.94 11.89
3/23/2021 6:15:00 PM 6.69 44.042 0.044 7.73 59.79 11.89
3/23/2021 6:30:00 PM 6.68 44.024 0.044 7.73 64.84 11.9
3/23/2021 6:45:00 PM 6.65 43.97 0.044 7.72 38.99 11.9
3/23/2021 7:00:00 PM 6.59 43.862 0.044 7.68 57.02 11.9
3/23/2021 7:15:00 PM 6.52 43.736 0.044 7.7 58.73 11.91
3/23/2021 7:30:00 PM 6.46 43.628 0.044 7.7 49.12 11.92
3/23/2021 7:45:00 PM 6.4 43.52 0.044 7.65 57.38 11.93
3/23/2021 8:00:00 PM 6.34 43.412 0.044 7.66 51.64 11.95
3/23/2021 8:15:00 PM 6.28 43.304 0.044 7.67 64.18 11.96
3/23/2021 8:30:00 PM 6.22 43.196 0.045 7.69 41.06 11.98
3/23/2021 8:45:00 PM 6.16 43.088 0.045 7.69 69.61 12
3/23/2021 9:00:00 PM 6.1 42.98 0.045 7.57 66.85 12.03
3/23/2021 9:15:00 PM 6.04 42.872 0.045 7.66 42.89 12.04
3/23/2021 9:30:00 PM 5.98 42.764 0.045 7.6 49.29 12.06
3/23/2021 9:45:00 PM 5.9 42.62 0.045 7.65 50.6 12.08
3/23/2021 10:00:00 PM 5.82 42.476 0.045 7.67 66.4 12.1
3/23/2021 10:15:00 PM 5.74 42.332 0.045 7.66 52.88 12.13
3/23/2021 10:30:00 PM 5.67 42.206 0.045 7.66 45.47 12.15
3/23/2021 10:45:00 PM 5.61 42.098 0.045 7.67 57.77 12.16
3/23/2021 11:00:00 PM 5.54 41.972 0.045 7.64 41.45 12.19
3/23/2021 11:15:00 PM 5.47 41.846 0.045 7.67 56.6 12.21
3/23/2021 11:30:00 PM 5.4 41.72 0.045 7.65 49.04 12.23
3/23/2021 11:45:00 PM 5.34 41.612 0.045 7.64 57.2 12.25
3/24/2021 12:00:00 AM 5.28 41.504 0.045 7.63 42.66 12.27
3/24/2021 12:15:00 AM 5.22 41.396 0.045 7.66 56.19 12.29
3/24/2021 12:30:00 AM 5.17 41.306 0.045 7.65 34.83 12.31
3/24/2021 12:45:00 AM 5.13 41.234 0.045 7.66 40.47 12.32
3/24/2021 1:00:00 AM 5.09 41.162 0.045 7.64 38.03 12.33
3/24/2021 1:15:00 AM 5.04 41.072 0.045 7.63 31.35 12.35
3/24/2021 1:30:00 AM 5.01 41.018 0.045 7.63 36.77 12.36
3/24/2021 1:45:00 AM 4.98 40.964 0.045 7.53 48.61 12.37
3/24/2021 2:00:00 AM 4.96 40.928 0.045 7.54 46.55 12.38
3/24/2021 2:15:00 AM 4.94 40.892 0.045 7.64 45.39 12.38
3/24/2021 2:30:00 AM 4.91 40.838 0.045 7.62 37.54 12.39
3/24/2021 2:45:00 AM 4.89 40.802 0.045 7.64 41.08 12.39
3/24/2021 3:00:00 AM 4.88 40.784 0.045 7.64 40.75 12.4
3/24/2021 3:15:00 AM 4.88 40.784 0.045 7.63 44.97 12.39
3/24/2021 3:30:00 AM 4.88 40.784 0.045 7.64 60.5 12.4
3/24/2021 3:45:00 AM 4.88 40.784 0.045 7.48 52.96 12.4
3/24/2021 4:00:00 AM 4.88 40.784 0.045 7.62 49.99 12.4
3/24/2021 4:15:00 AM 4.88 40.784 0.045 7.61 50.36 12.4
3/24/2021 4:30:00 AM 4.89 40.802 0.045 7.62 45.59 12.4
3/24/2021 4:45:00 AM 4.91 40.838 0.045 7.61 58.11 12.39
3/24/2021 5:00:00 AM 4.93 40.874 0.045 7.6 43.42 12.38
3/24/2021 5:15:00 AM 4.94 40.892 0.045 7.61 43.96 12.37
3/24/2021 5:30:00 AM 4.96 40.928 0.045 7.61 60.72 12.37
3/24/2021 5:45:00 AM 4.98 40.964 0.045 7.62 37.57 12.35
3/24/2021 6:00:00 AM 5.01 41.018 0.045 7.61 37.03 12.35
3/24/2021 6:15:00 AM 5.03 41.054 0.045 7.61 60.36 12.35
3/24/2021 6:30:00 AM 5.05 41.09 0.045 7.6 56.46 12.34
3/24/2021 6:45:00 AM 5.07 41.126 0.045 7.62 45.08 12.33
3/24/2021 7:00:00 AM 5.09 41.162 0.044 7.61 47.53 12.33
3/24/2021 7:15:00 AM 5.11 41.198 0.044 7.61 43.11 12.32
3/24/2021 7:30:00 AM 5.12 41.216 0.044 7.61 42.5 12.32
3/24/2021 7:45:00 AM 5.14 41.252 0.044 7.61 47.14 12.31
3/24/2021 8:00:00 AM 5.15 41.27 0.044 7.59 56.21 12.31
3/24/2021 8:15:00 AM 5.16 41.288 0.044 7.62 49.98 12.31
3/24/2021 8:30:00 AM 5.18 41.324 0.044 7.62 39.58 12.31
3/24/2021 8:45:00 AM 5.2 41.36 0.044 7.49 54.56 12.3
3/24/2021 9:00:00 AM 5.22 41.396 0.044 7.62 48.11 12.3
3/24/2021 9:15:00 AM 5.24 41.432 0.044 7.62 56.74 12.3
3/24/2021 9:30:00 AM 5.28 41.504 0.044 7.63 61.66 12.29
3/24/2021 9:45:00 AM 5.34 41.612 0.045 7.6 58.64 12.28
3/24/2021 10:00:00 AM 5.38 41.684 0.049 7.78 158.65 12.27
3/24/2021 10:15:00 AM 5.41 41.738 0.055 7.9 217.25 12.25
3/24/2021 10:30:00 AM 5.45 41.81 0.056 7.95 170.71 12.24
3/24/2021 10:45:00 AM 5.48 41.864 0.05 7.81 149.86 12.24
3/24/2021 11:00:00 AM 5.51 41.918 0.048 7.74 153.47 12.23
3/24/2021 11:15:00 AM 5.53 41.954 0.046 7.71 144.96 12.22
3/24/2021 11:30:00 AM 5.55 41.99 0.047 7.72 95.42 12.21
3/24/2021 11:45:00 AM 5.58 42.044 0.049 7.74 99.27 12.21
3/24/2021 12:00:00 PM 5.61 42.098 0.051 7.79 94.33 12.21
3/24/2021 12:15:00 PM 5.63 42.134 0.052 7.8 80.99 12.2
3/24/2021 12:30:00 PM 5.65 42.17 0.053 7.7 95 12.19
3/24/2021 12:45:00 PM 5.67 42.206 0.052 7.81 83.97 12.18
3/24/2021 1:00:00 PM 5.69 42.242 0.051 7.81 97.38 12.17
3/24/2021 1:15:00 PM 5.75 42.35 0.05 7.81 98.45 12.17
3/24/2021 1:30:00 PM 5.82 42.476 0.049 7.8 84.5 12.15
3/24/2021 1:45:00 PM 5.9 42.62 0.048 7.66 87.16 12.13
3/24/2021 2:00:00 PM 5.94 42.692 0.048 7.78 69.78 12.11
3/24/2021 2:15:00 PM 5.98 42.764 0.047 7.79 80.27 12.09
3/24/2021 2:30:00 PM 6 42.8 0.047 7.77 94.23 12.07
3/24/2021 2:45:00 PM 6.04 42.872 0.047 7.64 82.53 12.06
3/24/2021 3:00:00 PM 6.07 42.926 0.046 7.77 96.62 12.05
3/24/2021 3:15:00 PM 6.1 42.98 0.046 7.64 90.04 12.04
3/24/2021 3:30:00 PM 6.15 43.07 0.046 7.72 83.27 12.02
3/24/2021 3:45:00 PM 6.19 43.142 0.046 7.75 62.93 12.01
3/24/2021 4:00:00 PM 6.25 43.25 0.045 7.75 82.47 11.99
3/24/2021 4:15:00 PM 6.3 43.34 0.045 7.76 79.11 11.98
3/24/2021 4:30:00 PM 6.32 43.376 0.045 7.75 76.53 11.97
3/24/2021 4:45:00 PM 6.34 43.412 0.045 7.74 97.89 11.95
3/24/2021 5:00:00 PM 6.35 43.43 0.045 7.8 72.04 11.94
3/24/2021 5:15:00 PM 6.34 43.412 0.045 7.78 88.23 11.94
3/24/2021 5:30:00 PM 6.36 43.448 0.045 7.65 61.43 11.92
3/24/2021 5:45:00 PM 6.36 43.448 0.045 7.75 67.86 11.92
3/24/2021 6:00:00 PM 6.37 43.466 0.044 7.77 65.83 11.92
3/24/2021 6:15:00 PM 6.37 43.466 0.044 7.73 66.13 11.92
3/24/2021 6:30:00 PM 6.36 43.448 0.044 7.73 81.66 11.91
3/24/2021 6:45:00 PM 6.37 43.466 0.044 7.73 64.05 11.91
3/24/2021 7:00:00 PM 6.38 43.484 0.044 7.72 75.38 11.9
3/24/2021 7:15:00 PM 6.38 43.484 0.044 7.6 88.75 11.89
3/24/2021 7:30:00 PM 6.39 43.502 0.044 7.72 72.44 11.89
3/24/2021 7:45:00 PM 6.4 43.52 0.044 7.71 65.53 11.88
3/24/2021 8:00:00 PM 6.39 43.502 0.044 7.72 64.05 11.88
3/24/2021 8:15:00 PM 6.38 43.484 0.044 7.71 73.1 11.88
3/24/2021 8:30:00 PM 6.37 43.466 0.044 7.71 81.58 11.89
3/24/2021 8:45:00 PM 6.36 43.448 0.044 7.7 104.42 11.89
3/24/2021 9:00:00 PM 6.35 43.43 0.044 7.7 49.06 11.9
3/24/2021 9:15:00 PM 6.35 43.43 0.044 7.71 57.48 11.9
3/24/2021 9:30:00 PM 6.34 43.412 0.044 7.7 78.19 11.9
3/24/2021 9:45:00 PM 6.32 43.376 0.044 7.7 50.72 11.9
3/24/2021 10:00:00 PM 6.31 43.358 0.044 7.69 86.68 11.91
3/24/2021 10:15:00 PM 6.29 43.322 0.044 7.6 79.16 11.92
3/24/2021 10:30:00 PM 6.26 43.268 0.044 7.6 83.13 11.92
3/24/2021 10:45:00 PM 6.24 43.232 0.044 7.67 74.48 11.93
3/24/2021 11:00:00 PM 6.22 43.196 0.044 7.69 73.28 11.94
3/24/2021 11:15:00 PM 6.21 43.178 0.044 7.67 73.15 11.94
3/24/2021 11:30:00 PM 6.21 43.178 0.044 7.68 73.85 11.94
3/24/2021 11:45:00 PM 6.19 43.142 0.044 7.68 67 11.95
3/25/2021 12:00:00 AM 6.18 43.124 0.044 7.55 57.2 11.95
3/25/2021 12:15:00 AM 6.19 43.142 0.044 7.69 65.62 11.95
3/25/2021 12:30:00 AM 6.19 43.142 0.043 7.58 57.04 11.95
3/25/2021 12:45:00 AM 6.19 43.142 0.043 7.68 62.05 11.95
3/25/2021 1:00:00 AM 6.19 43.142 0.043 7.69 67.96 11.95
3/25/2021 1:15:00 AM 6.21 43.178 0.043 7.66 62.28 11.94
3/25/2021 1:30:00 AM 6.24 43.232 0.043 7.69 92.61 11.93
3/25/2021 1:45:00 AM 6.26 43.268 0.043 7.7 86.15 11.93
3/25/2021 2:00:00 AM 6.28 43.304 0.043 7.68 57.14 11.92
3/25/2021 2:15:00 AM 6.31 43.358 0.043 7.7 79.76 11.91
3/25/2021 2:30:00 AM 6.33 43.394 0.043 7.7 78.8 11.91
3/25/2021 2:45:00 AM 6.33 43.394 0.043 7.57 67.17 11.9
3/25/2021 3:00:00 AM 6.35 43.43 0.043 7.7 73.71 11.9
3/25/2021 3:15:00 AM 6.36 43.448 0.043 7.7 59.72 11.89
3/25/2021 3:30:00 AM 6.36 43.448 0.043 7.69 72.42 11.89
3/25/2021 3:45:00 AM 6.36 43.448 0.043 7.69 69.06 11.89
3/25/2021 4:00:00 AM 6.37 43.466 0.043 7.68 58.09 11.89
3/25/2021 4:15:00 AM 6.36 43.448 0.043 7.69 103.73 11.89
3/25/2021 4:30:00 AM 6.36 43.448 0.043 7.67 69.34 11.9
3/25/2021 4:45:00 AM 6.35 43.43 0.043 7.69 60.65 11.9
3/25/2021 5:00:00 AM 6.34 43.412 0.043 7.69 75.2 11.9
3/25/2021 5:15:00 AM 6.33 43.394 0.043 7.69 50.69 11.91
3/25/2021 5:30:00 AM 6.33 43.394 0.043 7.62 61.13 11.91
3/25/2021 5:45:00 AM 6.34 43.412 0.043 7.62 48.2 11.91
3/25/2021 6:00:00 AM 6.34 43.412 0.043 7.6 85.62 11.91
3/25/2021 6:15:00 AM 6.34 43.412 0.043 7.7 76.83 11.91
3/25/2021 6:30:00 AM 6.35 43.43 0.043 7.68 59.37 11.91
3/25/2021 6:45:00 AM 6.35 43.43 0.043 7.7 85.64 11.91
3/25/2021 7:00:00 AM 6.36 43.448 0.043 7.7 57.8 11.91
3/25/2021 7:15:00 AM 6.36 43.448 0.043 7.69 71.37 11.92
3/25/2021 7:30:00 AM 6.36 43.448 0.043 7.59 59.81 11.92
3/25/2021 7:45:00 AM 6.37 43.466 0.043 7.7 57.61 11.93
3/25/2021 8:00:00 AM 6.39 43.502 0.043 7.71 58.76 11.93
3/25/2021 8:15:00 AM 6.4 43.52 0.043 7.72 65.16 11.94
3/25/2021 8:30:00 AM 6.43 43.574 0.043 7.69 63.69 11.93
3/25/2021 8:45:00 AM 6.44 43.592 0.043 7.69 78.92 11.94
3/25/2021 9:00:00 AM 6.44 43.592 0.043 7.7 59.95 11.94
3/25/2021 9:15:00 AM 6.49 43.682 0.043 7.61 81.87 11.94
3/25/2021 9:30:00 AM 6.52 43.736 0.043 7.72 60.82 11.93
3/25/2021 9:45:00 AM 6.57 43.826 0.043 7.75 51.07 11.93
3/25/2021 10:00:00 AM 6.62 43.916 0.043 7.72 70.27 11.92
3/25/2021 10:15:00 AM 6.64 43.952 0.043 7.72 54.74 11.91
3/25/2021 10:30:00 AM 6.8 44.24 0.042 7.64 60.6 11.9
3/25/2021 10:45:00 AM 6.93 44.474 0.042 7.75 55.19 11.86
3/25/2021 11:00:00 AM 7.04 44.672 0.042 7.76 80.47 11.84
3/25/2021 11:15:00 AM 7.17 44.906 0.042 7.76 55.01 11.8
3/25/2021 11:30:00 AM 7.34 45.212 0.042 7.77 55.49 11.76
3/25/2021 11:45:00 AM 7.51 45.518 0.042 7.75 63.08 11.71
3/25/2021 12:00:00 PM 7.66 45.788 0.042 7.78 56.51 11.67
3/25/2021 12:15:00 PM 7.81 46.058 0.042 7.78 55.09 11.63
3/25/2021 12:30:00 PM 7.94 46.292 0.042 7.79 54.8 11.59
3/25/2021 12:45:00 PM 8.08 46.544 0.042 7.83 60.52 11.55
3/25/2021 1:00:00 PM 8.25 46.85 0.042 7.82 51.57 11.5
3/25/2021 1:15:00 PM 8.39 47.102 0.042 7.8 64.54 11.45
3/25/2021 1:30:00 PM 8.57 47.426 0.042 7.82 64.04 11.4
3/25/2021 1:45:00 PM 8.68 47.624 0.042 7.82 61.96 11.36
3/25/2021 2:00:00 PM 8.77 47.786 0.042 7.78 54.23 11.32
3/25/2021 2:15:00 PM 8.84 47.912 0.042 7.81 58.69 11.29
3/25/2021 2:30:00 PM 8.92 48.056 0.042 7.82 46.62 11.27
3/25/2021 2:45:00 PM 8.98 48.164 0.042 7.82 44.05 11.25
3/25/2021 3:00:00 PM 9.06 48.308 0.042 7.82 71.22 11.22
3/25/2021 3:15:00 PM 9.13 48.434 0.042 7.71 64.66 11.21
3/25/2021 3:30:00 PM 9.14 48.452 0.042 7.83 40.9 11.2
3/25/2021 3:45:00 PM 9.16 48.488 0.042 7.82 62.67 11.19
3/25/2021 4:00:00 PM 9.15 48.47 0.042 7.69 56.93 11.19
3/25/2021 4:15:00 PM 9.14 48.452 0.042 7.83 56.63 11.19
3/25/2021 4:30:00 PM 9.13 48.434 0.042 7.83 52.06 11.18
3/25/2021 4:45:00 PM 9.13 48.434 0.042 7.81 54.33 11.18
3/25/2021 5:00:00 PM 9.12 48.416 0.042 7.82 54.05 11.18
3/25/2021 5:15:00 PM 9.11 48.398 0.042 7.82 64.9 11.17
3/25/2021 5:30:00 PM 9.09 48.362 0.042 7.77 139.32 11.15
3/25/2021 5:45:00 PM 9.05 48.29 0.042 7.71 101.69 11.15
3/25/2021 6:00:00 PM 9 48.2 0.042 7.79 54.65 11.17
3/25/2021 6:15:00 PM 8.93 48.074 0.042 7.8 64.07 11.17
3/25/2021 6:30:00 PM 8.86 47.948 0.043 7.65 60.55 11.19
3/25/2021 6:45:00 PM 8.79 47.822 0.043 7.77 62.31 11.19
3/25/2021 7:00:00 PM 8.73 47.714 0.043 7.76 70.39 11.2
3/25/2021 7:15:00 PM 8.66 47.588 0.043 7.64 69.97 11.21
3/25/2021 7:30:00 PM 8.59 47.462 0.043 7.76 67.46 11.22
3/25/2021 7:45:00 PM 8.53 47.354 0.043 7.75 81.72 11.24
3/25/2021 8:00:00 PM 8.46 47.228 0.043 7.74 68.78 11.26
3/25/2021 8:15:00 PM 8.4 47.12 0.043 7.74 67.38 11.27
3/25/2021 8:30:00 PM 8.36 47.048 0.043 7.76 72.86 11.28
3/25/2021 8:45:00 PM 8.3 46.94 0.043 7.76 58.56 11.29
3/25/2021 9:00:00 PM 8.25 46.85 0.043 7.66 55.12 11.31
3/25/2021 9:15:00 PM 8.2 46.76 0.043 7.7 69.24 11.32
3/25/2021 9:30:00 PM 8.16 46.688 0.043 7.76 48.13 11.34
3/25/2021 9:45:00 PM 8.13 46.634 0.043 7.77 53.53 11.35
3/25/2021 10:00:00 PM 8.1 46.58 0.043 7.77 66.38 11.35
3/25/2021 10:15:00 PM 8.08 46.544 0.043 7.77 57.68 11.35
3/25/2021 10:30:00 PM 8.04 46.472 0.043 7.72 69.97 11.36
3/25/2021 10:45:00 PM 8.03 46.454 0.043 7.76 49.66 11.36
3/25/2021 11:00:00 PM 7.99 46.382 0.043 7.76 62.93 11.37
3/25/2021 11:15:00 PM 7.99 46.382 0.043 7.65 55.8 11.37
3/25/2021 11:30:00 PM 7.97 46.346 0.043 7.7 60.04 11.37
3/25/2021 11:45:00 PM 7.95 46.31 0.043 7.76 54.99 11.37
3/26/2021 12:00:00 AM 7.94 46.292 0.043 7.73 49.38 11.38
3/26/2021 12:15:00 AM 7.93 46.274 0.043 7.75 71.62 11.37
3/26/2021 12:30:00 AM 7.89 46.202 0.043 7.74 58.18 11.38
3/26/2021 12:45:00 AM 7.86 46.148 0.043 7.74 55.78 11.39
3/26/2021 1:00:00 AM 7.83 46.094 0.043 7.73 57.94 11.4
3/26/2021 1:15:00 AM 7.81 46.058 0.043 7.74 87.54 11.4
3/26/2021 1:30:00 AM 7.78 46.004 0.043 7.74 49.28 11.4
3/26/2021 1:45:00 AM 7.78 46.004 0.043 7.74 56.97 11.4
3/26/2021 2:00:00 AM 7.77 45.986 0.043 7.65 51.33 11.4
3/26/2021 2:15:00 AM 7.77 45.986 0.044 7.74 70.1 11.4
3/26/2021 2:30:00 AM 7.76 45.968 0.044 7.74 57.14 11.4
3/26/2021 2:45:00 AM 7.75 45.95 0.044 7.74 75.15 11.4
3/26/2021 3:00:00 AM 7.75 45.95 0.044 7.75 52.9 11.39
3/26/2021 3:15:00 AM 7.74 45.932 0.044 7.75 58.77 11.39
3/26/2021 3:30:00 AM 7.74 45.932 0.044 7.75 53.96 11.39
3/26/2021 3:45:00 AM 7.75 45.95 0.044 7.76 64.29 11.39
3/26/2021 4:00:00 AM 7.82 46.076 0.044 7.63 51.61 11.36
3/26/2021 4:15:00 AM 7.84 46.112 0.044 7.77 53.62 11.35
3/26/2021 4:30:00 AM 7.85 46.13 0.044 7.75 61.35 11.33
3/26/2021 4:45:00 AM 7.86 46.148 0.044 7.74 51.83 11.32
3/26/2021 5:00:00 AM 7.85 46.13 0.044 7.74 57.05 11.32
3/26/2021 5:15:00 AM 7.82 46.076 0.044 7.62 79.2 11.33
3/26/2021 5:30:00 AM 7.8 46.04 0.044 7.73 55.7 11.33
3/26/2021 5:45:00 AM 7.8 46.04 0.044 7.63 59.41 11.33
3/26/2021 6:00:00 AM 7.82 46.076 0.044 7.74 60.2 11.32
3/26/2021 6:15:00 AM 7.84 46.112 0.044 7.74 62.37 11.32
3/26/2021 6:30:00 AM 7.86 46.148 0.044 7.74 59.09 11.31
3/26/2021 6:45:00 AM 7.85 46.13 0.044 7.67 51.57 11.31
3/26/2021 7:00:00 AM 7.86 46.148 0.044 7.74 41.96 11.31
3/26/2021 7:15:00 AM 7.86 46.148 0.044 7.71 49.56 11.32
3/26/2021 7:30:00 AM 7.93 46.274 0.043 7.74 46.96 11.3
3/26/2021 7:45:00 AM 7.93 46.274 0.044 7.76 52.79 11.3
3/26/2021 8:00:00 AM 7.98 46.364 0.044 7.76 55.69 11.31
3/26/2021 8:15:00 AM 8.03 46.454 0.045 7.79 54.84 11.31
3/26/2021 8:30:00 AM 8.1 46.58 0.045 7.81 77.71 11.29
3/26/2021 8:45:00 AM 8.15 46.67 0.045 7.81 74.28 11.27
3/26/2021 9:00:00 AM 8.27 46.886 0.044 7.7 74.95 11.26
3/26/2021 9:15:00 AM 8.41 47.138 0.044 7.73 58.2 11.23
3/26/2021 9:30:00 AM 8.43 47.174 0.044 7.75 48.92 11.22
3/26/2021 9:45:00 AM 8.57 47.426 0.044 7.82 55.39 11.2
3/26/2021 10:00:00 AM 8.72 47.696 0.044 7.84 59.11 11.17
3/26/2021 10:15:00 AM 8.78 47.804 0.045 7.86 67.69 11.14
3/26/2021 10:30:00 AM 8.9 48.02 0.047 7.89 44.23 11.13
3/26/2021 10:45:00 AM 8.85 47.93 0.047 7.89 47.86 11.11
3/26/2021 11:00:00 AM 8.81 47.858 0.046 7.89 59 11.12
3/26/2021 11:15:00 AM 8.79 47.822 0.046 7.87 48.85 11.11
3/26/2021 11:30:00 AM 8.84 47.912 0.045 7.88 64.44 11.13
3/26/2021 11:45:00 AM 8.92 48.056 0.045 7.87 58.42 11.13
3/26/2021 12:00:00 PM 9.02 48.236 0.045 7.94 48.3 11.1
3/26/2021 12:15:00 PM 8.98 48.164 0.045 7.79 53.59 11.1
3/26/2021 12:30:00 PM 8.93 48.074 0.044 7.86 68.27 11.11
3/26/2021 12:45:00 PM 8.91 48.038 0.044 7.85 54.88 11.12
3/26/2021 1:00:00 PM 8.98 48.164 0.044 7.92 49.7 11.13
3/26/2021 1:15:00 PM 9.08 48.344 0.044 7.91 48.58 11.1
3/26/2021 1:30:00 PM 9.18 48.524 0.044 7.92 64.34 11.09
3/26/2021 1:45:00 PM 9.19 48.542 0.044 7.91 55.22 11.08
3/26/2021 2:00:00 PM 9.14 48.452 0.044 7.9 45.47 11.09
3/26/2021 2:15:00 PM 9.12 48.416 0.044 7.91 59.55 11.09
3/26/2021 2:30:00 PM 9.11 48.398 0.044 7.89 56.76 11.09
3/26/2021 2:45:00 PM 9.13 48.434 0.044 7.89 54.6 11.1
3/26/2021 3:00:00 PM 9.14 48.452 0.044 7.87 51.79 11.11
3/26/2021 3:15:00 PM 9.09 48.362 0.044 7.88 54.03 11.13
3/26/2021 3:30:00 PM 9.02 48.236 0.043 7.89 49.67 11.14
3/26/2021 3:45:00 PM 9.01 48.218 0.043 7.9 45.72 11.16
3/26/2021 4:00:00 PM 8.91 48.038 0.043 7.9 42.3 11.18
3/26/2021 4:15:00 PM 8.81 47.858 0.043 7.88 51.2 11.2
3/26/2021 4:30:00 PM 8.76 47.768 0.043 7.91 42.6 11.23
3/26/2021 4:45:00 PM 8.7 47.66 0.043 7.88 45.86 11.24
3/26/2021 5:00:00 PM 8.62 47.516 0.043 7.89 55.14 11.26
3/26/2021 5:15:00 PM 8.59 47.462 0.043 7.88 45.46 11.29
3/26/2021 5:30:00 PM 8.53 47.354 0.044 7.88 47.1 11.3
3/26/2021 5:45:00 PM 8.46 47.228 0.044 7.87 42.43 11.31
3/26/2021 6:00:00 PM 8.4 47.12 0.044 7.88 42.3 11.32
3/26/2021 6:15:00 PM 8.33 46.994 0.044 7.87 40.75 11.33
3/26/2021 6:30:00 PM 8.27 46.886 0.044 7.87 46.45 11.35
3/26/2021 6:45:00 PM 8.19 46.742 0.044 7.82 41.48 11.38
3/26/2021 7:00:00 PM 8.11 46.598 0.044 7.85 41.82 11.4
3/26/2021 7:15:00 PM 8.03 46.454 0.044 7.85 41.3 11.41
3/26/2021 7:30:00 PM 7.96 46.328 0.044 7.85 37.61 11.42
3/26/2021 7:45:00 PM 7.9 46.22 0.044 7.84 44.16 11.44
3/26/2021 8:00:00 PM 7.84 46.112 0.044 7.82 35.41 11.46
3/26/2021 8:15:00 PM 7.78 46.004 0.044 7.83 36.15 11.47
3/26/2021 8:30:00 PM 7.72 45.896 0.044 7.8 32.96 11.49
3/26/2021 8:45:00 PM 7.65 45.77 0.044 7.82 43.32 11.51
3/26/2021 9:00:00 PM 7.6 45.68 0.044 7.81 39.58 11.53
3/26/2021 9:15:00 PM 7.55 45.59 0.044 7.81 39 11.55
3/26/2021 9:30:00 PM 7.49 45.482 0.044 7.84 36.88 11.58
3/26/2021 9:45:00 PM 7.43 45.374 0.044 7.81 49.34 11.6
3/26/2021 10:00:00 PM 7.38 45.284 0.044 7.81 29.53 11.61
3/26/2021 10:15:00 PM 7.34 45.212 0.045 7.82 51.36 11.62
3/26/2021 10:30:00 PM 7.29 45.122 0.045 7.82 32.99 11.64
3/26/2021 10:45:00 PM 7.25 45.05 0.045 7.82 35.46 11.65
3/26/2021 11:00:00 PM 7.2 44.96 0.045 7.83 29.23 11.67
3/26/2021 11:15:00 PM 7.16 44.888 0.045 7.81 33.51 11.68
3/26/2021 11:30:00 PM 7.12 44.816 0.045 7.82 41.63 11.69
3/26/2021 11:45:00 PM 7.09 44.762 0.045 7.81 31.98 11.7
3/27/2021 12:00:00 AM 7.07 44.726 0.044 7.66 38.3 11.71
3/27/2021 12:15:00 AM 7.04 44.672 0.045 7.77 37.7 11.71
3/27/2021 12:30:00 AM 7.01 44.618 0.045 7.79 31.54 11.72
3/27/2021 12:45:00 AM 6.98 44.564 0.045 7.78 30.79 11.73
3/27/2021 1:00:00 AM 6.96 44.528 0.045 7.8 37.87 11.74
3/27/2021 1:15:00 AM 6.93 44.474 0.045 7.8 25.49 11.74
3/27/2021 1:30:00 AM 6.91 44.438 0.045 7.79 35.09 11.75
3/27/2021 1:45:00 AM 6.89 44.402 0.045 7.79 30.07 11.76
3/27/2021 2:00:00 AM 6.87 44.366 0.045 7.68 32 11.76
3/27/2021 2:15:00 AM 6.85 44.33 0.045 7.76 39.37 11.77
3/27/2021 2:30:00 AM 6.84 44.312 0.045 7.77 35.39 11.77
3/27/2021 2:45:00 AM 6.82 44.276 0.045 7.78 43.74 11.77
3/27/2021 3:00:00 AM 6.8 44.24 0.045 7.79 29.61 11.78
3/27/2021 3:15:00 AM 6.79 44.222 0.045 7.78 42.36 11.79
3/27/2021 3:30:00 AM 6.78 44.204 0.045 7.76 29.43 11.79
3/27/2021 3:45:00 AM 6.75 44.15 0.045 7.68 32.54 11.79
3/27/2021 4:00:00 AM 6.73 44.114 0.045 7.79 26.69 11.8
3/27/2021 4:15:00 AM 6.72 44.096 0.045 7.79 52.21 11.81
3/27/2021 4:30:00 AM 6.71 44.078 0.045 7.67 24.64 11.81
3/27/2021 4:45:00 AM 6.69 44.042 0.045 7.8 33.76 11.82
3/27/2021 5:00:00 AM 6.68 44.024 0.045 7.8 47.89 11.82
3/27/2021 5:15:00 AM 6.67 44.006 0.045 7.79 36.88 11.82
3/27/2021 5:30:00 AM 6.65 43.97 0.045 7.8 46.11 11.83
3/27/2021 5:45:00 AM 6.64 43.952 0.045 7.8 44.27 11.83
3/27/2021 6:00:00 AM 6.63 43.934 0.045 7.69 36.63 11.83
3/27/2021 6:15:00 AM 6.62 43.916 0.045 7.8 33.76 11.84
3/27/2021 6:30:00 AM 6.6 43.88 0.045 7.79 33.69 11.85
3/27/2021 6:45:00 AM 6.58 43.844 0.045 7.8 60.83 11.86
3/27/2021 7:00:00 AM 6.58 43.844 0.045 7.8 48.67 11.86
3/27/2021 7:15:00 AM 6.57 43.826 0.045 7.8 38.92 11.87
3/27/2021 7:30:00 AM 6.56 43.808 0.045 7.8 40.23 11.88
3/27/2021 7:45:00 AM 6.57 43.826 0.045 7.8 38.97 11.89
3/27/2021 8:00:00 AM 6.58 43.844 0.045 7.81 39.58 11.91
3/27/2021 8:15:00 AM 6.6 43.88 0.045 7.81 44.98 11.91
3/27/2021 8:30:00 AM 6.63 43.934 0.045 7.83 44.71 11.92
3/27/2021 8:45:00 AM 6.66 43.988 0.045 7.79 42.53 11.93
3/27/2021 9:00:00 AM 6.7 44.06 0.045 7.85 36.16 11.92
3/27/2021 9:15:00 AM 6.75 44.15 0.045 7.86 35.34 11.92
3/27/2021 9:30:00 AM 6.81 44.258 0.045 7.86 33.23 11.91
3/27/2021 9:45:00 AM 6.83 44.294 0.045 7.86 40.99 11.9
3/27/2021 10:00:00 AM 6.85 44.33 0.045 7.87 47.74 11.89
3/27/2021 10:15:00 AM 6.94 44.492 0.045 7.88 38.2 11.88
3/27/2021 10:30:00 AM 7.05 44.69 0.045 7.87 27.48 11.84
3/27/2021 10:45:00 AM 7.09 44.762 0.045 7.87 40.22 11.84
3/27/2021 11:00:00 AM 7.26 45.068 0.045 7.89 32.09 11.81
3/27/2021 11:15:00 AM 7.27 45.086 0.045 7.89 63.72 11.79
3/27/2021 11:30:00 AM 7.25 45.05 0.045 7.9 27.87 11.79
3/27/2021 11:45:00 AM 7.46 45.428 0.045 7.81 30.96 11.74
3/27/2021 12:00:00 PM 7.7 45.86 0.045 7.91 42.19 11.68
3/27/2021 12:15:00 PM 7.7 45.86 0.045 7.9 30.18 11.67
3/27/2021 12:30:00 PM 7.91 46.238 0.045 7.91 45.61 11.63
3/27/2021 12:45:00 PM 8.08 46.544 0.045 7.86 32.77 11.58
3/27/2021 1:00:00 PM 8.25 46.85 0.045 7.92 31.52 11.53
3/27/2021 1:15:00 PM 8.39 47.102 0.045 7.92 34.66 11.48
3/27/2021 1:30:00 PM 8.51 47.318 0.045 7.91 45.47 11.43
3/27/2021 1:45:00 PM 8.63 47.534 0.045 7.9 38.48 11.4
3/27/2021 2:00:00 PM 8.69 47.642 0.045 7.91 49.17 11.38
3/27/2021 2:15:00 PM 8.78 47.804 0.045 7.93 36.37 11.35
3/27/2021 2:30:00 PM 8.81 47.858 0.045 7.89 45.26 11.33
3/27/2021 2:45:00 PM 8.88 47.984 0.045 7.94 35.41 11.31
3/27/2021 3:00:00 PM 8.93 48.074 0.045 7.92 47.57 11.3
3/27/2021 3:15:00 PM 8.96 48.128 0.045 7.94 32.65 11.29
3/27/2021 3:30:00 PM 8.97 48.146 0.045 7.93 38 11.28
3/27/2021 3:45:00 PM 9 48.2 0.045 7.94 39.42 11.26
3/27/2021 4:00:00 PM 9.01 48.218 0.045 7.81 39.38 11.25
3/27/2021 4:15:00 PM 9.01 48.218 0.045 7.93 38.68 11.25
3/27/2021 4:30:00 PM 9.01 48.218 0.045 7.91 44.96 11.25
3/27/2021 4:45:00 PM 9.01 48.218 0.045 7.87 37.7 11.24
3/27/2021 5:00:00 PM 9 48.2 0.045 7.93 47.31 11.24
3/27/2021 5:15:00 PM 9 48.2 0.045 7.92 33.39 11.23
3/27/2021 5:30:00 PM 8.97 48.146 0.045 7.93 69.55 11.21
3/27/2021 5:45:00 PM 8.94 48.092 0.045 7.92 37.9 11.22
3/27/2021 6:00:00 PM 8.93 48.074 0.045 7.91 49.68 11.21
3/27/2021 6:15:00 PM 8.88 47.984 0.045 7.91 42.15 11.21
3/27/2021 6:30:00 PM 8.84 47.912 0.045 7.89 37.79 11.21
3/27/2021 6:45:00 PM 8.8 47.84 0.045 7.89 45.28 11.2
3/27/2021 7:00:00 PM 8.75 47.75 0.05 7.9 38.21 11.21
3/27/2021 7:15:00 PM 8.71 47.678 0.046 7.88 50.68 11.22
3/27/2021 7:30:00 PM 8.66 47.588 0.046 7.87 46.42 11.21
3/27/2021 7:45:00 PM 8.6 47.48 0.089 7.88 39.31 11.22
3/27/2021 8:00:00 PM 8.55 47.39 0.046 7.87 46.81 11.23
3/27/2021 8:15:00 PM 8.49 47.282 0.046 7.86 40.63 11.25
3/27/2021 8:30:00 PM 8.44 47.192 0.09 7.84 47.39 11.26
3/27/2021 8:45:00 PM 8.39 47.102 0.047 7.86 40.51 11.28
3/27/2021 9:00:00 PM 8.33 46.994 0.046 7.86 40.03 11.3
3/27/2021 9:15:00 PM 8.26 46.868 0.046 7.86 44.57 11.31
3/27/2021 9:30:00 PM 8.2 46.76 0.046 7.86 34.06 11.33
3/27/2021 9:45:00 PM 8.13 46.634 0.046 7.83 47.56 11.35
3/27/2021 10:00:00 PM 8.06 46.508 0.046 7.85 39.13 11.37
3/27/2021 10:15:00 PM 7.99 46.382 0.046 7.73 47.1 11.38
3/27/2021 10:30:00 PM 7.92 46.256 0.046 7.85 36.11 11.4
3/27/2021 10:45:00 PM 7.86 46.148 0.046 7.86 35.3 11.42
3/27/2021 11:00:00 PM 7.79 46.022 0.046 7.73 26.08 11.43
3/27/2021 11:15:00 PM 7.72 45.896 0.047 7.86 36.41 11.45
3/27/2021 11:30:00 PM 7.65 45.77 0.047 7.86 44.39 11.48
3/27/2021 11:45:00 PM 7.58 45.644 0.047 7.73 28.47 11.49
3/28/2021 12:00:00 AM 7.52 45.536 0.047 7.91 2622.98 11.51
3/28/2021 12:15:00 AM 7.46 45.428 0.047 7.87 31.71 11.52
3/28/2021 12:30:00 AM 7.39 45.302 0.047 7.64 42.41 11.53
3/28/2021 12:45:00 AM 7.34 45.212 0.047 7.85 34.87 11.55
3/28/2021 1:00:00 AM 7.28 45.104 0.047 7.83 33.15 11.56
3/28/2021 1:15:00 AM 7.22 44.996 0.047 7.83 32.54 11.57
3/28/2021 1:30:00 AM 7.17 44.906 0.047 7.83 62.65 11.59
3/28/2021 1:45:00 AM 7.12 44.816 0.047 7.68 40.5 11.6
3/28/2021 2:00:00 AM 7.08 44.744 0.047 7.73 37.82 11.61
3/28/2021 2:15:00 AM 7.05 44.69 0.047 7.84 59.82 11.62
3/28/2021 2:30:00 AM 7.01 44.618 0.047 7.84 39.72 11.63
3/28/2021 2:45:00 AM 6.99 44.582 0.047 7.69 51.95 11.63
3/28/2021 3:00:00 AM 6.97 44.546 0.047 7.69 34.1 11.64
3/28/2021 3:15:00 AM 6.93 44.474 0.047 7.83 37.09 11.64
3/28/2021 3:30:00 AM 6.92 44.456 0.047 7.68 42.47 11.65
3/28/2021 3:45:00 AM 6.89 44.402 0.047 7.73 37.36 11.65
3/28/2021 4:00:00 AM 6.87 44.366 0.047 7.82 34.24 11.65
3/28/2021 4:15:00 AM 6.85 44.33 0.047 7.78 38.91 11.66
3/28/2021 4:30:00 AM 6.84 44.312 0.047 7.85 45.15 11.66
3/28/2021 4:45:00 AM 6.84 44.312 0.047 7.82 36.22 11.66
3/28/2021 5:00:00 AM 6.83 44.294 0.047 7.83 37.12 11.66
3/28/2021 5:15:00 AM 6.83 44.294 0.047 7.68 28.99 11.65
3/28/2021 5:30:00 AM 6.82 44.276 0.047 7.74 29.53 11.66
3/28/2021 5:45:00 AM 6.82 44.276 0.047 7.84 30.07 11.66
3/28/2021 6:00:00 AM 6.81 44.258 0.047 7.82 39.28 11.65
3/28/2021 6:15:00 AM 6.81 44.258 0.047 7.83 29.64 11.65
3/28/2021 6:30:00 AM 6.83 44.294 0.047 7.81 31.88 11.65
3/28/2021 6:45:00 AM 6.85 44.33 0.047 7.83 30.97 11.65
3/28/2021 7:00:00 AM 6.87 44.366 0.047 7.69 52.73 11.64
3/28/2021 7:15:00 AM 6.89 44.402 0.047 7.85 32.24 11.63
3/28/2021 7:30:00 AM 6.92 44.456 0.047 7.84 30.82 11.62
3/28/2021 7:45:00 AM 6.96 44.528 0.047 7.85 28.4 11.61
3/28/2021 8:00:00 AM 6.98 44.564 0.047 7.78 42.04 11.6
3/28/2021 8:15:00 AM 7.01 44.618 0.047 7.84 34.84 11.6
3/28/2021 8:30:00 AM 7.04 44.672 0.047 7.85 37.8 11.59
3/28/2021 8:45:00 AM 7.05 44.69 0.047 7.84 57.56 11.59
3/28/2021 9:00:00 AM 7.08 44.744 0.047 7.87 38.09 11.59
3/28/2021 9:15:00 AM 7.12 44.816 0.047 7.87 43.38 11.58
3/28/2021 9:30:00 AM 7.13 44.834 0.047 7.67 33.51 11.57
3/28/2021 9:45:00 AM 7.16 44.888 0.047 7.89 36.91 11.56
3/28/2021 10:00:00 AM 7.19 44.942 0.047 7.88 39.92 11.55
3/28/2021 10:15:00 AM 7.23 45.014 0.047 7.87 39.58 11.54
3/28/2021 10:30:00 AM 7.29 45.122 0.047 7.89 38.01 11.54
3/28/2021 10:45:00 AM 7.34 45.212 0.047 7.76 51.13 11.52
3/28/2021 11:00:00 AM 7.4 45.32 0.047 7.88 60.69 11.5
3/28/2021 11:15:00 AM 7.44 45.392 0.047 7.9 37.05 11.48
3/28/2021 11:30:00 AM 7.49 45.482 0.047 7.89 42.72 11.47
3/28/2021 11:45:00 AM 7.54 45.572 0.047 7.92 47 11.46
3/28/2021 12:00:00 PM 7.59 45.662 0.047 7.88 56.32 11.43
3/28/2021 12:15:00 PM 7.64 45.752 0.047 7.93 51.19 11.42
3/28/2021 12:30:00 PM 7.67 45.806 0.047 7.93 48.97 11.41
3/28/2021 12:45:00 PM 7.7 45.86 0.048 7.84 45.79 11.38
3/28/2021 1:00:00 PM 7.78 46.004 0.048 7.92 44.09 11.37
3/28/2021 1:15:00 PM 7.84 46.112 0.048 7.94 37.83 11.37
3/28/2021 1:30:00 PM 7.89 46.202 0.048 7.95 48.26 11.35
3/28/2021 1:45:00 PM 7.96 46.328 0.048 7.89 38.73 11.33
3/28/2021 2:00:00 PM 8.02 46.436 0.048 7.82 45.55 11.32
3/28/2021 2:15:00 PM 8.06 46.508 0.048 7.97 41.55 11.28
3/28/2021 2:30:00 PM 8.06 46.508 0.048 7.95 64.08 11.25
3/28/2021 2:45:00 PM 8.09 46.562 0.048 7.95 46.46 11.24
3/28/2021 3:00:00 PM 8.12 46.616 0.048 7.93 40.49 11.22
3/28/2021 3:15:00 PM 8.2 46.76 0.047 7.94 61.55 11.21
3/28/2021 3:30:00 PM 8.18 46.724 0.051 8.02 85.07 11.2
3/28/2021 3:45:00 PM 8.17 46.706 0.05 7.98 93.74 11.2
3/28/2021 4:00:00 PM 8.15 46.67 0.06 8.18 196.96 11.19
3/28/2021 4:15:00 PM 8.16 46.688 0.059 8.13 143.39 11.2
3/28/2021 4:30:00 PM 8.15 46.67 0.058 8.1 142.33 11.21
3/28/2021 4:45:00 PM 8.12 46.616 0.055 8.08 127.7 11.23
3/28/2021 5:00:00 PM 8.11 46.598 0.054 7.97 135.16 11.26
3/28/2021 5:15:00 PM 8.11 46.598 0.052 8.01 112.37 11.29
3/28/2021 5:30:00 PM 8.09 46.562 0.05 7.94 81.83 11.3
3/28/2021 5:45:00 PM 8.02 46.436 0.05 8.01 74.52 11.3
3/28/2021 6:00:00 PM 7.97 46.346 0.049 7.98 67.34 11.31
3/28/2021 6:15:00 PM 7.88 46.184 0.05 7.99 96.92 11.31
3/28/2021 6:30:00 PM 7.84 46.112 0.05 7.97 57.81 11.31
3/28/2021 6:45:00 PM 7.81 46.058 0.051 7.93 83.72 11.31
3/28/2021 7:00:00 PM 7.73 45.914 0.051 7.99 48.05 11.34
3/28/2021 7:15:00 PM 7.64 45.752 0.051 7.98 72.44 11.35
3/28/2021 7:30:00 PM 7.55 45.59 0.051 7.98 124.09 11.37
3/28/2021 7:45:00 PM 7.47 45.446 0.051 7.98 58.81 11.39
3/28/2021 8:00:00 PM 7.39 45.302 0.051 7.92 131.33 11.42
3/28/2021 8:15:00 PM 7.31 45.158 0.05 7.97 76.86 11.44
3/28/2021 8:30:00 PM 7.24 45.032 0.05 7.93 59.1 11.47
3/28/2021 8:45:00 PM 7.18 44.924 0.05 7.95 74.04 11.49
3/28/2021 9:00:00 PM 7.1 44.78 0.05 7.83 78.44 11.52
3/28/2021 9:15:00 PM 7.03 44.654 0.049 7.95 61.21 11.54
3/28/2021 9:30:00 PM 6.94 44.492 0.049 7.93 52.52 11.57
3/28/2021 9:45:00 PM 6.86 44.348 0.049 7.94 42.95 11.6
3/28/2021 10:00:00 PM 6.79 44.222 0.049 7.79 62.83 11.62
3/28/2021 10:15:00 PM 6.73 44.114 0.049 7.95 69.44 11.64
3/28/2021 10:30:00 PM 6.66 43.988 0.049 7.9 78.22 11.67
3/28/2021 10:45:00 PM 6.56 43.808 0.049 7.93 47.51 11.69
3/28/2021 11:00:00 PM 6.46 43.628 0.049 7.78 51.19 11.72
3/28/2021 11:15:00 PM 6.37 43.466 0.049 7.93 47.75 11.75
3/28/2021 11:30:00 PM 6.33 43.394 0.049 7.91 66.18 11.77
3/28/2021 11:45:00 PM 6.24 43.232 0.049 7.78 58.91 11.8
3/29/2021 12:00:00 AM 6.19 43.142 0.049 7.91 41.01 11.82
3/29/2021 12:15:00 AM 6.11 42.998 0.049 7.9 52.97 11.84
3/29/2021 12:30:00 AM 6.02 42.836 0.049 7.87 48.34 11.87
3/29/2021 12:45:00 AM 5.95 42.71 0.049 7.89 64.18 11.9
3/29/2021 1:00:00 AM 5.86 42.548 0.048 7.88 58.06 11.93
3/29/2021 1:15:00 AM 5.77 42.386 0.048 7.7 68.76 11.96
3/29/2021 1:30:00 AM 5.69 42.242 0.048 7.89 83.53 11.98
3/29/2021 1:45:00 AM 5.63 42.134 0.048 7.7 41.99 12
3/29/2021 2:00:00 AM 5.57 42.026 0.048 7.83 47.78 12.02
3/29/2021 2:15:00 AM 5.5 41.9 0.048 7.88 52.94 12.04
3/29/2021 2:30:00 AM 5.44 41.792 0.048 7.7 38.93 12.07
3/29/2021 2:45:00 AM 5.38 41.684 0.048 7.81 39.15 12.09
3/29/2021 3:00:00 AM 5.33 41.594 0.048 7.88 57.51 12.11
3/29/2021 3:15:00 AM 5.29 41.522 0.048 7.81 43.5 12.12
3/29/2021 3:30:00 AM 5.22 41.396 0.048 7.87 44.21 12.14
3/29/2021 3:45:00 AM 5.15 41.27 0.048 7.87 33.99 12.17
3/29/2021 4:00:00 AM 5.11 41.198 0.048 7.86 49.68 12.19
3/29/2021 4:15:00 AM 5.07 41.126 0.048 7.67 39.14 12.21
3/29/2021 4:30:00 AM 5.03 41.054 0.048 7.88 48.59 12.23
3/29/2021 4:45:00 AM 4.99 40.982 0.048 7.87 83.03 12.24
3/29/2021 5:00:00 AM 4.95 40.91 0.048 7.74 45.58 12.26
3/29/2021 5:15:00 AM 4.9 40.82 0.048 7.77 42.41 12.28
3/29/2021 5:30:00 AM 4.87 40.766 0.048 7.89 37.8 12.29
3/29/2021 5:45:00 AM 4.84 40.712 0.048 7.87 35.54 12.31
3/29/2021 6:00:00 AM 4.8 40.64 0.048 7.85 48.61 12.33
3/29/2021 6:15:00 AM 4.76 40.568 0.048 7.87 45.96 12.35
3/29/2021 6:30:00 AM 4.73 40.514 0.048 7.71 50.06 12.36
3/29/2021 6:45:00 AM 4.69 40.442 0.048 7.88 38.41 12.38
3/29/2021 7:00:00 AM 4.66 40.388 0.048 7.88 45.44 12.39
3/29/2021 7:15:00 AM 4.62 40.316 0.048 7.77 38.89 12.41
3/29/2021 7:30:00 AM 4.58 40.244 0.048 7.86 58.57 12.44
3/29/2021 7:45:00 AM 4.54 40.172 0.048 7.88 47.14 12.46
3/29/2021 8:00:00 AM 4.52 40.136 0.048 7.86 42.52 12.47
3/29/2021 8:15:00 AM 4.51 40.118 0.048 7.88 52.72 12.49
3/29/2021 8:30:00 AM 4.48 40.064 0.048 7.89 68.39 12.51
3/29/2021 8:45:00 AM 4.46 40.028 0.048 7.89 36.74 12.55
3/29/2021 9:00:00 AM 4.48 40.064 0.048 7.89 40.52 12.56
3/29/2021 9:15:00 AM 4.46 40.028 0.048 7.81 37.25 12.58
3/29/2021 9:30:00 AM 4.45 40.01 0.048 7.9 35 12.59
3/29/2021 9:45:00 AM 4.45 40.01 0.048 7.89 34.02 12.6
3/29/2021 10:00:00 AM 4.46 40.028 0.048 7.87 45.44 12.61
3/29/2021 10:15:00 AM 4.49 40.082 0.048 7.91 42.71 12.62
3/29/2021 10:30:00 AM 4.52 40.136 0.048 7.92 34.65 12.61
3/29/2021 10:45:00 AM 4.51 40.118 0.048 7.76 34.3 12.62
3/29/2021 11:00:00 AM 4.56 40.208 0.048 7.86 55.19 12.62
3/29/2021 11:15:00 AM 4.69 40.442 0.047 7.91 40.53 12.59
3/29/2021 11:30:00 AM 4.79 40.622 0.047 7.92 39.74 12.58
3/29/2021 11:45:00 AM 4.86 40.748 0.047 7.91 38.39 12.55
3/29/2021 12:00:00 PM 4.93 40.874 0.047 7.94 41.11 12.52
3/29/2021 12:15:00 PM 5.19 41.342 0.047 7.79 89.96 12.47
3/29/2021 12:30:00 PM 5.18 41.324 0.047 7.95 56.32 12.45
3/29/2021 12:45:00 PM 5.12 41.216 0.047 7.93 69.06 12.46
3/29/2021 1:00:00 PM 5.36 41.648 0.047 7.91 42.66 12.42
3/29/2021 1:15:00 PM 5.57 42.026 0.047 7.94 43.2 12.36
3/29/2021 1:30:00 PM 5.61 42.098 0.047 7.76 37.32 12.32
3/29/2021 1:45:00 PM 5.67 42.206 0.047 7.96 34.03 12.31
3/29/2021 2:00:00 PM 5.73 42.314 0.047 7.95 37.7 12.28
3/29/2021 2:15:00 PM 5.8 42.44 0.047 7.94 38.11 12.26
3/29/2021 2:30:00 PM 5.79 42.422 0.047 7.77 37.57 12.25
3/29/2021 2:45:00 PM 5.85 42.53 0.047 7.88 60.21 12.23
3/29/2021 3:00:00 PM 5.88 42.584 0.047 7.95 44.45 12.21
3/29/2021 3:15:00 PM 5.91 42.638 0.047 7.93 69.21 12.2
3/29/2021 3:30:00 PM 5.93 42.674 0.047 7.95 48.78 12.18
3/29/2021 3:45:00 PM 5.93 42.674 0.047 7.95 40.62 12.18
3/29/2021 4:00:00 PM 5.91 42.638 0.047 7.83 42.77 12.17
3/29/2021 4:15:00 PM 5.88 42.584 0.047 7.85 49.51 12.18
3/29/2021 4:30:00 PM 5.84 42.512 0.047 7.95 40.71 12.18
3/29/2021 4:45:00 PM 5.78 42.404 0.047 7.94 51.62 12.19
3/29/2021 5:00:00 PM 5.73 42.314 0.047 7.77 64.12 12.2
3/29/2021 5:15:00 PM 5.7 42.26 0.047 7.88 39.08 12.2
3/29/2021 5:30:00 PM 5.66 42.188 0.047 7.93 54.48 12.21
3/29/2021 5:45:00 PM 5.63 42.134 0.047 7.93 126.89 12.21
3/29/2021 6:00:00 PM 5.61 42.098 0.047 7.92 78.76 12.21
3/29/2021 6:15:00 PM 5.59 42.062 0.047 7.91 62.78 12.21
3/29/2021 6:30:00 PM 5.58 42.044 0.047 7.9 51.81 12.21
3/29/2021 6:45:00 PM 5.55 41.99 0.047 7.9 70.94 12.22
3/29/2021 7:00:00 PM 5.53 41.954 0.047 7.74 77.98 12.22
3/29/2021 7:15:00 PM 5.49 41.882 0.047 7.88 52.44 12.23
3/29/2021 7:30:00 PM 5.44 41.792 0.047 7.91 52.11 12.24
3/29/2021 7:45:00 PM 5.39 41.702 0.047 7.76 81.13 12.24
3/29/2021 8:00:00 PM 5.34 41.612 0.047 7.77 45.02 12.26
3/29/2021 8:15:00 PM 5.28 41.504 0.047 7.91 74.94 12.28
3/29/2021 8:30:00 PM 5.23 41.414 0.048 7.87 61.41 12.29
3/29/2021 8:45:00 PM 5.17 41.306 0.048 7.75 54.01 12.31
3/29/2021 9:00:00 PM 5.11 41.198 0.048 7.87 50.77 12.33
3/29/2021 9:15:00 PM 5.05 41.09 0.048 7.88 96.5 12.35
3/29/2021 9:30:00 PM 4.99 40.982 0.048 7.85 51.29 12.37
3/29/2021 9:45:00 PM 4.92 40.856 0.048 7.87 74.2 12.39
3/29/2021 10:00:00 PM 4.86 40.748 0.048 7.85 47.96 12.41
3/29/2021 10:15:00 PM 4.79 40.622 0.048 7.89 47.45 12.44
3/29/2021 10:30:00 PM 4.72 40.496 0.048 7.87 56.68 12.46
3/29/2021 10:45:00 PM 4.65 40.37 0.048 7.83 59.56 12.48
3/29/2021 11:00:00 PM 4.58 40.244 0.048 7.88 41.97 12.51
3/29/2021 11:15:00 PM 4.51 40.118 0.048 7.88 63.2 12.53
3/29/2021 11:30:00 PM 4.45 40.01 0.048 7.88 66.17 12.55
3/29/2021 11:45:00 PM 4.39 39.902 0.048 7.88 38.26 12.56
3/30/2021 12:00:00 AM 4.33 39.794 0.048 7.87 34.21 12.59
3/30/2021 12:15:00 AM 4.28 39.704 0.048 7.87 39.39 12.61
3/30/2021 12:30:00 AM 4.22 39.596 0.048 7.85 75.4 12.63
3/30/2021 12:45:00 AM 4.17 39.506 0.048 7.82 57.18 12.65
3/30/2021 1:00:00 AM 4.12 39.416 0.048 7.81 56.91 12.66
3/30/2021 1:15:00 AM 4.07 39.326 0.048 7.78 47.03 12.67
3/30/2021 1:30:00 AM 4.02 39.236 0.048 7.87 85.98 12.7
3/30/2021 1:45:00 AM 3.97 39.146 0.048 7.85 56.28 12.71
3/30/2021 2:00:00 AM 3.92 39.056 0.048 7.76 67.89 12.73
3/30/2021 2:15:00 AM 3.88 38.984 0.048 7.87 68.4 12.75
3/30/2021 2:30:00 AM 3.84 38.912 0.048 7.85 61.92 12.75
3/30/2021 2:45:00 AM 3.8 38.84 0.048 7.86 63.39 12.78
3/30/2021 3:00:00 AM 3.76 38.768 0.048 7.77 54.72 12.79
3/30/2021 3:15:00 AM 3.72 38.696 0.048 7.81 38.89 12.8
3/30/2021 3:30:00 AM 3.68 38.624 0.048 7.85 68.09 12.8
3/30/2021 3:45:00 AM 3.65 38.57 0.048 7.79 44.35 12.82
3/30/2021 4:00:00 AM 3.61 38.498 0.048 7.84 56.42 12.84
3/30/2021 4:15:00 AM 3.58 38.444 0.048 7.83 46.36 12.84
3/30/2021 4:30:00 AM 3.55 38.39 0.048 7.84 51.63 12.86
3/30/2021 4:45:00 AM 3.52 38.336 0.048 7.84 68.34 12.86
3/30/2021 5:00:00 AM 3.49 38.282 0.048 7.85 64.66 12.88
3/30/2021 5:15:00 AM 3.46 38.228 0.048 7.85 59.56 12.89
3/30/2021 5:30:00 AM 3.43 38.174 0.048 7.85 44.09 12.9
3/30/2021 5:45:00 AM 3.4 38.12 0.048 7.85 47.87 12.91
3/30/2021 6:00:00 AM 3.38 38.084 0.048 7.85 38.49 12.92
3/30/2021 6:15:00 AM 3.35 38.03 0.048 7.82 39.1 12.93
3/30/2021 6:30:00 AM 3.33 37.994 0.048 7.85 36.35 12.94
3/30/2021 6:45:00 AM 3.3 37.94 0.048 7.82 41.47 12.94
3/30/2021 7:00:00 AM 3.28 37.904 0.048 7.81 35.33 12.96
3/30/2021 7:15:00 AM 3.27 37.886 0.048 7.85 43.31 12.98
3/30/2021 7:30:00 AM 3.26 37.868 0.028 7.86 45.63 12.99
3/30/2021 7:45:00 AM 3.27 37.886 0.048 7.86 36.3 13.02
3/30/2021 8:00:00 AM 3.31 37.958 0.048 7.86 37.98 13.02
3/30/2021 8:15:00 AM 3.36 38.048 0.048 7.89 47.77 13.02
3/30/2021 8:30:00 AM 3.45 38.21 0.048 7.9 51.72 13.01
3/30/2021 8:45:00 AM 3.56 38.408 0.048 7.89 53.33 12.99
3/30/2021 9:00:00 AM 3.68 38.624 0.048 7.9 48.45 12.96
3/30/2021 9:15:00 AM 3.8 38.84 0.048 7.92 45.58 12.94
3/30/2021 9:30:00 AM 3.94 39.092 0.048 7.92 61.42 12.9
3/30/2021 9:45:00 AM 4.12 39.416 0.048 7.9 64.83 12.85
3/30/2021 10:00:00 AM 4.31 39.758 0.048 7.94 56.13 12.79
3/30/2021 10:15:00 AM 4.51 40.118 0.048 7.94 74.67 12.73
3/30/2021 10:30:00 AM 4.7 40.46 0.048 7.93 63.04 12.67
3/30/2021 10:45:00 AM 4.89 40.802 0.048 7.93 57.21 12.62
3/30/2021 11:00:00 AM 5.07 41.126 0.048 7.95 73.49 12.56
3/30/2021 11:15:00 AM 5.26 41.468 0.048 7.97 44.37 12.5
3/30/2021 11:30:00 AM 5.45 41.81 0.048 7.85 67.71 12.44
3/30/2021 11:45:00 AM 5.66 42.188 0.048 7.98 70.19 12.38
3/30/2021 12:00:00 PM 5.85 42.53 0.048 7.97 77.11 12.31
3/30/2021 12:15:00 PM 6.04 42.872 0.047 7.99 60.39 12.25
3/30/2021 12:30:00 PM 6.22 43.196 0.047 7.98 76.18 12.19
3/30/2021 12:45:00 PM 6.41 43.538 0.047 8.01 47.53 12.14
3/30/2021 1:00:00 PM 6.59 43.862 0.047 8 59.25 12.07
3/30/2021 1:15:00 PM 6.77 44.186 0.047 7.96 50.27 12.01
3/30/2021 1:30:00 PM 6.96 44.528 0.047 8.02 64.79 11.94
3/30/2021 1:45:00 PM 7.14 44.852 0.047 8.02 53.25 11.88
3/30/2021 2:00:00 PM 7.29 45.122 0.047 8.03 82.92 11.83
3/30/2021 2:15:00 PM 7.41 45.338 0.047 8.02 75.24 11.79
3/30/2021 2:30:00 PM 7.51 45.518 0.047 8.02 66.44 11.75
3/30/2021 2:45:00 PM 7.6 45.68 0.047 7.92 79.73 11.71
3/30/2021 3:00:00 PM 7.69 45.842 0.047 7.95 93.5 11.68
3/30/2021 3:15:00 PM 7.75 45.95 0.047 8.01 62.7 11.65
3/30/2021 3:30:00 PM 7.81 46.058 0.047 8.01 65.57 11.62
3/30/2021 3:45:00 PM 7.86 46.148 0.047 8.02 72.04 11.6
3/30/2021 4:00:00 PM 7.9 46.22 0.047 8.05 65.87 11.58
3/30/2021 4:15:00 PM 7.9 46.22 0.047 8.04 61.71 11.56
3/30/2021 4:30:00 PM 7.89 46.202 0.047 8.04 96.76 11.56
3/30/2021 4:45:00 PM 7.87 46.166 0.047 8.04 80.86 11.56
3/30/2021 5:00:00 PM 7.88 46.184 0.047 8.04 83.6 11.55
3/30/2021 5:15:00 PM 7.87 46.166 0.047 8.03 78.3 11.54
3/30/2021 5:30:00 PM 7.84 46.112 0.047 8.02 67.68 11.53
3/30/2021 5:45:00 PM 7.81 46.058 0.047 8.02 69.49 11.53
3/30/2021 6:00:00 PM 7.8 46.04 0.047 8.01 139.19 11.51
3/30/2021 6:15:00 PM 7.8 46.04 0.047 8.01 93.09 11.51
3/30/2021 6:30:00 PM 7.79 46.022 0.048 8.02 80.31 11.51
3/30/2021 6:45:00 PM 7.8 46.04 0.048 8.02 62.72 11.51
3/30/2021 7:00:00 PM 7.78 46.004 0.048 8.01 54.4 11.5
3/30/2021 7:15:00 PM 7.76 45.968 0.048 7.99 61.73 11.49
3/30/2021 7:30:00 PM 7.73 45.914 0.048 7.99 53.08 11.49
3/30/2021 7:45:00 PM 7.71 45.878 0.048 8 60.55 11.48
3/30/2021 8:00:00 PM 7.69 45.842 0.048 7.99 56.47 11.49
3/30/2021 8:15:00 PM 7.66 45.788 0.048 7.98 70 11.5
3/30/2021 8:30:00 PM 7.64 45.752 0.048 7.99 45.91 11.51
3/30/2021 8:45:00 PM 7.62 45.716 0.048 7.96 45.7 11.51
3/30/2021 9:00:00 PM 7.59 45.662 0.048 7.99 69.08 11.52
3/30/2021 9:15:00 PM 7.58 45.644 0.048 7.98 47.89 11.53
3/30/2021 9:30:00 PM 7.55 45.59 0.048 7.98 51 11.53
3/30/2021 9:45:00 PM 7.51 45.518 0.048 7.99 47.98 11.55
3/30/2021 10:00:00 PM 7.49 45.482 0.048 7.86 45.25 11.55
3/30/2021 10:15:00 PM 7.46 45.428 0.048 7.98 49.57 11.56
3/30/2021 10:30:00 PM 7.43 45.374 0.048 7.98 60.53 11.57
3/30/2021 10:45:00 PM 7.4 45.32 0.048 7.94 37 11.58
3/30/2021 11:00:00 PM 7.38 45.284 0.048 7.99 52.54 11.59
3/30/2021 11:15:00 PM 7.36 45.248 0.048 7.88 64.1 11.6
3/30/2021 11:30:00 PM 7.33 45.194 0.049 7.98 42.4 11.61
3/30/2021 11:45:00 PM 7.29 45.122 0.049 7.98 42.44 11.61
3/31/2021 12:00:00 AM 7.26 45.068 0.049 7.95 45.41 11.62
3/31/2021 12:15:00 AM 7.23 45.014 0.049 7.98 45.12 11.63
3/31/2021 12:30:00 AM 7.2 44.96 0.049 7.98 42.14 11.64
3/31/2021 12:45:00 AM 7.17 44.906 0.049 7.98 41.45 11.65
3/31/2021 1:00:00 AM 7.14 44.852 0.049 7.87 61.95 11.65
3/31/2021 1:15:00 AM 7.12 44.816 0.049 7.99 73.33 11.66
3/31/2021 1:30:00 AM 7.09 44.762 0.049 7.99 67.22 11.67
3/31/2021 1:45:00 AM 7.07 44.726 0.049 7.99 55.07 11.67
3/31/2021 2:00:00 AM 7.04 44.672 0.049 7.98 57.41 11.68
3/31/2021 2:15:00 AM 7.03 44.654 0.049 7.99 40.82 11.68
3/31/2021 2:30:00 AM 7 44.6 0.049 7.99 66.08 11.69
3/31/2021 2:45:00 AM 6.97 44.546 0.049 7.99 45.32 11.69
3/31/2021 3:00:00 AM 6.93 44.474 0.049 7.86 40.9 11.7
3/31/2021 3:15:00 AM 6.9 44.42 0.049 7.92 55.25 11.71
3/31/2021 3:30:00 AM 6.87 44.366 0.049 7.98 38.03 11.72
3/31/2021 3:45:00 AM 6.85 44.33 0.049 7.98 49.01 11.72
3/31/2021 4:00:00 AM 6.82 44.276 0.049 7.98 45.18 11.73
3/31/2021 4:15:00 AM 6.8 44.24 0.049 7.99 39.21 11.74
3/31/2021 4:30:00 AM 6.77 44.186 0.049 7.98 69.95 11.74
3/31/2021 4:45:00 AM 6.75 44.15 0.049 7.97 60.62 11.75
3/31/2021 5:00:00 AM 6.73 44.114 0.049 7.98 66.07 11.75
3/31/2021 5:15:00 AM 6.72 44.096 0.049 7.98 40.35 11.75
3/31/2021 5:30:00 AM 6.71 44.078 0.049 7.98 43.4 11.76
3/31/2021 5:45:00 AM 6.7 44.06 0.049 7.86 39.86 11.76
3/31/2021 6:00:00 AM 6.69 44.042 0.049 7.99 40.58 11.76
3/31/2021 6:15:00 AM 6.68 44.024 0.049 7.97 47.34 11.76
3/31/2021 6:30:00 AM 6.67 44.006 0.049 7.96 53.85 11.77
3/31/2021 6:45:00 AM 6.65 43.97 0.049 7.88 37.21 11.77
3/31/2021 7:00:00 AM 6.65 43.97 0.049 7.92 41.82 11.78
3/31/2021 7:15:00 AM 6.64 43.952 0.049 7.98 52.85 11.79
3/31/2021 7:30:00 AM 6.64 43.952 0.049 7.9 33.38 11.8
3/31/2021 7:45:00 AM 6.66 43.988 0.049 8 32.24 11.81
3/31/2021 8:00:00 AM 6.67 44.006 0.049 7.99 44.1 11.81
3/31/2021 8:15:00 AM 6.69 44.042 0.049 8 38.96 11.81
3/31/2021 8:30:00 AM 6.71 44.078 0.049 8 41.97 11.81
3/31/2021 8:45:00 AM 6.72 44.096 0.049 8.01 49.78 11.8
3/31/2021 9:00:00 AM 6.75 44.15 0.049 8.02 59.81 11.83
3/31/2021 9:15:00 AM 6.78 44.204 0.049 8.03 46.9 11.83
3/31/2021 9:30:00 AM 6.8 44.24 0.049 8.04 44.63 11.82
3/31/2021 9:45:00 AM 6.81 44.258 0.049 8.02 49.54 11.79
3/31/2021 10:00:00 AM 6.81 44.258 0.049 7.98 37 11.8
3/31/2021 10:15:00 AM 6.82 44.276 0.049 8.02 46.65 11.8
3/31/2021 10:30:00 AM 6.84 44.312 0.048 8.02 56.09 11.79
3/31/2021 10:45:00 AM 6.85 44.33 0.048 8.02 41.4 11.8
3/31/2021 11:00:00 AM 6.89 44.402 0.048 8.03 59.35 11.79
3/31/2021 11:15:00 AM 6.9 44.42 0.049 8.03 108.16 11.78
3/31/2021 11:30:00 AM 6.91 44.438 0.049 8.04 115.67 11.77
3/31/2021 11:45:00 AM 6.92 44.456 0.049 8.02 246.51 11.74
3/31/2021 12:00:00 PM 6.93 44.474 0.049 8.02 135.54 11.74
3/31/2021 12:15:00 PM 6.93 44.474 0.05 8.03 99.21 11.74
3/31/2021 12:30:00 PM 6.93 44.474 0.049 8.02 87.67 11.73
3/31/2021 12:45:00 PM 6.94 44.492 0.05 8.03 119.33 11.73
3/31/2021 1:00:00 PM 6.95 44.51 0.049 7.94 102.59 11.73
3/31/2021 1:15:00 PM 6.99 44.582 0.049 8.03 91.48 11.74
3/31/2021 1:30:00 PM 7.04 44.672 0.049 8.05 136.8 11.73
3/31/2021 1:45:00 PM 7.06 44.708 0.049 8.05 95.72 11.73
3/31/2021 2:00:00 PM 7.08 44.744 0.049 8.05 75.25 11.72
3/31/2021 2:15:00 PM 7.12 44.816 0.049 8.05 86.98 11.71
3/31/2021 2:30:00 PM 7.16 44.888 0.049 8.05 77.06 11.68
3/31/2021 2:45:00 PM 7.18 44.924 0.049 7.93 78.12 11.67
3/31/2021 3:00:00 PM 7.2 44.96 0.05 7.97 109.36 11.66
3/31/2021 3:15:00 PM 7.21 44.978 0.05 8.06 76.45 11.65
3/31/2021 3:30:00 PM 7.22 44.996 0.05 8.04 92.9 11.64
3/31/2021 3:45:00 PM 7.22 44.996 0.05 7.92 104.48 11.64
3/31/2021 4:00:00 PM 7.22 44.996 0.05 8.05 98.29 11.63
3/31/2021 4:15:00 PM 7.23 45.014 0.05 8.05 59.07 11.64
3/31/2021 4:30:00 PM 7.24 45.032 0.05 8.02 80.53 11.62
3/31/2021 4:45:00 PM 7.25 45.05 0.05 8.03 79.66 11.61
3/31/2021 5:00:00 PM 7.25 45.05 0.05 8.01 71.71 11.6
3/31/2021 5:15:00 PM 7.25 45.05 0.05 8.02 101.45 11.6
3/31/2021 5:30:00 PM 7.28 45.104 0.05 7.85 82.92 11.59
3/31/2021 5:45:00 PM 7.28 45.104 0.05 8.05 69.03 11.6
3/31/2021 6:00:00 PM 7.26 45.068 0.05 8.04 108.67 11.6
3/31/2021 6:15:00 PM 7.24 45.032 0.05 8.04 88.62 11.6
3/31/2021 6:30:00 PM 7.22 44.996 0.05 8.05 102.25 11.61
3/31/2021 6:45:00 PM 7.19 44.942 0.05 8.04 107.45 11.61
3/31/2021 7:00:00 PM 7.15 44.87 0.05 7.88 80.95 11.62
3/31/2021 7:15:00 PM 7.13 44.834 0.05 8.04 69.64 11.63
3/31/2021 7:30:00 PM 7.1 44.78 0.05 8.04 89.85 11.64
3/31/2021 7:45:00 PM 7.05 44.69 0.05 8.03 78.37 11.65
3/31/2021 8:00:00 PM 7 44.6 0.05 7.89 109.1 11.66
3/31/2021 8:15:00 PM 6.96 44.528 0.05 8.02 76.15 11.68
3/31/2021 8:30:00 PM 6.92 44.456 0.05 8 82.18 11.69
3/31/2021 8:45:00 PM 6.87 44.366 0.05 8.03 87.39 11.71
3/31/2021 9:00:00 PM 6.82 44.276 0.05 7.87 85.33 11.72
3/31/2021 9:15:00 PM 6.78 44.204 0.05 8.03 52.38 11.73
3/31/2021 9:30:00 PM 6.73 44.114 0.05 8.02 62.56 11.75
3/31/2021 9:45:00 PM 6.68 44.024 0.05 8 78.66 11.76
3/31/2021 10:00:00 PM 6.64 43.952 0.05 8.02 66.43 11.77
3/31/2021 10:15:00 PM 6.6 43.88 0.05 8 85.3 11.79
3/31/2021 10:30:00 PM 6.56 43.808 0.05 7.91 87.48 11.8
3/31/2021 10:45:00 PM 6.53 43.754 0.05 7.98 103.4 11.81
3/31/2021 11:00:00 PM 6.5 43.7 0.05 8 116.09 11.81
3/31/2021 11:15:00 PM 6.46 43.628 0.05 8.01 140.57 11.83
3/31/2021 11:30:00 PM 6.43 43.574 0.05 8 67.6 11.84
3/31/2021 11:45:00 PM 6.4 43.52 0.05 8.01 103.15 11.85
4/1/2021 12:00:00 AM 6.36 43.448 0.05 8 85.39 11.86
4/1/2021 12:15:00 AM 6.33 43.394 0.05 8 78.91 11.87
4/1/2021 12:30:00 AM 6.28 43.304 0.05 8 61.66 11.88
4/1/2021 12:45:00 AM 6.23 43.214 0.05 7.93 85.75 11.89
4/1/2021 1:00:00 AM 6.19 43.142 0.05 7.91 93.43 11.91
4/1/2021 1:15:00 AM 6.13 43.034 0.05 7.96 82.8 11.93
4/1/2021 1:30:00 AM 6.07 42.926 0.05 8.02 80.92 11.95
4/1/2021 1:45:00 AM 6 42.8 0.05 8.01 87.21 11.96
4/1/2021 2:00:00 AM 5.92 42.656 0.05 7.97 70.67 11.98
4/1/2021 2:15:00 AM 5.84 42.512 0.05 7.98 99.47 12.01
4/1/2021 2:30:00 AM 5.75 42.35 0.051 7.9 130.74 12.03
4/1/2021 2:45:00 AM 5.61 42.098 0.052 8.01 110.31 12.06
4/1/2021 3:00:00 AM 5.42 41.756 0.052 8.04 146.95 12.1
4/1/2021 3:15:00 AM 5.31 41.558 0.053 8.03 108.13 12.15
4/1/2021 3:30:00 AM 5.31 41.558 0.053 8.03 123.77 12.16
4/1/2021 3:45:00 AM 5.26 41.468 0.052 8.03 113.29 12.17
4/1/2021 4:00:00 AM 5.17 41.306 0.052 7.95 95.96 12.21
4/1/2021 4:15:00 AM 5.12 41.216 0.052 8.02 85.95 12.24
4/1/2021 4:30:00 AM 5.08 41.144 0.051 7.9 79.32 12.25
4/1/2021 4:45:00 AM 5.02 41.036 0.051 8 84.43 12.26
4/1/2021 5:00:00 AM 4.98 40.964 0.051 8.01 69.13 12.27
4/1/2021 5:15:00 AM 4.93 40.874 0.051 7.89 56.89 12.28
4/1/2021 5:30:00 AM 4.89 40.802 0.051 8 80.17 12.3
4/1/2021 5:45:00 AM 4.85 40.73 0.051 8 110.49 12.32
4/1/2021 6:00:00 AM 4.8 40.64 0.051 7.99 66.63 12.33
4/1/2021 6:15:00 AM 4.76 40.568 0.051 7.99 95.57 12.35
4/1/2021 6:30:00 AM 4.72 40.496 0.051 7.99 51.38 12.36
4/1/2021 6:45:00 AM 4.67 40.406 0.051 7.99 68.59 12.38
4/1/2021 7:00:00 AM 4.62 40.316 0.051 7.99 89.03 12.39
4/1/2021 7:15:00 AM 4.58 40.244 0.051 7.99 65.5 12.42
4/1/2021 7:30:00 AM 4.53 40.154 0.051 8 116.99 12.44
4/1/2021 7:45:00 AM 4.5 40.1 0.051 7.99 66.35 12.47
4/1/2021 8:00:00 AM 4.47 40.046 0.051 8 52.44 12.5
4/1/2021 8:15:00 AM 4.44 39.992 0.051 8.01 74.63 12.53
4/1/2021 8:30:00 AM 4.37 39.866 0.051 8.01 57.73 12.57
4/1/2021 8:45:00 AM 4.39 39.902 0.051 8.02 64.32 12.6
4/1/2021 9:00:00 AM 4.4 39.92 0.05 8.03 49.75 12.6
4/1/2021 9:15:00 AM 4.42 39.956 0.05 8.06 57.11 12.6
4/1/2021 9:30:00 AM 4.45 40.01 0.05 8.07 58.21 12.61
4/1/2021 9:45:00 AM 4.51 40.118 0.05 7.95 117.26 12.6
4/1/2021 10:00:00 AM 4.61 40.298 0.05 8.07 73.66 12.58
4/1/2021 10:15:00 AM 4.69 40.442 0.05 8.07 67.83 12.55
4/1/2021 10:30:00 AM 4.78 40.604 0.05 8.06 61.41 12.54
4/1/2021 10:45:00 AM 4.83 40.694 0.05 8.02 63.49 12.53
4/1/2021 11:00:00 AM 4.92 40.856 0.05 8.06 47.9 12.51
4/1/2021 11:15:00 AM 4.98 40.964 0.05 8.06 71.46 12.49
4/1/2021 11:30:00 AM 4.9 40.82 0.05 8 67.72 12.49
4/1/2021 11:45:00 AM 4.97 40.946 0.05 8 57.81 12.47
4/1/2021 12:00:00 PM 4.82 40.676 0.05 8.05 74.43 12.5
4/1/2021 12:15:00 PM 4.82 40.676 0.05 7.99 61.31 12.51
4/1/2021 12:30:00 PM 4.96 40.928 0.049 8.06 94.31 12.47
4/1/2021 12:45:00 PM 5.06 41.108 0.049 7.93 51.72 12.44
4/1/2021 1:00:00 PM 4.97 40.946 0.049 8.05 53.3 12.45
4/1/2021 1:15:00 PM 5 41 0.049 8.05 62.13 12.45
4/1/2021 1:30:00 PM 5.03 41.054 0.049 8.05 84.4 12.43
4/1/2021 1:45:00 PM 5 41 0.049 7.92 58.01 12.43
4/1/2021 2:00:00 PM 4.95 40.91 0.049 8.04 64.74 12.44
4/1/2021 2:15:00 PM 4.96 40.928 0.049 8.05 62.22 12.45
4/1/2021 2:30:00 PM 5.08 41.144 0.049 7.93 53.19 12.43
4/1/2021 2:45:00 PM 5.12 41.216 0.049 7.99 47.72 12.4
4/1/2021 3:00:00 PM 5.02 41.036 0.049 8.04 84.3 12.43
4/1/2021 3:15:00 PM 5.05 41.09 0.049 7.93 60.93 12.43
4/1/2021 3:30:00 PM 5.09 41.162 0.049 8.04 71.26 12.42
4/1/2021 3:45:00 PM 5.06 41.108 0.049 8.04 73.2 12.41
4/1/2021 4:00:00 PM 4.97 40.946 0.049 7.96 50.35 12.44
4/1/2021 4:15:00 PM 4.93 40.874 0.049 8.04 61.78 12.46
4/1/2021 4:30:00 PM 4.86 40.748 0.049 8.02 69.23 12.46
4/1/2021 4:45:00 PM 4.79 40.622 0.049 8.03 70.4 12.48
4/1/2021 5:00:00 PM 4.71 40.478 0.049 8.02 53.76 12.49
4/1/2021 5:15:00 PM 4.7 40.46 0.049 8.03 70.35 12.51
4/1/2021 5:30:00 PM 4.68 40.424 0.049 8.02 55.95 12.51
4/1/2021 5:45:00 PM 4.65 40.37 0.049 8.02 54.84 12.53
4/1/2021 6:00:00 PM 4.58 40.244 0.049 8.01 44.7 12.54
4/1/2021 6:15:00 PM 4.49 40.082 0.049 8.01 98.25 12.54
4/1/2021 6:30:00 PM 4.42 39.956 0.049 8.01 43.39 12.57
4/1/2021 6:45:00 PM 4.33 39.794 0.046 8 64.4 12.57
4/1/2021 7:00:00 PM 4.26 39.668 0.049 7.88 59.08 12.58
4/1/2021 7:15:00 PM 4.23 39.614 0.049 7.99 53.72 12.59
4/1/2021 7:30:00 PM 4.17 39.506 0.049 7.98 125.75 12.59
4/1/2021 7:45:00 PM 4.12 39.416 0.049 7.98 48.64 12.61
4/1/2021 8:00:00 PM 4 39.2 0.049 7.97 59.52 12.62
4/1/2021 8:15:00 PM 3.85 38.93 0.049 7.96 60.4 12.68
4/1/2021 8:30:00 PM 3.85 38.93 0.049 7.96 72.63 12.7
4/1/2021 8:45:00 PM 3.77 38.786 0.049 7.96 52.37 12.72
4/1/2021 9:00:00 PM 3.71 38.678 0.049 7.85 41.49 12.74
4/1/2021 9:15:00 PM 3.64 38.552 0.049 7.87 60.67 12.78
4/1/2021 9:30:00 PM 3.6 38.48 0.049 7.96 47.5 12.78
4/1/2021 9:45:00 PM 3.57 38.426 0.049 7.96 53.35 12.8
4/1/2021 10:00:00 PM 3.51 38.318 0.049 7.96 58.85 12.83
4/1/2021 10:15:00 PM 3.47 38.246 0.05 7.96 81.05 12.84
4/1/2021 10:30:00 PM 3.38 38.084 0.05 7.96 72.64 12.87
4/1/2021 10:45:00 PM 3.3 37.94 0.05 7.95 49.22 12.9
4/1/2021 11:00:00 PM 3.22 37.796 0.05 7.96 56.27 12.92
4/1/2021 11:15:00 PM 3.16 37.688 0.05 7.95 73 12.95
4/1/2021 11:30:00 PM 3.1 37.58 0.05 7.95 39.95 12.97
4/1/2021 11:45:00 PM 3.04 37.472 0.05 7.95 72.13 12.99
4/2/2021 12:00:00 AM 2.98 37.364 0.05 7.95 59.35 13.02
4/2/2021 12:15:00 AM 2.93 37.274 0.05 7.95 47.9 13.04
4/2/2021 12:30:00 AM 2.9 37.22 0.05 7.95 33.41 13.05
4/2/2021 12:45:00 AM 2.82 37.076 0.05 7.83 54.44 13.07
4/2/2021 1:00:00 AM 2.76 36.968 0.05 7.95 38.03 13.1
4/2/2021 1:15:00 AM 2.7 36.86 0.05 7.87 64.49 13.13
4/2/2021 1:30:00 AM 2.63 36.734 0.05 7.94 40.73 13.14
4/2/2021 1:45:00 AM 2.57 36.626 0.05 7.94 51.01 13.16
4/2/2021 2:00:00 AM 2.51 36.518 0.05 7.82 32.74 13.19
4/2/2021 2:15:00 AM 2.45 36.41 0.05 7.86 28.72 13.21
4/2/2021 2:30:00 AM 2.39 36.302 0.05 7.95 36.5 13.24
4/2/2021 2:45:00 AM 2.34 36.212 0.05 7.93 33.01 13.25
4/2/2021 3:00:00 AM 2.29 36.122 0.05 7.81 42.09 13.27
4/2/2021 3:15:00 AM 2.24 36.032 0.05 7.94 39.62 13.29
4/2/2021 3:30:00 AM 2.17 35.906 0.05 7.94 49.52 13.31
4/2/2021 3:45:00 AM 2.11 35.798 0.05 7.92 43.46 13.33
4/2/2021 4:00:00 AM 2.06 35.708 0.05 7.92 41.61 13.36
4/2/2021 4:15:00 AM 2 35.6 0.05 7.92 53.99 13.38
4/2/2021 4:30:00 AM 1.95 35.51 0.05 7.79 54.53 13.4
4/2/2021 4:45:00 AM 1.9 35.42 0.05 7.86 31.7 13.42
4/2/2021 5:00:00 AM 1.85 35.33 0.05 7.92 41.91 13.44
4/2/2021 5:15:00 AM 1.8 35.24 0.05 7.92 34.81 13.46
4/2/2021 5:30:00 AM 1.75 35.15 0.05 7.92 44.64 13.48
4/2/2021 5:45:00 AM 1.7 35.06 0.05 7.92 31 13.5
4/2/2021 6:00:00 AM 1.65 34.97 0.05 7.79 47.28 13.52
4/2/2021 6:15:00 AM 1.6 34.88 0.05 7.9 30.17 13.54
4/2/2021 6:30:00 AM 1.56 34.808 0.05 7.91 31.67 13.56
4/2/2021 6:45:00 AM 1.52 34.736 0.05 7.91 35.75 13.57
4/2/2021 7:00:00 AM 1.48 34.664 0.05 7.92 51.84 13.6
4/2/2021 7:15:00 AM 1.44 34.592 0.05 7.92 28.81 13.63
4/2/2021 7:30:00 AM 1.42 34.556 0.05 7.85 40.23 13.66
4/2/2021 7:45:00 AM 1.42 34.556 0.05 7.93 38.88 13.69
4/2/2021 8:00:00 AM 1.42 34.556 0.05 7.93 72.48 13.71
4/2/2021 8:15:00 AM 1.44 34.592 0.05 7.94 50.96 13.72
4/2/2021 8:30:00 AM 1.47 34.646 0.05 7.95 48.21 13.72
4/2/2021 8:45:00 AM 1.52 34.736 0.05 7.95 29.4 13.72
4/2/2021 9:00:00 AM 1.56 34.808 0.05 7.95 66.58 13.73
4/2/2021 9:15:00 AM 1.6 34.88 0.05 7.83 34.51 13.71
4/2/2021 9:30:00 AM 1.7 35.06 0.05 7.89 56.86 13.69
4/2/2021 9:45:00 AM 1.81 35.258 0.05 7.96 37.49 13.67
4/2/2021 10:00:00 AM 1.94 35.492 0.05 7.96 40.26 13.63
4/2/2021 10:15:00 AM 2.06 35.708 0.05 7.96 38.09 13.6
4/2/2021 10:30:00 AM 2.16 35.888 0.05 7.95 42.03 13.57
4/2/2021 10:45:00 AM 2.29 36.122 0.05 7.97 45.71 13.52
4/2/2021 11:00:00 AM 2.41 36.338 0.05 7.93 33.21 13.49
4/2/2021 11:15:00 AM 2.51 36.518 0.05 7.97 38.82 13.46
4/2/2021 11:30:00 AM 2.59 36.662 0.049 7.98 32.74 13.42
4/2/2021 11:45:00 AM 2.71 36.878 0.049 7.99 74.59 13.37
4/2/2021 12:00:00 PM 2.82 37.076 0.049 7.98 43.71 13.34
4/2/2021 12:15:00 PM 2.95 37.31 0.049 7.99 46.97 13.29
4/2/2021 12:30:00 PM 3.05 37.49 0.049 7.89 45.94 13.26
4/2/2021 12:45:00 PM 3.16 37.688 0.049 7.95 47.94 13.21
4/2/2021 1:00:00 PM 3.28 37.904 0.049 7.99 37.51 13.17
4/2/2021 1:15:00 PM 3.39 38.102 0.049 7.98 47.5 13.13
4/2/2021 1:30:00 PM 3.51 38.318 0.049 8 77.99 13.07
4/2/2021 1:45:00 PM 3.62 38.516 0.049 8 32.26 13.03
4/2/2021 2:00:00 PM 3.7 38.66 0.049 7.96 47.16 12.99
4/2/2021 2:15:00 PM 3.73 38.714 0.049 8.01 31.31 12.98
4/2/2021 2:30:00 PM 3.75 38.75 0.049 8.01 51.43 12.96
4/2/2021 2:45:00 PM 3.8 38.84 0.049 7.93 44.71 12.94
4/2/2021 3:00:00 PM 3.81 38.858 0.049 8.01 54.49 12.93
4/2/2021 3:15:00 PM 3.81 38.858 0.049 8.01 43.51 12.91
4/2/2021 3:30:00 PM 3.81 38.858 0.049 8.02 43.11 12.91
4/2/2021 3:45:00 PM 3.8 38.84 0.049 8.01 34.32 12.91
4/2/2021 4:00:00 PM 3.78 38.804 0.049 7.97 82.78 12.91
4/2/2021 4:15:00 PM 3.73 38.714 0.049 8 35.78 12.91
4/2/2021 4:30:00 PM 3.68 38.624 0.049 8.01 47.62 12.93
4/2/2021 4:45:00 PM 3.61 38.498 0.049 8 38.31 12.94
4/2/2021 5:00:00 PM 3.53 38.354 0.049 8 37.76 12.96
4/2/2021 5:15:00 PM 3.44 38.192 0.049 7.99 32.09 12.98
4/2/2021 5:30:00 PM 3.34 38.012 0.049 7.99 62.89 13
4/2/2021 5:45:00 PM 3.27 37.886 0.049 7.98 35.48 13.02
4/2/2021 6:00:00 PM 3.21 37.778 0.049 7.98 48.19 13.04
4/2/2021 6:15:00 PM 3.15 37.67 0.049 7.98 44.52 13.05
4/2/2021 6:30:00 PM 3.1 37.58 0.049 7.96 25.88 13.07
4/2/2021 6:45:00 PM 3.05 37.49 0.049 7.97 55.13 13.08
4/2/2021 7:00:00 PM 3.02 37.436 0.049 7.97 40.18 13.09
4/2/2021 7:15:00 PM 2.99 37.382 0.049 7.85 50.97 13.09
4/2/2021 7:30:00 PM 2.96 37.328 0.049 7.96 38.96 13.09
4/2/2021 7:45:00 PM 2.92 37.256 0.049 7.95 36.28 13.09
4/2/2021 8:00:00 PM 2.88 37.184 0.049 7.95 32.5 13.1
4/2/2021 8:15:00 PM 2.85 37.13 0.049 7.95 40.89 13.12
4/2/2021 8:30:00 PM 2.82 37.076 0.049 7.88 31.37 13.13
4/2/2021 8:45:00 PM 2.78 37.004 0.049 7.94 26.68 13.14
4/2/2021 9:00:00 PM 2.74 36.932 0.05 7.93 29.82 13.15
4/2/2021 9:15:00 PM 2.71 36.878 0.05 7.93 30.46 13.17
4/2/2021 9:30:00 PM 2.67 36.806 0.05 7.94 45.98 13.18
4/2/2021 9:45:00 PM 2.63 36.734 0.05 7.93 35.8 13.2
4/2/2021 10:00:00 PM 2.59 36.662 0.05 7.94 38.91 13.22
4/2/2021 10:15:00 PM 2.54 36.572 0.05 7.94 54.97 13.23
4/2/2021 10:30:00 PM 2.5 36.5 0.05 7.93 48.91 13.25
4/2/2021 10:45:00 PM 2.46 36.428 0.05 7.92 36.77 13.27
4/2/2021 11:00:00 PM 2.41 36.338 0.05 7.93 39.34 13.28
4/2/2021 11:15:00 PM 2.36 36.248 0.05 7.94 28.19 13.3
4/2/2021 11:30:00 PM 2.31 36.158 0.05 7.93 30.39 13.32
4/2/2021 11:45:00 PM 2.26 36.068 0.05 7.93 43.91 13.34
4/3/2021 12:00:00 AM 2.22 35.996 0.05 7.82 30 13.35
4/3/2021 12:15:00 AM 2.17 35.906 0.05 7.93 27.58 13.37
4/3/2021 12:30:00 AM 2.12 35.816 0.05 7.91 28.62 13.38
4/3/2021 12:45:00 AM 2.08 35.744 0.05 7.93 26.68 13.41
4/3/2021 1:00:00 AM 2.02 35.636 0.05 7.8 26.97 13.42
4/3/2021 1:15:00 AM 1.97 35.546 0.05 7.93 31.3 13.44
4/3/2021 1:30:00 AM 1.92 35.456 0.05 7.9 28.13 13.46
4/3/2021 1:45:00 AM 1.87 35.366 0.05 7.93 25.09 13.48
4/3/2021 2:00:00 AM 1.82 35.276 0.05 7.92 39.3 13.5
4/3/2021 2:15:00 AM 1.77 35.186 0.05 7.92 35.76 13.52
4/3/2021 2:30:00 AM 1.72 35.096 0.05 7.91 37.78 13.54
4/3/2021 2:45:00 AM 1.68 35.024 0.05 7.92 60 13.56
4/3/2021 3:00:00 AM 1.63 34.934 0.05 7.84 27.9 13.58
4/3/2021 3:15:00 AM 1.58 34.844 0.05 7.92 41.08 13.6
4/3/2021 3:30:00 AM 1.53 34.754 0.05 7.92 35.28 13.61
4/3/2021 3:45:00 AM 1.48 34.664 0.05 7.92 37.79 13.63
4/3/2021 4:00:00 AM 1.43 34.574 0.05 7.92 39.86 13.66
4/3/2021 4:15:00 AM 1.38 34.484 0.05 7.8 35.4 13.67
4/3/2021 4:30:00 AM 1.34 34.412 0.05 7.92 30.35 13.69
4/3/2021 4:45:00 AM 1.29 34.322 0.05 7.91 27.04 13.71
4/3/2021 5:00:00 AM 1.24 34.232 0.05 7.91 32.13 13.74
4/3/2021 5:15:00 AM 1.2 34.16 0.05 7.91 25.96 13.75
4/3/2021 5:30:00 AM 1.15 34.07 0.05 7.91 32.72 13.78
4/3/2021 5:45:00 AM 1.11 33.998 0.05 7.9 35.74 13.8
4/3/2021 6:00:00 AM 1.07 33.926 0.05 7.89 35.1 13.8
4/3/2021 6:15:00 AM 1.03 33.854 0.05 7.91 28.6 13.84
4/3/2021 6:30:00 AM 0.99 33.782 0.05 7.9 29.3 13.85
4/3/2021 6:45:00 AM 0.96 33.728 0.05 7.9 25.64 13.86
4/3/2021 7:00:00 AM 0.93 33.674 0.05 7.77 29.96 13.88
4/3/2021 7:15:00 AM 0.9 33.62 0.05 7.91 37.38 13.92
4/3/2021 7:30:00 AM 0.89 33.602 0.05 7.91 26.81 13.94
4/3/2021 7:45:00 AM 0.89 33.602 0.05 7.92 45.22 13.97
4/3/2021 8:00:00 AM 0.91 33.638 0.05 7.87 40.83 13.97
4/3/2021 8:15:00 AM 0.96 33.728 0.05 7.92 39.44 13.98
4/3/2021 8:30:00 AM 1.03 33.854 0.05 7.94 28.41 13.97
4/3/2021 8:45:00 AM 1.13 34.034 0.05 7.93 29.82 13.96
4/3/2021 9:00:00 AM 1.22 34.196 0.05 7.94 29.03 13.92
4/3/2021 9:15:00 AM 1.34 34.412 0.05 7.95 26.93 13.91
4/3/2021 9:30:00 AM 1.48 34.664 0.05 7.95 39.35 13.85
4/3/2021 9:45:00 AM 1.65 34.97 0.05 7.82 34.64 13.8
4/3/2021 10:00:00 AM 1.85 35.33 0.05 7.97 43.62 13.73
4/3/2021 10:15:00 AM 2.05 35.69 0.05 7.94 30.47 13.67
4/3/2021 10:30:00 AM 2.21 35.978 0.05 7.95 38.44 13.61
4/3/2021 10:45:00 AM 2.39 36.302 0.05 7.98 33.59 13.55
4/3/2021 11:00:00 AM 2.57 36.626 0.05 7.98 34.96 13.49
4/3/2021 11:15:00 AM 2.74 36.932 0.05 7.86 54.63 13.43
4/3/2021 11:30:00 AM 2.92 37.256 0.05 7.92 32.68 13.36
4/3/2021 11:45:00 AM 3.1 37.58 0.05 8 25.18 13.3
4/3/2021 12:00:00 PM 3.28 37.904 0.05 7.89 34.86 13.23
4/3/2021 12:15:00 PM 3.45 38.21 0.05 7.99 39.03 13.17
4/3/2021 12:30:00 PM 3.62 38.516 0.05 8.01 31.52 13.11
4/3/2021 12:45:00 PM 3.77 38.786 0.049 8.01 44.73 13.05
4/3/2021 1:00:00 PM 3.75 38.75 0.049 8.02 30.12 13.03
4/3/2021 1:15:00 PM 3.8 38.84 0.049 7.91 67.33 13
4/3/2021 1:30:00 PM 3.92 39.056 0.049 7.96 34.81 12.96
4/3/2021 1:45:00 PM 4.04 39.272 0.049 8.03 41.77 12.91
4/3/2021 2:00:00 PM 4.16 39.488 0.049 8.04 49 12.86
4/3/2021 2:15:00 PM 4.26 39.668 0.049 8.04 32.18 12.82
4/3/2021 2:30:00 PM 4.32 39.776 0.049 8.04 27.45 12.8
4/3/2021 2:45:00 PM 4.42 39.956 0.049 7.92 40.86 12.77
4/3/2021 3:00:00 PM 4.53 40.154 0.049 8.05 48.22 12.73
4/3/2021 3:15:00 PM 4.65 40.37 0.049 8.05 40.45 12.69
4/3/2021 3:30:00 PM 4.7 40.46 0.049 8.05 47.22 12.64
4/3/2021 3:45:00 PM 4.71 40.478 0.049 7.96 35.6 12.63
4/3/2021 4:00:00 PM 4.73 40.514 0.049 8.05 34.46 12.62
4/3/2021 4:15:00 PM 4.71 40.478 0.049 8.06 30.02 12.6
4/3/2021 4:30:00 PM 4.72 40.496 0.049 8.06 27.79 12.6
4/3/2021 4:45:00 PM 4.72 40.496 0.049 8.05 33.16 12.6
4/3/2021 5:00:00 PM 4.73 40.514 0.049 8.05 46.48 12.6
4/3/2021 5:15:00 PM 4.73 40.514 0.049 7.93 42.65 12.58
4/3/2021 5:30:00 PM 4.69 40.442 0.049 8.04 60.88 12.57
4/3/2021 5:45:00 PM 4.65 40.37 0.049 8.05 39.62 12.57
4/3/2021 6:00:00 PM 4.63 40.334 0.049 8.04 32.97 12.57
4/3/2021 6:15:00 PM 4.66 40.388 0.049 8.04 37.64 12.57
4/3/2021 6:30:00 PM 4.67 40.406 0.049 8.03 47.5 12.54
4/3/2021 6:45:00 PM 4.66 40.388 0.049 8.03 52.29 12.52
4/3/2021 7:00:00 PM 4.63 40.334 0.049 8 66.57 12.51
4/3/2021 7:15:00 PM 4.62 40.316 0.049 7.88 44.84 12.5
4/3/2021 7:30:00 PM 4.61 40.298 0.049 7.99 27.71 12.49
4/3/2021 7:45:00 PM 4.6 40.28 0.05 7.99 33.66 12.49
4/3/2021 8:00:00 PM 4.59 40.262 0.05 7.98 28.58 12.49
4/3/2021 8:15:00 PM 4.58 40.244 0.05 7.99 57.84 12.5
4/3/2021 8:30:00 PM 4.57 40.226 0.05 7.99 38.58 12.51
4/3/2021 8:45:00 PM 4.56 40.208 0.05 7.93 33.18 12.52
4/3/2021 9:00:00 PM 4.55 40.19 0.05 7.99 28.42 12.52
4/3/2021 9:15:00 PM 4.54 40.172 0.05 8 28.82 12.52
4/3/2021 9:30:00 PM 4.54 40.172 0.05 7.98 25.16 12.53
4/3/2021 9:45:00 PM 4.53 40.154 0.05 7.92 39.2 12.53
4/3/2021 10:00:00 PM 4.51 40.118 0.05 8 37.4 12.53
4/3/2021 10:15:00 PM 4.51 40.118 0.05 8 61.73 12.53
4/3/2021 10:30:00 PM 4.5 40.1 0.05 8 36.83 12.53
4/3/2021 10:45:00 PM 4.49 40.082 0.05 8 41.77 12.53
4/3/2021 11:00:00 PM 4.48 40.064 0.05 7.97 38.3 12.54
4/3/2021 11:15:00 PM 4.47 40.046 0.05 7.99 30.14 12.54
4/3/2021 11:30:00 PM 4.45 40.01 0.05 7.89 34.54 12.54
4/3/2021 11:45:00 PM 4.44 39.992 0.05 7.98 35.55 12.54
4/4/2021 12:00:00 AM 4.42 39.956 0.05 7.98 54.12 12.55
4/4/2021 12:15:00 AM 4.41 39.938 0.051 7.99 39.17 12.55
4/4/2021 12:30:00 AM 4.39 39.902 0.051 7.96 42.65 12.55
4/4/2021 12:45:00 AM 4.37 39.866 0.051 7.99 47.37 12.55
4/4/2021 1:00:00 AM 4.35 39.83 0.051 7.99 28.25 12.56
4/4/2021 1:15:00 AM 4.34 39.812 0.051 7.99 57.29 12.56
4/4/2021 1:30:00 AM 4.32 39.776 0.051 7.99 38.34 12.57
4/4/2021 1:45:00 AM 4.3 39.74 0.051 7.91 32.59 12.57
4/4/2021 2:00:00 AM 4.28 39.704 0.051 7.99 42.48 12.57
4/4/2021 2:15:00 AM 4.26 39.668 0.051 7.99 49.75 12.58
4/4/2021 2:30:00 AM 4.25 39.65 0.051 7.99 33.83 12.58
4/4/2021 2:45:00 AM 4.23 39.614 0.051 7.99 35.32 12.58
4/4/2021 3:00:00 AM 4.22 39.596 0.051 7.99 43.67 12.58
4/4/2021 3:15:00 AM 4.2 39.56 0.051 7.99 46.77 12.59
4/4/2021 3:30:00 AM 4.18 39.524 0.051 7.92 44.38 12.59
4/4/2021 3:45:00 AM 4.16 39.488 0.051 7.97 48.4 12.6
4/4/2021 4:00:00 AM 4.14 39.452 0.051 7.99 39.24 12.6
4/4/2021 4:15:00 AM 4.13 39.434 0.051 7.99 59.27 12.61
4/4/2021 4:30:00 AM 4.1 39.38 0.051 7.99 41.2 12.61
4/4/2021 4:45:00 AM 4.08 39.344 0.051 7.99 39.88 12.62
4/4/2021 5:00:00 AM 4.06 39.308 0.051 7.88 40.77 12.62
4/4/2021 5:15:00 AM 4.05 39.29 0.051 7.99 58.59 12.63
4/4/2021 5:30:00 AM 4.02 39.236 0.051 7.92 33.51 12.64
4/4/2021 5:45:00 AM 4.01 39.218 0.051 7.99 39.74 12.64
4/4/2021 6:00:00 AM 4 39.2 0.051 7.99 31.63 12.65
4/4/2021 6:15:00 AM 3.98 39.164 0.051 7.99 50.11 12.66
4/4/2021 6:30:00 AM 3.93 39.074 0.051 7.99 42.6 12.66
4/4/2021 6:45:00 AM 3.87 38.966 0.051 7.98 32.34 12.69
4/4/2021 7:00:00 AM 3.82 38.876 0.051 7.91 38.46 12.71
4/4/2021 7:15:00 AM 3.79 38.822 0.051 7.99 35.15 12.74
4/4/2021 7:30:00 AM 3.77 38.786 0.051 8 25.2 12.77
4/4/2021 7:45:00 AM 3.76 38.768 0.051 8.01 25.06 12.8
4/4/2021 8:00:00 AM 3.77 38.786 0.051 8.01 32.74 12.82
4/4/2021 8:15:00 AM 3.8 38.84 0.051 8.03 43.42 12.83
4/4/2021 8:30:00 AM 3.85 38.93 0.051 8.03 40.65 12.83
4/4/2021 8:45:00 AM 3.92 39.056 0.051 7.91 40.91 12.83
4/4/2021 9:00:00 AM 4.01 39.218 0.051 8.03 41.34 12.81
4/4/2021 9:15:00 AM 4.1 39.38 0.051 8.05 51.18 12.79
4/4/2021 9:30:00 AM 4.22 39.596 0.051 8.02 40.94 12.77
4/4/2021 9:45:00 AM 4.37 39.866 0.051 8.05 36.97 12.73
4/4/2021 10:00:00 AM 4.56 40.208 0.051 8.04 25.57 12.68
4/4/2021 10:15:00 AM 4.75 40.55 0.05 8.08 36.48 12.63
4/4/2021 10:30:00 AM 4.93 40.874 0.05 8.09 40.37 12.58
4/4/2021 10:45:00 AM 5.12 41.216 0.05 8.1 35.73 12.53
4/4/2021 11:00:00 AM 5.3 41.54 0.05 8.1 35.68 12.47
4/4/2021 11:15:00 AM 5.47 41.846 0.05 7.98 37.51 12.42
4/4/2021 11:30:00 AM 5.66 42.188 0.05 8.11 43.03 12.36
4/4/2021 11:45:00 AM 5.84 42.512 0.05 8.1 30.68 12.3
4/4/2021 12:00:00 PM 5.99 42.782 0.05 8.12 33.69 12.25
4/4/2021 12:15:00 PM 6.16 43.088 0.05 8.12 38.11 12.2
4/4/2021 12:30:00 PM 6.32 43.376 0.05 8 41.82 12.16
4/4/2021 12:45:00 PM 6.48 43.664 0.05 8.13 31.82 12.1
4/4/2021 1:00:00 PM 6.6 43.88 0.05 8.13 37.76 12.06
4/4/2021 1:15:00 PM 6.75 44.15 0.05 8.02 47.09 12.01
4/4/2021 1:30:00 PM 6.77 44.186 0.05 8.09 34.24 11.97
4/4/2021 1:45:00 PM 6.96 44.528 0.05 8.13 49.12 11.93
4/4/2021 2:00:00 PM 7.09 44.762 0.05 8.12 31.78 11.88
4/4/2021 2:15:00 PM 7.2 44.96 0.05 8.02 48.57 11.86
4/4/2021 2:30:00 PM 7.25 45.05 0.05 8.15 34.56 11.83
4/4/2021 2:45:00 PM 7.33 45.194 0.05 8.15 43.43 11.8
4/4/2021 3:00:00 PM 7.38 45.284 0.05 8.15 56.31 11.78
4/4/2021 3:15:00 PM 7.4 45.32 0.05 8.13 52.59 11.76
4/4/2021 3:30:00 PM 7.42 45.356 0.05 8.06 31.18 11.75
4/4/2021 3:45:00 PM 7.43 45.374 0.05 8.15 42.88 11.73
4/4/2021 4:00:00 PM 7.42 45.356 0.05 8.04 53.16 11.73
4/4/2021 4:15:00 PM 7.39 45.302 0.05 8.09 47.33 11.73
4/4/2021 4:30:00 PM 7.35 45.23 0.05 8.14 36.89 11.73
4/4/2021 4:45:00 PM 7.31 45.158 0.05 8.03 40.7 11.72
4/4/2021 5:00:00 PM 7.26 45.068 0.05 8.11 40.36 11.73
4/4/2021 5:15:00 PM 7.19 44.942 0.05 8.03 51.25 11.74
4/4/2021 5:30:00 PM 7.12 44.816 0.05 8.13 48.65 11.75
4/4/2021 5:45:00 PM 7.05 44.69 0.05 8.12 32.05 11.76
4/4/2021 6:00:00 PM 7 44.6 0.05 8.12 34.91 11.77
4/4/2021 6:15:00 PM 6.94 44.492 0.05 8.07 56.16 11.78
4/4/2021 6:30:00 PM 6.89 44.402 0.05 8.1 40.96 11.79
4/4/2021 6:45:00 PM 6.85 44.33 0.05 8.09 46.46 11.79
4/4/2021 7:00:00 PM 6.81 44.258 0.05 8.1 45.75 11.79
4/4/2021 7:15:00 PM 6.76 44.168 0.05 8.09 28.99 11.79
4/4/2021 7:30:00 PM 6.71 44.078 0.079 8.09 31.27 11.8
4/4/2021 7:45:00 PM 6.66 43.988 0.051 8.07 57.51 11.8
4/4/2021 8:00:00 PM 6.59 43.862 0.051 8.06 36.38 11.81
4/4/2021 8:15:00 PM 6.54 43.772 0.051 8.04 48.41 11.83
4/4/2021 8:30:00 PM 6.49 43.682 0.124 8.07 26.01 11.84
4/4/2021 8:45:00 PM 6.43 43.574 0.054 8.07 32.34 11.85
4/4/2021 9:00:00 PM 6.38 43.484 0.052 8.06 46.04 11.87
4/4/2021 9:15:00 PM 6.33 43.394 0.051 7.98 42.02 11.89
4/4/2021 9:30:00 PM 6.27 43.286 0.051 8.03 47.85 11.91
4/4/2021 9:45:00 PM 6.22 43.196 0.051 8.05 41.44 11.93
4/4/2021 10:00:00 PM 6.16 43.088 0.051 8.06 35.26 11.95
4/4/2021 10:15:00 PM 6.1 42.98 0.051 8.05 46.17 11.96
4/4/2021 10:30:00 PM 6.04 42.872 0.051 8.04 51.16 11.98
4/4/2021 10:45:00 PM 5.98 42.764 0.051 8.04 66.52 12
4/4/2021 11:00:00 PM 5.91 42.638 0.051 8.05 36.56 12.02
4/4/2021 11:15:00 PM 5.85 42.53 0.051 8.04 44.55 12.04
4/4/2021 11:30:00 PM 5.78 42.404 0.051 8.04 42.73 12.06
4/4/2021 11:45:00 PM 5.71 42.278 0.051 7.91 34.52 12.08
4/5/2021 12:00:00 AM 5.64 42.152 0.051 8.04 39.84 12.11
4/5/2021 12:15:00 AM 5.56 42.008 0.051 8.04 43.59 12.13
4/5/2021 12:30:00 AM 5.49 41.882 0.051 8.04 44.86 12.15
4/5/2021 12:45:00 AM 5.41 41.738 0.051 8.04 37.28 12.18
4/5/2021 1:00:00 AM 5.34 41.612 0.052 7.91 46.8 12.2
4/5/2021 1:15:00 AM 5.26 41.468 0.052 7.95 40.97 12.22
4/5/2021 1:30:00 AM 5.19 41.342 0.052 8.04 45.41 12.25
4/5/2021 1:45:00 AM 5.11 41.198 0.052 7.92 49.44 12.27
4/5/2021 2:00:00 AM 5.04 41.072 0.052 8.03 42 12.29
4/5/2021 2:15:00 AM 4.97 40.946 0.052 8.03 27.18 12.31
4/5/2021 2:30:00 AM 4.89 40.802 0.052 8.03 34.99 12.34
4/5/2021 2:45:00 AM 4.83 40.694 0.052 8.03 34.08 12.36
4/5/2021 3:00:00 AM 4.76 40.568 0.052 8.02 33.78 12.38
4/5/2021 3:15:00 AM 4.69 40.442 0.052 8.02 35.57 12.4
4/5/2021 3:30:00 AM 4.62 40.316 0.052 8.02 36.72 12.42
4/5/2021 3:45:00 AM 4.55 40.19 0.052 7.99 43 12.45
4/5/2021 4:00:00 AM 4.49 40.082 0.052 8.01 50.62 12.47
4/5/2021 4:15:00 AM 4.44 39.992 0.052 7.89 65.46 12.49
4/5/2021 4:30:00 AM 4.38 39.884 0.052 8.02 37.42 12.51
4/5/2021 4:45:00 AM 4.32 39.776 0.052 8.01 51.28 12.53
4/5/2021 5:00:00 AM 4.27 39.686 0.052 8.01 26.97 12.55
4/5/2021 5:15:00 AM 4.22 39.596 0.052 8.01 26.27 12.56
4/5/2021 5:30:00 AM 4.17 39.506 0.052 8.01 44.7 12.58
4/5/2021 5:45:00 AM 4.12 39.416 0.052 8.01 41.42 12.6
4/5/2021 6:00:00 AM 4.07 39.326 0.052 8.01 36 12.62
4/5/2021 6:15:00 AM 4.03 39.254 0.052 7.88 28.03 12.63
4/5/2021 6:30:00 AM 3.98 39.164 0.052 7.94 30.77 12.65
4/5/2021 6:45:00 AM 3.94 39.092 0.052 7.95 27.81 12.67
4/5/2021 7:00:00 AM 3.9 39.02 0.052 8.01 33.61 12.69
4/5/2021 7:15:00 AM 3.88 38.984 0.052 8.01 24.31 12.72
4/5/2021 7:30:00 AM 3.87 38.966 0.052 8.02 42.13 12.76
4/5/2021 7:45:00 AM 3.87 38.966 0.052 7.91 46.38 12.79
4/5/2021 8:00:00 AM 3.89 39.002 0.052 8.04 31.69 12.8
4/5/2021 8:15:00 AM 3.93 39.074 0.052 8.03 29.12 12.81
4/5/2021 8:30:00 AM 3.99 39.182 0.052 8.05 45.5 12.81
4/5/2021 8:45:00 AM 4.08 39.344 0.051 8.06 33.19 12.8
4/5/2021 9:00:00 AM 4.18 39.524 0.051 8.07 29.18 12.78
4/5/2021 9:15:00 AM 4.3 39.74 0.051 8.07 56.28 12.76
4/5/2021 9:30:00 AM 4.45 40.01 0.051 7.96 28.64 12.72
4/5/2021 9:45:00 AM 4.62 40.316 0.051 8.07 30.65 12.67
4/5/2021 10:00:00 AM 4.82 40.676 0.051 8.11 35.48 12.62
4/5/2021 10:15:00 AM 5.03 41.054 0.051 8.11 30.17 12.57
4/5/2021 10:30:00 AM 5.22 41.396 0.051 8 33.56 12.51
4/5/2021 10:45:00 AM 5.43 41.774 0.051 8.12 28.83 12.46
4/5/2021 11:00:00 AM 5.61 42.098 0.051 8.13 45.65 12.4
4/5/2021 11:15:00 AM 5.79 42.422 0.051 8.13 44.55 12.35
4/5/2021 11:30:00 AM 5.96 42.728 0.051 8.03 36.09 12.29
4/5/2021 11:45:00 AM 6.14 43.052 0.051 8.14 32.76 12.23
4/5/2021 12:00:00 PM 6.32 43.376 0.051 8.15 51.17 12.17
4/5/2021 12:15:00 PM 6.49 43.682 0.051 8.16 33.74 12.12
4/5/2021 12:30:00 PM 6.65 43.97 0.051 8.04 28.43 12.07
4/5/2021 12:45:00 PM 6.79 44.222 0.051 8.17 28.38 12.03
4/5/2021 1:00:00 PM 6.94 44.492 0.051 8.17 25.44 11.97
4/5/2021 1:15:00 PM 7.09 44.762 0.051 8.17 42.14 11.93
4/5/2021 1:30:00 PM 7.23 45.014 0.05 8.13 36.96 11.88
4/5/2021 1:45:00 PM 7.37 45.266 0.05 8.09 35.01 11.83
4/5/2021 2:00:00 PM 7.49 45.482 0.05 8.17 30.05 11.79
4/5/2021 2:15:00 PM 7.58 45.644 0.05 8.15 42.45 11.75
4/5/2021 2:30:00 PM 7.65 45.77 0.05 8.19 38.42 11.72
4/5/2021 2:45:00 PM 7.69 45.842 0.05 8.19 43.21 11.7
4/5/2021 3:00:00 PM 7.69 45.842 0.05 8.19 45.98 11.69
4/5/2021 3:15:00 PM 7.74 45.932 0.05 8.19 35.7 11.67
4/5/2021 3:30:00 PM 7.76 45.968 0.05 8.17 36.29 11.65
4/5/2021 3:45:00 PM 7.79 46.022 0.05 8.07 32.22 11.64
4/5/2021 4:00:00 PM 7.79 46.022 0.05 8.2 41.98 11.63
4/5/2021 4:15:00 PM 7.77 45.986 0.05 8.17 37.65 11.64
4/5/2021 4:30:00 PM 7.74 45.932 0.05 8.2 50.73 11.63
4/5/2021 4:45:00 PM 7.76 45.968 0.05 8.19 64.48 11.63
4/5/2021 5:00:00 PM 7.75 45.95 0.05 8.19 43.31 11.61
4/5/2021 5:15:00 PM 7.73 45.914 0.05 8.19 54.75 11.62
4/5/2021 5:30:00 PM 7.69 45.842 0.05 8.19 28.68 11.62
4/5/2021 5:45:00 PM 7.65 45.77 0.05 8.16 44.15 11.61
4/5/2021 6:00:00 PM 7.62 45.716 0.05 8.18 40.42 11.61
4/5/2021 6:15:00 PM 7.57 45.626 0.05 8.16 32.25 11.6
4/5/2021 6:30:00 PM 7.52 45.536 0.051 8.13 70.45 11.61
4/5/2021 6:45:00 PM 7.48 45.464 0.051 8.15 34.56 11.61
4/5/2021 7:00:00 PM 7.44 45.392 0.051 8.14 46.47 11.59
4/5/2021 7:15:00 PM 7.39 45.302 0.051 8.12 50.36 11.59
4/5/2021 7:30:00 PM 7.35 45.23 0.051 8.11 46.88 11.58
4/5/2021 7:45:00 PM 7.32 45.176 0.051 8.06 34.99 11.58
4/5/2021 8:00:00 PM 7.3 45.14 0.051 8.1 39.51 11.58
4/5/2021 8:15:00 PM 7.27 45.086 0.051 8.09 40.78 11.58
4/5/2021 8:30:00 PM 7.24 45.032 0.051 8.09 59.33 11.59
4/5/2021 8:45:00 PM 7.21 44.978 0.051 8.08 38.9 11.6
4/5/2021 9:00:00 PM 7.19 44.942 0.051 8.08 35.21 11.61
4/5/2021 9:15:00 PM 7.17 44.906 0.051 8.08 55.49 11.62
4/5/2021 9:30:00 PM 7.15 44.87 0.051 8.08 36.35 11.62
4/5/2021 9:45:00 PM 7.13 44.834 0.051 8.08 73.2 11.63
4/5/2021 10:00:00 PM 7.11 44.798 0.052 8.07 38.37 11.64
4/5/2021 10:15:00 PM 7.08 44.744 0.052 8.07 34.7 11.65
4/5/2021 10:30:00 PM 7.05 44.69 0.052 8 47.9 11.65
4/5/2021 10:45:00 PM 7.02 44.636 0.052 8.07 37.37 11.66
4/5/2021 11:00:00 PM 7 44.6 0.052 7.95 32.98 11.66
4/5/2021 11:15:00 PM 6.98 44.564 0.052 8.07 41.73 11.67
4/5/2021 11:30:00 PM 6.95 44.51 0.052 8.02 39.67 11.68
4/5/2021 11:45:00 PM 6.93 44.474 0.052 8.01 34.86 11.69
4/6/2021 12:00:00 AM 6.9 44.42 0.052 8.07 26.15 11.69
4/6/2021 12:15:00 AM 6.88 44.384 0.052 8.07 33.7 11.7
4/6/2021 12:30:00 AM 6.86 44.348 0.052 8.09 47.22 11.71
4/6/2021 12:45:00 AM 6.83 44.294 0.052 8.09 43.69 11.71
4/6/2021 1:00:00 AM 6.79 44.222 0.052 7.98 41.85 11.72
4/6/2021 1:15:00 AM 6.72 44.096 0.052 8.03 48.9 11.74
4/6/2021 1:30:00 AM 6.64 43.952 0.052 8.04 41.31 11.76
4/6/2021 1:45:00 AM 6.56 43.808 0.052 8.08 64.85 11.78
4/6/2021 2:00:00 AM 6.49 43.682 0.052 8.08 42.67 11.8
4/6/2021 2:15:00 AM 6.42 43.556 0.052 7.98 40.31 11.82
4/6/2021 2:30:00 AM 6.35 43.43 0.052 8.07 44.72 11.84
4/6/2021 2:45:00 AM 6.28 43.304 0.053 8.08 34.51 11.87
4/6/2021 3:00:00 AM 6.2 43.16 0.053 8.07 42.82 11.88
4/6/2021 3:15:00 AM 6.13 43.034 0.053 8.07 43.04 11.91
4/6/2021 3:30:00 AM 6.05 42.89 0.053 8.07 42.5 11.93
4/6/2021 3:45:00 AM 5.98 42.764 0.053 8.07 31.09 11.95
4/6/2021 4:00:00 AM 5.9 42.62 0.053 7.96 41.95 11.97
4/6/2021 4:15:00 AM 5.83 42.494 0.053 8.06 37.35 12
4/6/2021 4:30:00 AM 5.76 42.368 0.053 8.06 39.71 12.02
4/6/2021 4:45:00 AM 5.68 42.224 0.053 8.06 33.85 12.04
4/6/2021 5:00:00 AM 5.61 42.098 0.053 8.06 46.3 12.07
4/6/2021 5:15:00 AM 5.54 41.972 0.053 8.06 40.45 12.09
4/6/2021 5:30:00 AM 5.46 41.828 0.053 8.06 39.51 12.11
4/6/2021 5:45:00 AM 5.39 41.702 0.053 7.95 39.26 12.14
4/6/2021 6:00:00 AM 5.32 41.576 0.053 8.02 36.78 12.16
4/6/2021 6:15:00 AM 5.25 41.45 0.053 8.06 36.95 12.19
4/6/2021 6:30:00 AM 5.18 41.324 0.053 8.05 37.21 12.21
4/6/2021 6:45:00 AM 5.11 41.198 0.053 8.05 36.43 12.24
4/6/2021 7:00:00 AM 5.05 41.09 0.053 8.06 38.11 12.28
4/6/2021 7:15:00 AM 5 41 0.053 8.07 36.14 12.32
4/6/2021 7:30:00 AM 4.98 40.964 0.053 8.08 35.28 12.35
4/6/2021 7:45:00 AM 4.96 40.928 0.053 8.09 33.22 12.39
4/6/2021 8:00:00 AM 4.96 40.928 0.052 8.09 31.94 12.41
4/6/2021 8:15:00 AM 4.98 40.964 0.052 8.1 33.25 12.43
4/6/2021 8:30:00 AM 5.04 41.072 0.052 8.09 36.75 12.45
4/6/2021 8:45:00 AM 5.11 41.198 0.052 8.11 32.46 12.44
4/6/2021 9:00:00 AM 5.21 41.378 0.052 8.02 33.32 12.43
4/6/2021 9:15:00 AM 5.32 41.576 0.052 8.13 32.16 12.41
4/6/2021 9:30:00 AM 5.45 41.81 0.052 8.08 46.9 12.38
4/6/2021 9:45:00 AM 5.62 42.116 0.052 8.15 26.15 12.34
4/6/2021 10:00:00 AM 5.81 42.458 0.052 8.07 25.33 12.29
4/6/2021 10:15:00 AM 6.02 42.836 0.052 8.18 33.07 12.24
4/6/2021 10:30:00 AM 6.2 43.16 0.052 8.18 42.2 12.2
4/6/2021 10:45:00 AM 6.38 43.484 0.052 8.19 31.32 12.14
4/6/2021 11:00:00 AM 6.57 43.826 0.052 8.2 31.01 12.09
4/6/2021 11:15:00 AM 6.73 44.114 0.052 8.21 32.26 12.04
4/6/2021 11:30:00 AM 6.9 44.42 0.052 8.21 38.15 12
4/6/2021 11:45:00 AM 7.07 44.726 0.052 8.22 36.56 11.95
4/6/2021 12:00:00 PM 7.19 44.942 0.052 8.23 26.39 11.9
4/6/2021 12:15:00 PM 7.3 45.14 0.052 8.22 62.95 11.87
4/6/2021 12:30:00 PM 7.48 45.464 0.052 8.21 39.57 11.82
4/6/2021 12:45:00 PM 7.63 45.734 0.052 8.24 36.51 11.76
4/6/2021 1:00:00 PM 7.77 45.986 0.051 8.24 39.66 11.72
4/6/2021 1:15:00 PM 7.92 46.256 0.051 8.25 56.04 11.68
4/6/2021 1:30:00 PM 8.09 46.562 0.051 8.25 40.06 11.63
4/6/2021 1:45:00 PM 8.18 46.724 0.051 8.24 47.67 11.59
4/6/2021 2:00:00 PM 8.29 46.922 0.051 8.27 37.86 11.55
4/6/2021 2:15:00 PM 8.39 47.102 0.051 8.26 37.11 11.51
4/6/2021 2:30:00 PM 8.49 47.282 0.051 8.27 35.36 11.48
4/6/2021 2:45:00 PM 8.55 47.39 0.051 8.25 36.37 11.45
4/6/2021 3:00:00 PM 8.6 47.48 0.051 8.28 34 11.43
4/6/2021 3:15:00 PM 8.63 47.534 0.051 8.27 35.44 11.41
4/6/2021 3:30:00 PM 8.65 47.57 0.051 8.18 41.24 11.39
4/6/2021 3:45:00 PM 8.66 47.588 0.051 8.25 36.66 11.37
4/6/2021 4:00:00 PM 8.66 47.588 0.051 8.27 39.19 11.36
4/6/2021 4:15:00 PM 8.64 47.552 0.051 8.26 40.36 11.35
4/6/2021 4:30:00 PM 8.64 47.552 0.051 8.27 34.14 11.35
4/6/2021 4:45:00 PM 8.6 47.48 0.051 8.25 33.6 11.34
4/6/2021 5:00:00 PM 8.54 47.372 0.051 8.25 30.65 11.34
4/6/2021 5:15:00 PM 8.5 47.3 0.051 8.25 41.42 11.34
4/6/2021 5:30:00 PM 8.46 47.228 0.051 8.24 30.75 11.34
4/6/2021 5:45:00 PM 8.41 47.138 0.051 8.23 27.88 11.35
4/6/2021 6:00:00 PM 8.35 47.03 0.051 8.23 37.08 11.35
4/6/2021 6:15:00 PM 8.31 46.958 0.052 8.22 34.89 11.36
4/6/2021 6:30:00 PM 8.29 46.922 0.052 8.21 40.27 11.36
4/6/2021 6:45:00 PM 8.25 46.85 0.052 8.2 32.92 11.36
4/6/2021 7:00:00 PM 8.22 46.796 0.052 8.2 32.86 11.36
4/6/2021 7:15:00 PM 8.18 46.724 0.052 8.18 37.45 11.35
4/6/2021 7:30:00 PM 8.13 46.634 0.052 8.17 35.88 11.33
4/6/2021 7:45:00 PM 8.08 46.544 0.052 8.08 28.6 11.34
4/6/2021 8:00:00 PM 8.03 46.454 0.052 8.16 35.79 11.34
4/6/2021 8:15:00 PM 7.99 46.382 0.052 8.16 35.68 11.35
4/6/2021 8:30:00 PM 7.96 46.328 0.052 8.15 31.43 11.36
4/6/2021 8:45:00 PM 7.93 46.274 0.052 8.15 32.87 11.37
4/6/2021 9:00:00 PM 7.91 46.238 0.052 8.14 41.48 11.37
4/6/2021 9:15:00 PM 7.87 46.166 0.052 8.15 35.63 11.38
4/6/2021 9:30:00 PM 7.83 46.094 0.052 8.15 34.26 11.39
4/6/2021 9:45:00 PM 7.8 46.04 0.052 8.14 34.28 11.41
4/6/2021 10:00:00 PM 7.78 46.004 0.052 8.14 35.33 11.41
4/6/2021 10:15:00 PM 7.76 45.968 0.053 8.14 46.11 11.42
4/6/2021 10:30:00 PM 7.73 45.914 0.053 8.14 42.09 11.43
4/6/2021 10:45:00 PM 7.71 45.878 0.053 8.13 35.67 11.44
4/6/2021 11:00:00 PM 7.67 45.806 0.053 8.14 44.33 11.44
4/6/2021 11:15:00 PM 7.63 45.734 0.053 8.13 39.22 11.46
4/6/2021 11:30:00 PM 7.61 45.698 0.053 8.14 31.92 11.47
4/6/2021 11:45:00 PM 7.59 45.662 0.053 8.13 30.09 11.47
4/7/2021 12:00:00 AM 7.58 45.644 0.053 8.14 40.42 11.47
4/7/2021 12:15:00 AM 7.55 45.59 0.053 8.13 37.5 11.48
4/7/2021 12:30:00 AM 7.52 45.536 0.053 8.14 47.17 11.49
4/7/2021 12:45:00 AM 7.48 45.464 0.053 8.14 46.85 11.5
4/7/2021 1:00:00 AM 7.45 45.41 0.053 8.11 22.82 11.51
4/7/2021 1:15:00 AM 7.43 45.374 0.053 8.14 45.39 11.52
4/7/2021 1:30:00 AM 7.41 45.338 0.053 8.06 44.89 11.53
4/7/2021 1:45:00 AM 7.38 45.284 0.053 8.13 33.61 11.54
4/7/2021 2:00:00 AM 7.32 45.176 0.053 8.13 31.81 11.55
4/7/2021 2:15:00 AM 7.26 45.068 0.053 8.13 35.41 11.56
4/7/2021 2:30:00 AM 7.21 44.978 0.053 8.13 30.77 11.58
4/7/2021 2:45:00 AM 7.16 44.888 0.053 8.14 37.68 11.59
4/7/2021 3:00:00 AM 7.11 44.798 0.053 8.1 34.05 11.6
4/7/2021 3:15:00 AM 7.08 44.744 0.053 8.14 34.6 11.61
4/7/2021 3:30:00 AM 7.06 44.708 0.053 8.14 34.94 11.62
4/7/2021 3:45:00 AM 7.04 44.672 0.053 8.13 32.14 11.62
4/7/2021 4:00:00 AM 7.03 44.654 0.054 8.13 37.09 11.63
4/7/2021 4:15:00 AM 7.01 44.618 0.054 8.14 33.94 11.64
4/7/2021 4:30:00 AM 6.99 44.582 0.054 8.14 39.69 11.66
4/7/2021 4:45:00 AM 6.97 44.546 0.053 8.04 38.07 11.66
4/7/2021 5:00:00 AM 6.94 44.492 0.053 8.14 45.66 11.67
4/7/2021 5:15:00 AM 6.92 44.456 0.054 8.14 31.17 11.68
4/7/2021 5:30:00 AM 6.91 44.438 0.054 8.04 44.21 11.68
4/7/2021 5:45:00 AM 6.88 44.384 0.054 8.15 42.11 11.69
4/7/2021 6:00:00 AM 6.85 44.33 0.054 8.07 41.16 11.69
4/7/2021 6:15:00 AM 6.82 44.276 0.054 8.14 37.63 11.7
4/7/2021 6:30:00 AM 6.8 44.24 0.054 8.1 53.58 11.71
4/7/2021 6:45:00 AM 6.78 44.204 0.054 8.12 29.74 11.71
4/7/2021 7:00:00 AM 6.78 44.204 0.054 8.15 38.96 11.73
4/7/2021 7:15:00 AM 6.78 44.204 0.054 8.15 30.8 11.75
4/7/2021 7:30:00 AM 6.78 44.204 0.053 8.16 35.4 11.77
4/7/2021 7:45:00 AM 6.79 44.222 0.053 8.18 32.28 11.81
4/7/2021 8:00:00 AM 6.78 44.204 0.053 8.19 33.49 11.81
4/7/2021 8:15:00 AM 6.77 44.186 0.053 8.2 45.47 11.84
4/7/2021 8:30:00 AM 6.84 44.312 0.053 8.21 29.95 11.87
4/7/2021 8:45:00 AM 6.94 44.492 0.053 8.23 27.31 11.86
4/7/2021 9:00:00 AM 7.02 44.636 0.053 8.23 35.95 11.85
4/7/2021 9:15:00 AM 7.08 44.744 0.053 8.25 30.78 11.84
4/7/2021 9:30:00 AM 7.24 45.032 0.053 8.25 22.6 11.82
4/7/2021 9:45:00 AM 7.41 45.338 0.053 8.25 26.97 11.79
4/7/2021 10:00:00 AM 7.62 45.716 0.053 8.28 37.5 11.74
4/7/2021 10:15:00 AM 7.82 46.076 0.053 8.28 32.39 11.69
4/7/2021 10:30:00 AM 8.01 46.418 0.053 8.28 26.72 11.65
4/7/2021 10:45:00 AM 8.2 46.76 0.053 8.3 33.1 11.61
4/7/2021 11:00:00 AM 8.39 47.102 0.053 8.3 28.37 11.56
4/7/2021 11:15:00 AM 8.55 47.39 0.053 8.3 41.05 11.52
4/7/2021 11:30:00 AM 8.72 47.696 0.053 8.32 40.58 11.48
4/7/2021 11:45:00 AM 8.89 48.002 0.053 8.3 29.87 11.43
4/7/2021 12:00:00 PM 9.08 48.344 0.053 8.33 33.04 11.38
4/7/2021 12:15:00 PM 9.26 48.668 0.053 8.18 32.93 11.33
4/7/2021 12:30:00 PM 9.52 49.136 0.052 8.36 30.56 11.27
4/7/2021 12:45:00 PM 9.46 49.028 0.052 8.34 28.04 11.22
4/7/2021 1:00:00 PM 9.44 48.992 0.052 8.34 43.49 11.23
4/7/2021 1:15:00 PM 9.43 48.974 0.052 8.27 31.54 11.23
4/7/2021 1:30:00 PM 9.7 49.46 0.052 8.27 37.44 11.18
4/7/2021 1:45:00 PM 9.99 49.982 0.052 8.36 32.56 11.11
4/7/2021 2:00:00 PM 10.09 50.162 0.052 8.35 32.16 11.06
4/7/2021 2:15:00 PM 10.12 50.216 0.052 8.36 35.68 11.05
4/7/2021 2:30:00 PM 10.22 50.396 0.052 8.37 31.37 11.02
4/7/2021 2:45:00 PM 10.4 50.72 0.052 8.37 36.03 10.98
4/7/2021 3:00:00 PM 10.48 50.864 0.052 8.21 37.13 10.95
4/7/2021 3:15:00 PM 10.53 50.954 0.052 8.31 35.78 10.92
4/7/2021 3:30:00 PM 10.52 50.936 0.052 8.37 37.71 10.91
4/7/2021 3:45:00 PM 10.6 51.08 0.052 8.37 34.27 10.88
4/7/2021 4:00:00 PM 10.63 51.134 0.052 8.36 27.85 10.87
4/7/2021 4:15:00 PM 10.63 51.134 0.052 8.36 29.54 10.85
4/7/2021 4:30:00 PM 10.61 51.098 0.052 8.35 33.12 10.84
4/7/2021 4:45:00 PM 10.6 51.08 0.052 8.35 34.8 10.83
4/7/2021 5:00:00 PM 10.56 51.008 0.052 8.34 38.73 10.83
4/7/2021 5:15:00 PM 10.5 50.9 0.052 8.33 37.69 10.83
4/7/2021 5:30:00 PM 10.44 50.792 0.052 8.34 37.83 10.82
4/7/2021 5:45:00 PM 10.38 50.684 0.052 8.32 31.33 10.83
4/7/2021 6:00:00 PM 10.32 50.576 0.052 8.32 34.16 10.84
4/7/2021 6:15:00 PM 10.26 50.468 0.052 8.2 32.64 10.84
4/7/2021 6:30:00 PM 10.22 50.396 0.053 8.32 36.73 10.86
4/7/2021 6:45:00 PM 10.18 50.324 0.053 8.31 35.52 10.85
4/7/2021 7:00:00 PM 10.14 50.252 0.053 8.3 35.22 10.85
4/7/2021 7:15:00 PM 10.09 50.162 0.053 8.29 36.59 10.84
4/7/2021 7:30:00 PM 10.03 50.054 0.053 8.27 30.49 10.83
4/7/2021 7:45:00 PM 9.97 49.946 0.053 8.26 35.17 10.82
4/7/2021 8:00:00 PM 9.89 49.802 0.053 8.24 33.74 10.83
4/7/2021 8:15:00 PM 9.82 49.676 0.053 8.24 42.78 10.84
4/7/2021 8:30:00 PM 9.75 49.55 0.053 8.24 42.78 10.86
4/7/2021 8:45:00 PM 9.69 49.442 0.053 8.23 45.27 10.88
4/7/2021 9:00:00 PM 9.63 49.334 0.053 8.23 37.06 10.9
4/7/2021 9:15:00 PM 9.57 49.226 0.053 8.22 36.34 10.91
4/7/2021 9:30:00 PM 9.51 49.118 0.053 8.23 37.64 10.93
4/7/2021 9:45:00 PM 9.45 49.01 0.053 8.22 35.55 10.94
4/7/2021 10:00:00 PM 9.39 48.902 0.053 8.2 31.16 10.96
4/7/2021 10:15:00 PM 9.32 48.776 0.054 8.22 30.78 10.98
4/7/2021 10:30:00 PM 9.25 48.65 0.054 8.21 34.07 11
4/7/2021 10:45:00 PM 9.19 48.542 0.054 8.22 31.96 11.01
4/7/2021 11:00:00 PM 9.12 48.416 0.054 8.2 37.78 11.03
4/7/2021 11:15:00 PM 9.05 48.29 0.054 8.1 33.13 11.05
4/7/2021 11:30:00 PM 8.98 48.164 0.054 8.08 34.18 11.07
4/7/2021 11:45:00 PM 8.91 48.038 0.054 8.16 33.33 11.09
4/8/2021 12:00:00 AM 8.84 47.912 0.054 8.21 29.57 11.11
4/8/2021 12:15:00 AM 8.77 47.786 0.054 8.21 32.98 11.13
4/8/2021 12:30:00 AM 8.7 47.66 0.054 8.19 38.58 11.15
4/8/2021 12:45:00 AM 8.62 47.516 0.054 8.21 33.35 11.16
4/8/2021 1:00:00 AM 8.55 47.39 0.054 8.19 34.97 11.18
4/8/2021 1:15:00 AM 8.48 47.264 0.054 8.2 37.76 11.2
4/8/2021 1:30:00 AM 8.4 47.12 0.054 8.21 36.23 11.22
4/8/2021 1:45:00 AM 8.33 46.994 0.054 8.09 36.63 11.25
4/8/2021 2:00:00 AM 8.25 46.85 0.054 8.2 31.23 11.26
4/8/2021 2:15:00 AM 8.18 46.724 0.054 8.18 39.46 11.28
4/8/2021 2:30:00 AM 8.11 46.598 0.054 8.19 35.27 11.31
4/8/2021 2:45:00 AM 8.04 46.472 0.054 8.2 36.05 11.33
4/8/2021 3:00:00 AM 7.96 46.328 0.055 8.19 36.82 11.35
4/8/2021 3:15:00 AM 7.9 46.22 0.055 8.19 32.03 11.37
4/8/2021 3:30:00 AM 7.83 46.094 0.055 8.08 33.55 11.39
4/8/2021 3:45:00 AM 7.76 45.968 0.055 8.12 30.24 11.41
4/8/2021 4:00:00 AM 7.69 45.842 0.055 8.16 32.86 11.43
4/8/2021 4:15:00 AM 7.63 45.734 0.055 8.17 37.15 11.45
4/8/2021 4:30:00 AM 7.56 45.608 0.055 8.09 44.37 11.46
4/8/2021 4:45:00 AM 7.5 45.5 0.055 8.14 29.24 11.48
4/8/2021 5:00:00 AM 7.44 45.392 0.055 8.18 33.24 11.5
4/8/2021 5:15:00 AM 7.38 45.284 0.055 8.17 31.63 11.51
4/8/2021 5:30:00 AM 7.32 45.176 0.055 8.07 26.17 11.53
4/8/2021 5:45:00 AM 7.26 45.068 0.055 8.18 29.26 11.55
4/8/2021 6:00:00 AM 7.2 44.96 0.055 8.18 33.38 11.57
4/8/2021 6:15:00 AM 7.15 44.87 0.055 8.19 35.01 11.59
4/8/2021 6:30:00 AM 7.09 44.762 0.055 8.18 28.97 11.6
4/8/2021 6:45:00 AM 7.04 44.672 0.055 8.07 70.21 11.63
4/8/2021 7:00:00 AM 6.99 44.582 0.055 8.18 44.29 11.66
4/8/2021 7:15:00 AM 6.95 44.51 0.055 8.18 34.58 11.7
4/8/2021 7:30:00 AM 6.95 44.51 0.055 8.2 30.45 11.73
4/8/2021 7:45:00 AM 6.95 44.51 0.055 8.19 31.25 11.77
4/8/2021 8:00:00 AM 6.98 44.564 0.055 8.23 36.6 11.79
4/8/2021 8:15:00 AM 7.02 44.636 0.054 8.24 42.99 11.81
4/8/2021 8:30:00 AM 7.09 44.762 0.054 8.14 32.51 11.81
4/8/2021 8:45:00 AM 7.19 44.942 0.054 8.26 28.67 11.8
4/8/2021 9:00:00 AM 7.31 45.158 0.054 8.25 28.14 11.79
4/8/2021 9:15:00 AM 7.44 45.392 0.054 8.28 30.44 11.78
4/8/2021 9:30:00 AM 7.61 45.698 0.054 8.29 34.32 11.74
4/8/2021 9:45:00 AM 7.8 46.04 0.054 8.31 35.18 11.7
4/8/2021 10:00:00 AM 8.02 46.436 0.054 8.33 27.17 11.65
4/8/2021 10:15:00 AM 8.25 46.85 0.054 8.33 29.07 11.6
4/8/2021 10:30:00 AM 8.45 47.21 0.054 8.34 32.77 11.56
4/8/2021 10:45:00 AM 8.66 47.588 0.054 8.34 32.86 11.51
4/8/2021 11:00:00 AM 8.85 47.93 0.054 8.36 28.56 11.45
4/8/2021 11:15:00 AM 9.03 48.254 0.054 8.36 24.98 11.42
4/8/2021 11:30:00 AM 9.22 48.596 0.054 8.37 29.11 11.36
4/8/2021 11:45:00 AM 9.4 48.92 0.054 8.37 42.54 11.31
4/8/2021 12:00:00 PM 9.58 49.244 0.054 8.38 33 11.26
4/8/2021 12:15:00 PM 9.75 49.55 0.054 8.36 31.34 11.22
4/8/2021 12:30:00 PM 9.92 49.856 0.054 8.26 38.34 11.17
4/8/2021 12:45:00 PM 10.07 50.126 0.054 8.41 28.28 11.13
4/8/2021 1:00:00 PM 10.2 50.36 0.054 8.41 31.43 11.09
4/8/2021 1:15:00 PM 10.34 50.612 0.053 8.41 30.68 11.05
4/8/2021 1:30:00 PM 10.48 50.864 0.053 8.41 28.4 11
4/8/2021 1:45:00 PM 10.62 51.116 0.053 8.42 35.39 10.96
4/8/2021 2:00:00 PM 10.72 51.296 0.053 8.42 40.14 10.92
4/8/2021 2:15:00 PM 10.83 51.494 0.053 8.42 34.47 10.89
4/8/2021 2:30:00 PM 10.9 51.62 0.053 8.42 31.55 10.86
4/8/2021 2:45:00 PM 10.95 51.71 0.053 8.27 29.49 10.84
4/8/2021 3:00:00 PM 10.99 51.782 0.053 8.44 27.22 10.82
4/8/2021 3:15:00 PM 11.02 51.836 0.053 8.43 41.8 10.81
4/8/2021 3:30:00 PM 11.04 51.872 0.053 8.43 31.35 10.78
4/8/2021 3:45:00 PM 11.04 51.872 0.053 8.28 26.43 10.77
4/8/2021 4:00:00 PM 11.03 51.854 0.053 8.43 38.47 10.76
4/8/2021 4:15:00 PM 11 51.8 0.053 8.42 26.39 10.76
4/8/2021 4:30:00 PM 10.94 51.692 0.053 8.41 32.47 10.76
4/8/2021 4:45:00 PM 10.88 51.584 0.053 8.42 28.81 10.77
4/8/2021 5:00:00 PM 10.84 51.512 0.053 8.4 34.16 10.76
4/8/2021 5:15:00 PM 10.8 51.44 0.053 8.22 33.77 10.75
4/8/2021 5:30:00 PM 10.76 51.368 0.054 8.39 39.9 10.75
4/8/2021 5:45:00 PM 10.69 51.242 0.054 8.38 29.52 10.75
4/8/2021 6:00:00 PM 10.63 51.134 0.054 8.38 32.22 10.75
4/8/2021 6:15:00 PM 10.58 51.044 0.054 8.36 36.19 10.76
4/8/2021 6:30:00 PM 10.53 50.954 0.054 8.36 31.87 10.76
4/8/2021 6:45:00 PM 10.48 50.864 0.054 8.35 32.3 10.76
4/8/2021 7:00:00 PM 10.43 50.774 0.054 8.33 39.95 10.76
4/8/2021 7:15:00 PM 10.37 50.666 0.054 8.28 32.29 10.75
4/8/2021 7:30:00 PM 10.31 50.558 0.054 8.33 31.81 10.74
4/8/2021 7:45:00 PM 10.24 50.432 0.054 8.31 34.81 10.74
4/8/2021 8:00:00 PM 10.18 50.324 0.054 8.26 35.05 10.75
4/8/2021 8:15:00 PM 10.12 50.216 0.054 8.3 31.45 10.76
4/8/2021 8:30:00 PM 10.07 50.126 0.054 8.29 36.15 10.77
4/8/2021 8:45:00 PM 10.02 50.036 0.054 8.18 36.2 10.78
4/8/2021 9:00:00 PM 9.97 49.946 0.054 8.27 30.05 10.79
4/8/2021 9:15:00 PM 9.93 49.874 0.054 8.28 33.08 10.8
4/8/2021 9:30:00 PM 9.89 49.802 0.055 8.28 34.21 10.82
4/8/2021 9:45:00 PM 9.85 49.73 0.055 8.27 32.97 10.83
4/8/2021 10:00:00 PM 9.81 49.658 0.055 8.18 39.31 10.84
4/8/2021 10:15:00 PM 9.76 49.568 0.053 8.24 33.1 10.85
4/8/2021 10:30:00 PM 9.72 49.496 0.055 8.18 37.53 10.86
4/8/2021 10:45:00 PM 9.68 49.424 0.055 8.27 27.18 10.87
4/8/2021 11:00:00 PM 9.63 49.334 0.055 8.27 30.41 10.88
4/8/2021 11:15:00 PM 9.59 49.262 0.055 8.21 36.8 10.89
4/8/2021 11:30:00 PM 9.55 49.19 0.055 8.26 36.06 10.9
4/8/2021 11:45:00 PM 9.51 49.118 0.055 8.27 38.56 10.92
4/9/2021 12:00:00 AM 9.48 49.064 0.055 8.18 40.34 10.93
4/9/2021 12:15:00 AM 9.44 48.992 0.055 8.28 30.67 10.94
4/9/2021 12:30:00 AM 9.41 48.938 0.055 8.28 25.54 10.95
4/9/2021 12:45:00 AM 9.37 48.866 0.055 8.27 33.67 10.96
4/9/2021 1:00:00 AM 9.34 48.812 0.055 8.13 34.23 10.97
4/9/2021 1:15:00 AM 9.32 48.776 0.055 8.2 32.04 10.98
4/9/2021 1:30:00 AM 9.28 48.704 0.055 8.28 28.58 10.99
4/9/2021 1:45:00 AM 9.26 48.668 0.055 8.28 42.42 10.99
4/9/2021 2:00:00 AM 9.24 48.632 0.055 8.28 31.34 11
4/9/2021 2:15:00 AM 9.2 48.56 0.055 8.27 32.72 11.01
4/9/2021 2:30:00 AM 9.16 48.488 0.055 8.27 40.21 11.02
4/9/2021 2:45:00 AM 9.13 48.434 0.055 8.12 27.04 11.03
4/9/2021 3:00:00 AM 9.09 48.362 0.055 8.28 35.81 11.04
4/9/2021 3:15:00 AM 9.06 48.308 0.056 8.28 30.96 11.05
4/9/2021 3:30:00 AM 9.02 48.236 0.056 8.27 33.62 11.05
4/9/2021 3:45:00 AM 9 48.2 0.056 8.26 41.61 11.08
4/9/2021 4:00:00 AM 8.97 48.146 0.056 8.29 32.5 11.08
4/9/2021 4:15:00 AM 8.95 48.11 0.056 8.27 28.8 11.08
4/9/2021 4:30:00 AM 8.93 48.074 0.056 8.27 30.5 11.09
4/9/2021 4:45:00 AM 8.92 48.056 0.056 8.27 30.46 11.1
4/9/2021 5:00:00 AM 8.91 48.038 0.056 8.27 38.58 11.1
4/9/2021 5:15:00 AM 8.9 48.02 0.056 8.13 35.73 11.09
4/9/2021 5:30:00 AM 8.89 48.002 0.056 8.28 38.71 11.1
4/9/2021 5:45:00 AM 8.86 47.948 0.056 8.28 32.87 11.11
4/9/2021 6:00:00 AM 8.85 47.93 0.056 8.27 52.43 11.12
4/9/2021 6:15:00 AM 8.82 47.876 0.056 8.26 38.14 11.12
4/9/2021 6:30:00 AM 8.8 47.84 0.056 8.25 32.73 11.12
4/9/2021 6:45:00 AM 8.78 47.804 0.056 8.18 33.86 11.14
4/9/2021 7:00:00 AM 8.76 47.768 0.056 8.17 42.66 11.16
4/9/2021 7:15:00 AM 8.75 47.75 0.056 8.29 23.88 11.17
4/9/2021 7:30:00 AM 8.75 47.75 0.056 8.18 26.67 11.18
4/9/2021 7:45:00 AM 8.75 47.75 0.056 8.28 30.03 11.2
4/9/2021 8:00:00 AM 8.75 47.75 0.056 8.29 34.32 11.22
4/9/2021 8:15:00 AM 8.76 47.768 0.055 8.31 33.79 11.26
4/9/2021 8:30:00 AM 8.78 47.804 0.055 8.32 29.61 11.28
4/9/2021 8:45:00 AM 8.79 47.822 0.055 8.32 33.82 11.29
4/9/2021 9:00:00 AM 8.81 47.858 0.055 8.34 33.31 11.3
4/9/2021 9:15:00 AM 8.83 47.894 0.055 8.34 35.62 11.32
4/9/2021 9:30:00 AM 8.83 47.894 0.055 8.35 37.98 11.28
4/9/2021 9:45:00 AM 8.86 47.948 0.055 8.36 31.62 11.32
4/9/2021 10:00:00 AM 8.89 48.002 0.055 8.29 31.59 11.32
4/9/2021 10:15:00 AM 8.93 48.074 0.055 8.38 27.56 11.31
4/9/2021 10:30:00 AM 8.93 48.074 0.055 8.26 28.82 11.31
4/9/2021 10:45:00 AM 9.01 48.218 0.055 8.4 33.94 11.32
4/9/2021 11:00:00 AM 9.06 48.308 0.055 8.4 33.33 11.31
4/9/2021 11:15:00 AM 9.11 48.398 0.055 8.4 33.57 11.3
4/9/2021 11:30:00 AM 9.22 48.596 0.055 8.4 35.66 11.29
4/9/2021 11:45:00 AM 9.3 48.74 0.055 8.26 33 11.27
4/9/2021 12:00:00 PM 9.29 48.722 0.055 8.39 25.97 11.25
4/9/2021 12:15:00 PM 9.26 48.668 0.055 8.41 28.77 11.25
4/9/2021 12:30:00 PM 9.29 48.722 0.055 8.41 27.88 11.25
4/9/2021 12:45:00 PM 9.39 48.902 0.055 8.42 29.59 11.25
4/9/2021 1:00:00 PM 9.4 48.92 0.055 8.42 27.75 11.22
4/9/2021 1:15:00 PM 9.35 48.83 0.055 8.41 32.83 11.2
4/9/2021 1:30:00 PM 9.4 48.92 0.055 8.42 29.72 11.23
4/9/2021 1:45:00 PM 9.51 49.118 0.055 8.42 29.81 11.21
4/9/2021 2:00:00 PM 9.51 49.118 0.055 8.42 36.55 11.2
4/9/2021 2:15:00 PM 9.5 49.1 0.055 8.42 35.03 11.2
4/9/2021 2:30:00 PM 9.5 49.1 0.055 8.42 42.53 11.19
4/9/2021 2:45:00 PM 9.56 49.208 0.055 8.43 38.76 11.19
4/9/2021 3:00:00 PM 9.62 49.316 0.055 8.43 27.21 11.17
4/9/2021 3:15:00 PM 9.61 49.298 0.054 8.42 30.59 11.15
4/9/2021 3:30:00 PM 9.54 49.172 0.055 8.41 38.18 11.13
4/9/2021 3:45:00 PM 9.5 49.1 0.055 8.33 46.86 11.14
4/9/2021 4:00:00 PM 9.49 49.082 0.054 8.39 36.25 11.16
4/9/2021 4:15:00 PM 9.53 49.154 0.054 8.42 28.16 11.16
4/9/2021 4:30:00 PM 9.57 49.226 0.054 8.41 32.24 11.15
4/9/2021 4:45:00 PM 9.62 49.316 0.054 8.42 38.07 11.14
4/9/2021 5:00:00 PM 9.63 49.334 0.054 8.42 38.15 11.12
4/9/2021 5:15:00 PM 9.61 49.298 0.054 8.41 38.64 11.11
4/9/2021 5:30:00 PM 9.59 49.262 0.055 8.4 37.06 11.1
4/9/2021 5:45:00 PM 9.53 49.154 0.055 8.39 43.83 11.07
4/9/2021 6:00:00 PM 9.49 49.082 0.055 8.38 33.97 11.06
4/9/2021 6:15:00 PM 9.46 49.028 0.055 8.26 36.2 11.05
4/9/2021 6:30:00 PM 9.44 48.992 0.055 8.35 52.88 11.06
4/9/2021 6:45:00 PM 9.43 48.974 0.055 8.35 42.86 11.05
4/9/2021 7:00:00 PM 9.41 48.938 0.055 8.35 37.7 11.03
4/9/2021 7:15:00 PM 9.39 48.902 0.055 8.34 38.35 11.03
4/9/2021 7:30:00 PM 9.37 48.866 0.055 8.33 48.04 11.02
4/9/2021 7:45:00 PM 9.34 48.812 0.055 8.28 39.39 11.01
4/9/2021 8:00:00 PM 9.32 48.776 0.055 8.33 33.83 11.01
4/9/2021 8:15:00 PM 9.3 48.74 0.055 8.31 32.76 11.01
4/9/2021 8:30:00 PM 9.28 48.704 0.055 8.2 43.96 11.01
4/9/2021 8:45:00 PM 9.26 48.668 0.055 8.25 38.06 11.01
4/9/2021 9:00:00 PM 9.26 48.668 0.055 8.31 38.73 11.01
4/9/2021 9:15:00 PM 9.25 48.65 0.055 8.25 35.47 11.02
4/9/2021 9:30:00 PM 9.24 48.632 0.055 8.31 32.73 11.02
4/9/2021 9:45:00 PM 9.23 48.614 0.055 8.21 30.7 11.03
4/9/2021 10:00:00 PM 9.22 48.596 0.055 8.28 31.19 11.02
4/9/2021 10:15:00 PM 9.21 48.578 0.055 8.31 49.03 11.03
4/9/2021 10:30:00 PM 9.2 48.56 0.056 8.3 45.48 11.03
4/9/2021 10:45:00 PM 9.19 48.542 0.056 8.31 32.1 11.04
4/9/2021 11:00:00 PM 9.18 48.524 0.056 8.31 39.71 11.03
4/9/2021 11:15:00 PM 9.16 48.488 0.056 8.25 43.13 11.04
4/9/2021 11:30:00 PM 9.15 48.47 0.056 8.29 52.06 11.04
4/9/2021 11:45:00 PM 9.15 48.47 0.056 8.31 28.54 11.04
4/10/2021 12:00:00 AM 9.14 48.452 0.056 8.19 34.75 11.04
4/10/2021 12:15:00 AM 9.13 48.434 0.056 8.3 31.87 11.04
4/10/2021 12:30:00 AM 9.12 48.416 0.056 8.21 29.68 11.05
4/10/2021 12:45:00 AM 9.11 48.398 0.056 8.3 35.06 11.05
4/10/2021 1:00:00 AM 9.11 48.398 0.056 8.31 40.85 11.05
4/10/2021 1:15:00 AM 9.1 48.38 0.056 8.31 42.25 11.05
4/10/2021 1:30:00 AM 9.1 48.38 0.056 8.28 36.19 11.05
4/10/2021 1:45:00 AM 9.09 48.362 0.056 8.24 47.4 11.06
4/10/2021 2:00:00 AM 9.08 48.344 0.056 8.3 36.5 11.06
4/10/2021 2:15:00 AM 9.07 48.326 0.056 8.3 36.88 11.06
4/10/2021 2:30:00 AM 9.07 48.326 0.056 8.2 37.65 11.06
4/10/2021 2:45:00 AM 9.06 48.308 0.056 8.31 38.79 11.06
4/10/2021 3:00:00 AM 9.05 48.29 0.056 8.29 34.39 11.06
4/10/2021 3:15:00 AM 9.04 48.272 0.056 8.31 51.17 11.06
4/10/2021 3:30:00 AM 9.03 48.254 0.056 8.21 28.66 11.06
4/10/2021 3:45:00 AM 9.03 48.254 0.056 8.3 30.25 11.06
4/10/2021 4:00:00 AM 9.03 48.254 0.056 8.31 38.38 11.06
4/10/2021 4:15:00 AM 9.02 48.236 0.056 8.29 40.65 11.05
4/10/2021 4:30:00 AM 9.01 48.218 0.056 8.31 26.53 11.05
4/10/2021 4:45:00 AM 9 48.2 0.056 8.3 32.06 11.05
4/10/2021 5:00:00 AM 9.01 48.218 0.056 8.3 43.29 11.06
4/10/2021 5:15:00 AM 9.01 48.218 0.056 8.29 35.19 11.05
4/10/2021 5:30:00 AM 9.02 48.236 0.056 8.2 44.6 11.06
4/10/2021 5:45:00 AM 9.02 48.236 0.056 8.29 37.33 11.06
4/10/2021 6:00:00 AM 9.03 48.254 0.056 8.32 38.14 11.06
4/10/2021 6:15:00 AM 9.02 48.236 0.056 8.31 36.49 11.05
4/10/2021 6:30:00 AM 9.02 48.236 0.056 8.31 36.68 11.06
4/10/2021 6:45:00 AM 9.02 48.236 0.056 8.31 36.99 11.07
4/10/2021 7:00:00 AM 9.02 48.236 0.056 8.3 35.53 11.08
4/10/2021 7:15:00 AM 9.03 48.254 0.056 8.33 36.49 11.09
4/10/2021 7:30:00 AM 9.04 48.272 0.056 8.33 32.55 11.09
4/10/2021 7:45:00 AM 9.06 48.308 0.056 8.34 34.43 11.11
4/10/2021 8:00:00 AM 9.08 48.344 0.056 8.33 30.87 11.12
4/10/2021 8:15:00 AM 9.1 48.38 0.056 8.36 38.04 11.15
4/10/2021 8:30:00 AM 9.13 48.434 0.056 8.37 30.06 11.15
4/10/2021 8:45:00 AM 9.16 48.488 0.056 8.37 37.66 11.15
4/10/2021 9:00:00 AM 9.2 48.56 0.056 8.24 29.41 11.17
4/10/2021 9:15:00 AM 9.26 48.668 0.056 8.41 35.16 11.18
4/10/2021 9:30:00 AM 9.32 48.776 0.056 8.4 31.7 11.17
4/10/2021 9:45:00 AM 9.38 48.884 0.056 8.42 29.97 11.17
4/10/2021 10:00:00 AM 9.44 48.992 0.056 8.42 25.2 11.16
4/10/2021 10:15:00 AM 9.51 49.118 0.056 8.43 44.3 11.15
4/10/2021 10:30:00 AM 9.57 49.226 0.056 8.45 34.63 11.14
4/10/2021 10:45:00 AM 9.68 49.424 0.056 8.44 35.41 11.13
4/10/2021 11:00:00 AM 9.89 49.802 0.056 8.31 26.91 11.11
4/10/2021 11:15:00 AM 10.22 50.396 0.056 8.48 33.67 11.07
4/10/2021 11:30:00 AM 10.45 50.81 0.056 8.49 34.41 11
4/10/2021 11:45:00 AM 10.64 51.152 0.056 8.48 32.19 10.94
4/10/2021 12:00:00 PM 10.71 51.278 0.055 8.5 34.58 10.92
4/10/2021 12:15:00 PM 10.77 51.386 0.055 8.47 29.1 10.9
4/10/2021 12:30:00 PM 10.91 51.638 0.055 8.39 33.99 10.88
4/10/2021 12:45:00 PM 11.14 52.052 0.055 8.44 35.83 10.83
4/10/2021 1:00:00 PM 11.3 52.34 0.055 8.53 34.95 10.78
4/10/2021 1:15:00 PM 11.38 52.484 0.055 8.53 29.71 10.75
4/10/2021 1:30:00 PM 11.46 52.628 0.055 8.44 30.23 10.72
4/10/2021 1:45:00 PM 11.53 52.754 0.055 8.46 49.33 10.7
4/10/2021 2:00:00 PM 11.62 52.916 0.055 8.54 31.76 10.69
4/10/2021 2:15:00 PM 11.68 53.024 0.055 8.54 37.09 10.66
4/10/2021 2:30:00 PM 11.74 53.132 0.055 8.54 37.87 10.64
4/10/2021 2:45:00 PM 11.8 53.24 0.055 8.54 42.25 10.62
4/10/2021 3:00:00 PM 11.84 53.312 0.055 8.54 36.67 10.6
4/10/2021 3:15:00 PM 11.86 53.348 0.055 8.54 38.82 10.6
4/10/2021 3:30:00 PM 11.85 53.33 0.055 8.53 36.65 10.59
4/10/2021 3:45:00 PM 11.84 53.312 0.055 8.53 23.45 10.58
4/10/2021 4:00:00 PM 11.84 53.312 0.055 8.53 35.64 10.58
4/10/2021 4:15:00 PM 11.82 53.276 0.055 8.53 49.07 10.56
4/10/2021 4:30:00 PM 11.79 53.222 0.055 8.52 31.85 10.56
4/10/2021 4:45:00 PM 11.73 53.114 0.055 8.51 37.97 10.56
4/10/2021 5:00:00 PM 11.66 52.988 0.055 8.45 49.36 10.56
4/10/2021 5:15:00 PM 11.61 52.898 0.055 8.51 31.07 10.56
4/10/2021 5:30:00 PM 11.55 52.79 0.055 8.47 40.27 10.56
4/10/2021 5:45:00 PM 11.48 52.664 0.055 8.5 36.48 10.57
4/10/2021 6:00:00 PM 11.42 52.556 0.055 8.5 30.84 10.57
4/10/2021 6:15:00 PM 11.35 52.43 0.055 8.48 35.87 10.56
4/10/2021 6:30:00 PM 11.29 52.322 0.056 8.46 42.45 10.55
4/10/2021 6:45:00 PM 11.23 52.214 0.056 8.45 34.47 10.53
4/10/2021 7:00:00 PM 11.16 52.088 0.053 8.42 43.97 10.53
4/10/2021 7:15:00 PM 11.08 51.944 0.056 8.42 31.03 10.51
4/10/2021 7:30:00 PM 10.99 51.782 0.056 8.41 49.86 10.51
4/10/2021 7:45:00 PM 10.9 51.62 0.056 8.38 45.08 10.5
4/10/2021 8:00:00 PM 10.82 51.476 0.054 8.32 44.55 10.51
4/10/2021 8:15:00 PM 10.75 51.35 0.056 8.36 61.71 10.52
4/10/2021 8:30:00 PM 10.69 51.242 0.056 8.37 35.59 10.53
4/10/2021 8:45:00 PM 10.64 51.152 0.056 8.24 30.86 10.54
4/10/2021 9:00:00 PM 10.59 51.062 0.056 8.37 33.98 10.55
4/10/2021 9:15:00 PM 10.55 50.99 0.056 8.36 35.92 10.56
4/10/2021 9:30:00 PM 10.5 50.9 0.056 8.35 34.87 10.57
4/10/2021 9:45:00 PM 10.46 50.828 0.057 8.35 28.44 10.58
4/10/2021 10:00:00 PM 10.41 50.738 0.057 8.35 27.71 10.59
4/10/2021 10:15:00 PM 10.37 50.666 0.057 8.34 39.5 10.6
4/10/2021 10:30:00 PM 10.32 50.576 0.057 8.35 34.36 10.61
4/10/2021 10:45:00 PM 10.29 50.522 0.057 8.35 43.98 10.62
4/10/2021 11:00:00 PM 10.26 50.468 0.057 8.35 28.27 10.63
4/10/2021 11:15:00 PM 10.23 50.414 0.057 8.35 30.68 10.64
4/10/2021 11:30:00 PM 10.23 50.414 0.057 8.34 29.29 10.64
4/10/2021 11:45:00 PM 10.23 50.414 0.057 8.35 28.61 10.64
4/11/2021 12:00:00 AM 10.23 50.414 0.057 8.35 31.53 10.64
4/11/2021 12:15:00 AM 10.22 50.396 0.057 8.24 30.42 10.64
4/11/2021 12:30:00 AM 10.21 50.378 0.057 8.34 35.7 10.64
4/11/2021 12:45:00 AM 10.2 50.36 0.057 8.34 23.31 10.63
4/11/2021 1:00:00 AM 10.18 50.324 0.057 8.33 31.05 10.64
4/11/2021 1:15:00 AM 10.16 50.288 0.057 8.34 29.81 10.64
4/11/2021 1:30:00 AM 10.14 50.252 0.057 8.33 32.24 10.64
4/11/2021 1:45:00 AM 10.12 50.216 0.057 8.18 28.98 10.65
4/11/2021 2:00:00 AM 10.11 50.198 0.057 8.31 32.85 10.64
4/11/2021 2:15:00 AM 10.1 50.18 0.057 8.34 22.84 10.65
4/11/2021 2:30:00 AM 10.08 50.144 0.057 8.33 28.34 10.65
4/11/2021 2:45:00 AM 10.07 50.126 0.057 8.32 26.5 10.65
4/11/2021 3:00:00 AM 10.06 50.108 0.058 8.33 24.92 10.65
4/11/2021 3:15:00 AM 10.05 50.09 0.058 8.33 34.93 10.65
4/11/2021 3:30:00 AM 10.03 50.054 0.058 8.33 31.17 10.65
4/11/2021 3:45:00 AM 10.02 50.036 0.058 8.24 31.97 10.65
4/11/2021 4:00:00 AM 10.01 50.018 0.058 8.31 31.25 10.65
4/11/2021 4:15:00 AM 10 50 0.058 8.33 23.93 10.66
4/11/2021 4:30:00 AM 9.99 49.982 0.058 8.33 32.75 10.65
4/11/2021 4:45:00 AM 9.97 49.946 0.058 8.32 38.97 10.66
4/11/2021 5:00:00 AM 9.96 49.928 0.058 8.33 22.68 10.66
4/11/2021 5:15:00 AM 9.95 49.91 0.058 8.31 23.59 10.66
4/11/2021 5:30:00 AM 9.94 49.892 0.058 8.33 27.49 10.66
4/11/2021 5:45:00 AM 9.93 49.874 0.058 8.32 33.03 10.66
4/11/2021 6:00:00 AM 9.92 49.856 0.058 8.3 29.21 10.66
4/11/2021 6:15:00 AM 9.91 49.838 0.058 8.34 30.34 10.66
4/11/2021 6:30:00 AM 9.9 49.82 0.058 8.26 34.05 10.66
4/11/2021 6:45:00 AM 9.89 49.802 0.058 8.25 25.54 10.67
4/11/2021 7:00:00 AM 9.89 49.802 0.058 8.28 29.96 10.67
4/11/2021 7:15:00 AM 9.87 49.766 0.058 8.35 31.4 10.68
4/11/2021 7:30:00 AM 9.87 49.766 0.058 8.34 37.16 10.68
4/11/2021 7:45:00 AM 9.87 49.766 0.058 8.34 36.57 10.69
4/11/2021 8:00:00 AM 9.87 49.766 0.058 8.35 36.42 10.71
4/11/2021 8:15:00 AM 9.87 49.766 0.058 8.23 35.27 10.71
4/11/2021 8:30:00 AM 9.89 49.802 0.057 8.33 46.9 10.7
4/11/2021 8:45:00 AM 9.9 49.82 0.058 8.34 55.03 10.69
4/11/2021 9:00:00 AM 9.89 49.802 0.059 8.27 80.55 10.71
4/11/2021 9:15:00 AM 9.91 49.838 0.059 8.37 90.79 10.72
4/11/2021 9:30:00 AM 9.92 49.856 0.06 8.36 87 10.71
4/11/2021 9:45:00 AM 9.91 49.838 0.063 8.39 144.58 10.7
4/11/2021 10:00:00 AM 9.91 49.838 0.066 8.43 151.67 10.71
4/11/2021 10:15:00 AM 9.92 49.856 0.065 8.42 105.54 10.71
4/11/2021 10:30:00 AM 9.92 49.856 0.064 8.42 143.06 10.72
4/11/2021 10:45:00 AM 9.92 49.856 0.064 8.42 129.42 10.72
4/11/2021 11:00:00 AM 9.92 49.856 0.063 8.41 139.95 10.72
4/11/2021 11:15:00 AM 9.93 49.874 0.062 8.42 104.13 10.74
4/11/2021 11:30:00 AM 10.04 50.072 0.062 8.44 122.64 10.79
4/11/2021 11:45:00 AM 10.08 50.144 0.061 8.39 121.5 10.75
4/11/2021 12:00:00 PM 10.12 50.216 0.06 8.47 85.33 10.76
4/11/2021 12:15:00 PM 10.1 50.18 0.06 8.45 77.37 10.74
4/11/2021 12:30:00 PM 10.08 50.144 0.059 8.43 66.78 10.75
4/11/2021 12:45:00 PM 10.12 50.216 0.058 8.46 59.95 10.77
4/11/2021 1:00:00 PM 10.12 50.216 0.058 8.39 67 10.72
4/11/2021 1:15:00 PM 10.18 50.324 0.058 8.45 75.94 10.75
4/11/2021 1:30:00 PM 10.24 50.432 0.058 8.46 82.37 10.75
4/11/2021 1:45:00 PM 10.29 50.522 0.058 8.38 84.99 10.76
4/11/2021 2:00:00 PM 10.35 50.63 0.058 8.48 69.86 10.76
4/11/2021 2:15:00 PM 10.45 50.81 0.058 8.46 61.6 10.74
4/11/2021 2:30:00 PM 10.49 50.882 0.059 8.5 62.5 10.73
4/11/2021 2:45:00 PM 10.6 51.08 0.059 8.51 73.74 10.72
4/11/2021 3:00:00 PM 10.68 51.224 0.059 8.43 49.76 10.69
4/11/2021 3:15:00 PM 10.77 51.386 0.058 8.47 70.51 10.67
4/11/2021 3:30:00 PM 10.74 51.332 0.058 8.53 63.1 10.65
4/11/2021 3:45:00 PM 10.66 51.188 0.058 8.49 56.98 10.63
4/11/2021 4:00:00 PM 10.6 51.08 0.058 8.48 51.08 10.62
4/11/2021 4:15:00 PM 10.55 50.99 0.058 8.46 67.22 10.61
4/11/2021 4:30:00 PM 10.52 50.936 0.058 8.45 69.31 10.61
4/11/2021 4:45:00 PM 10.51 50.918 0.058 8.44 60.13 10.61
4/11/2021 5:00:00 PM 10.53 50.954 0.058 8.46 52.21 10.63
4/11/2021 5:15:00 PM 10.59 51.062 0.058 8.38 59.31 10.64
4/11/2021 5:30:00 PM 10.64 51.152 0.058 8.42 41.46 10.63
4/11/2021 5:45:00 PM 10.65 51.17 0.058 8.48 61.36 10.63
4/11/2021 6:00:00 PM 10.62 51.116 0.058 8.39 55.42 10.6
4/11/2021 6:15:00 PM 10.57 51.026 0.059 8.39 63.95 10.58
4/11/2021 6:30:00 PM 10.53 50.954 0.059 8.45 65.08 10.58
4/11/2021 6:45:00 PM 10.49 50.882 0.059 8.29 50.42 10.57
4/11/2021 7:00:00 PM 10.45 50.81 0.059 8.43 59.05 10.56
4/11/2021 7:15:00 PM 10.43 50.774 0.059 8.33 51.97 10.57
4/11/2021 7:30:00 PM 10.4 50.72 0.059 8.41 39.67 10.56
4/11/2021 7:45:00 PM 10.36 50.648 0.059 8.39 51.57 10.56
4/11/2021 8:00:00 PM 10.33 50.594 0.059 8.37 43.25 10.56
4/11/2021 8:15:00 PM 10.3 50.54 0.059 8.39 43.68 10.57
4/11/2021 8:30:00 PM 10.28 50.504 0.059 8.37 40.65 10.57
4/11/2021 8:45:00 PM 10.25 50.45 0.059 8.38 41.78 10.58
4/11/2021 9:00:00 PM 10.22 50.396 0.059 8.36 45.07 10.59
4/11/2021 9:15:00 PM 10.19 50.342 0.059 8.28 39.08 10.59
4/11/2021 9:30:00 PM 10.16 50.288 0.059 8.36 46.8 10.6
4/11/2021 9:45:00 PM 10.13 50.234 0.059 8.31 41.03 10.61
4/11/2021 10:00:00 PM 10.09 50.162 0.059 8.37 37.81 10.62
4/11/2021 10:15:00 PM 10.09 50.162 0.059 8.34 38.48 10.63
4/11/2021 10:30:00 PM 10.08 50.144 0.059 8.35 41.61 10.63
4/11/2021 10:45:00 PM 10.1 50.18 0.058 8.31 51.49 10.63
4/11/2021 11:00:00 PM 10.07 50.126 0.059 8.32 67.95 10.64
4/11/2021 11:15:00 PM 10.04 50.072 0.061 8.31 138.3 10.64
4/11/2021 11:30:00 PM 10.01 50.018 0.06 8.31 59.77 10.65
4/11/2021 11:45:00 PM 9.99 49.982 0.064 8.37 88.89 10.65
4/12/2021 12:00:00 AM 9.96 49.928 0.067 8.43 79.81 10.67
4/12/2021 12:15:00 AM 9.92 49.856 0.065 8.44 106.43 10.68
4/12/2021 12:30:00 AM 9.88 49.784 0.063 8.35 102.26 10.7
4/12/2021 12:45:00 AM 9.85 49.73 0.062 8.35 101.52 10.71
4/12/2021 1:00:00 AM 9.83 49.694 0.061 8.38 115.4 10.71
4/12/2021 1:15:00 AM 9.81 49.658 0.058 8.32 99.01 10.72
4/12/2021 1:30:00 AM 9.78 49.604 0.06 8.36 70.31 10.72
4/12/2021 1:45:00 AM 9.75 49.55 0.06 8.36 71.08 10.74
4/12/2021 2:00:00 AM 9.72 49.496 0.06 8.34 102.7 10.74
4/12/2021 2:15:00 AM 9.7 49.46 0.06 8.34 80.32 10.75
4/12/2021 2:30:00 AM 9.67 49.406 0.059 8.35 54.25 10.76
4/12/2021 2:45:00 AM 9.65 49.37 0.059 8.34 80.99 10.76
4/12/2021 3:00:00 AM 9.63 49.334 0.06 8.35 60.25 10.77
4/12/2021 3:15:00 AM 9.59 49.262 0.06 8.35 74.3 10.77
4/12/2021 3:30:00 AM 9.56 49.208 0.06 8.34 101.68 10.77
4/12/2021 3:45:00 AM 9.53 49.154 0.06 8.27 66.24 10.78
4/12/2021 4:00:00 AM 9.51 49.118 0.06 8.27 65.46 10.79
4/12/2021 4:15:00 AM 9.48 49.064 0.06 8.38 70.15 10.8
4/12/2021 4:30:00 AM 9.46 49.028 0.06 8.36 67.4 10.8
4/12/2021 4:45:00 AM 9.43 48.974 0.06 8.35 75.96 10.82
4/12/2021 5:00:00 AM 9.41 48.938 0.06 8.34 76.46 10.82
4/12/2021 5:15:00 AM 9.38 48.884 0.06 8.3 66.35 10.83
4/12/2021 5:30:00 AM 9.36 48.848 0.06 8.33 51.5 10.84
4/12/2021 5:45:00 AM 9.33 48.794 0.06 8.33 57.21 10.85
4/12/2021 6:00:00 AM 9.3 48.74 0.059 8.33 59.57 10.86
4/12/2021 6:15:00 AM 9.28 48.704 0.059 8.33 72.37 10.86
4/12/2021 6:30:00 AM 9.25 48.65 0.059 8.36 50.91 10.87
4/12/2021 6:45:00 AM 9.23 48.614 0.059 8.33 67.44 10.89
4/12/2021 7:00:00 AM 9.22 48.596 0.059 8.35 49.79 10.9
4/12/2021 7:15:00 AM 9.21 48.578 0.059 8.35 51.41 10.92
4/12/2021 7:30:00 AM 9.22 48.596 0.059 8.38 49.68 10.95
4/12/2021 7:45:00 AM 9.22 48.596 0.059 8.38 51.82 10.95
4/12/2021 8:00:00 AM 9.24 48.632 0.059 8.4 52.81 10.98
4/12/2021 8:15:00 AM 9.26 48.668 0.058 8.34 38.55 11
4/12/2021 8:30:00 AM 9.25 48.65 0.059 8.41 45.58 10.97
4/12/2021 8:45:00 AM 9.24 48.632 0.058 8.42 57.3 10.99
4/12/2021 9:00:00 AM 9.24 48.632 0.058 8.4 57.94 10.99
4/12/2021 9:15:00 AM 9.23 48.614 0.058 8.42 63.06 10.99
4/12/2021 9:30:00 AM 9.21 48.578 0.058 8.41 51.88 10.98
4/12/2021 9:45:00 AM 9.2 48.56 0.058 8.41 50.02 10.99
4/12/2021 10:00:00 AM 9.23 48.614 0.058 8.42 67.42 11.03
4/12/2021 10:15:00 AM 9.26 48.668 0.058 8.44 56.24 11.04
4/12/2021 10:30:00 AM 9.29 48.722 0.058 8.44 56.7 11.04
4/12/2021 10:45:00 AM 9.27 48.686 0.058 8.42 61.57 11.03
4/12/2021 11:00:00 AM 9.28 48.704 0.058 8.44 48.85 11.05
4/12/2021 11:15:00 AM 9.29 48.722 0.058 8.44 46.27 11.05
4/12/2021 11:30:00 AM 9.31 48.758 0.057 8.44 61.77 11.05
4/12/2021 11:45:00 AM 9.29 48.722 0.057 8.44 48.08 11.02
4/12/2021 12:00:00 PM 9.29 48.722 0.057 8.43 54.95 11.03
4/12/2021 12:15:00 PM 9.28 48.704 0.057 8.4 62.31 11.04
4/12/2021 12:30:00 PM 9.33 48.794 0.057 8.44 56.18 11.06
4/12/2021 12:45:00 PM 9.37 48.866 0.057 8.46 62.46 11.05
4/12/2021 1:00:00 PM 9.37 48.866 0.057 8.44 54.04 11.04
4/12/2021 1:15:00 PM 9.37 48.866 0.057 8.47 44.15 11.04
4/12/2021 1:30:00 PM 9.34 48.812 0.057 8.46 60.81 11.04
4/12/2021 1:45:00 PM 9.32 48.776 0.057 8.45 43.75 11.05
4/12/2021 2:00:00 PM 9.31 48.758 0.057 8.46 37.11 11.05
4/12/2021 2:15:00 PM 9.32 48.776 0.057 8.45 56.67 11.06
4/12/2021 2:30:00 PM 9.4 48.92 0.057 8.45 73.44 11.07
4/12/2021 2:45:00 PM 9.52 49.136 0.057 8.46 59.93 11.05
4/12/2021 3:00:00 PM 9.49 49.082 0.057 8.47 60.61 11.02
4/12/2021 3:15:00 PM 9.48 49.064 0.057 8.39 60.98 11.04
4/12/2021 3:30:00 PM 9.43 48.974 0.057 8.34 64.15 11.02
4/12/2021 3:45:00 PM 9.43 48.974 0.057 8.45 65.84 11.03
4/12/2021 4:00:00 PM 9.43 48.974 0.057 8.47 61.36 11.05
4/12/2021 4:15:00 PM 9.4 48.92 0.057 8.46 48.56 11.03
4/12/2021 4:30:00 PM 9.36 48.848 0.057 8.44 64.57 11.03
4/12/2021 4:45:00 PM 9.32 48.776 0.057 8.44 47.8 11
4/12/2021 5:00:00 PM 9.27 48.686 0.057 8.42 63.57 11
4/12/2021 5:15:00 PM 9.24 48.632 0.057 8.41 56.39 11
4/12/2021 5:30:00 PM 9.21 48.578 0.057 8.42 57.26 11.01
4/12/2021 5:45:00 PM 9.2 48.56 0.057 8.42 57.17 11.04
4/12/2021 6:00:00 PM 9.21 48.578 0.057 8.43 40.42 11.06
4/12/2021 6:15:00 PM 9.18 48.524 0.057 8.34 53.23 11.03
4/12/2021 6:30:00 PM 9.14 48.452 0.057 8.4 57.93 11.01
4/12/2021 6:45:00 PM 9.1 48.38 0.057 8.39 54.33 11.01
4/12/2021 7:00:00 PM 9.07 48.326 0.058 8.37 48.61 11.01
4/12/2021 7:15:00 PM 9.04 48.272 0.065 8.39 56.39 11.02
4/12/2021 7:30:00 PM 9.02 48.236 0.058 8.37 62.2 11.03
4/12/2021 7:45:00 PM 8.99 48.182 0.057 8.38 56.62 11.03
4/12/2021 8:00:00 PM 8.96 48.128 0.081 8.33 54.23 11.04
4/12/2021 8:15:00 PM 8.93 48.074 0.07 8.39 50.22 11.04
4/12/2021 8:30:00 PM 8.91 48.038 0.059 8.37 51.75 11.05
4/12/2021 8:45:00 PM 8.89 48.002 0.107 8.37 55.33 11.05
4/12/2021 9:00:00 PM 8.86 47.948 0.06 8.37 48.44 11.07
4/12/2021 9:15:00 PM 8.84 47.912 0.058 8.36 48.45 11.08
4/12/2021 9:30:00 PM 8.82 47.876 0.058 8.35 51.47 11.09
4/12/2021 9:45:00 PM 8.79 47.822 0.058 8.33 40.1 11.09
4/12/2021 10:00:00 PM 8.77 47.786 0.057 8.36 42.87 11.11
4/12/2021 10:15:00 PM 8.74 47.732 0.057 8.28 40.04 11.12
4/12/2021 10:30:00 PM 8.72 47.696 0.057 8.36 50.57 11.12
4/12/2021 10:45:00 PM 8.7 47.66 0.057 8.36 42.25 11.13
4/12/2021 11:00:00 PM 8.68 47.624 0.057 8.37 33.5 11.14
4/12/2021 11:15:00 PM 8.65 47.57 0.057 8.37 35.46 11.15
4/12/2021 11:30:00 PM 8.63 47.534 0.057 8.36 39.98 11.15
4/12/2021 11:45:00 PM 8.61 47.498 0.057 8.29 52.15 11.16
4/13/2021 12:00:00 AM 8.59 47.462 0.057 8.36 53.74 11.17
4/13/2021 12:15:00 AM 8.56 47.408 0.057 8.37 48.89 11.17
4/13/2021 12:30:00 AM 8.54 47.372 0.057 8.35 88.82 11.18
4/13/2021 12:45:00 AM 8.52 47.336 0.057 8.37 40.14 11.19
4/13/2021 1:00:00 AM 8.5 47.3 0.057 8.36 44.18 11.2
4/13/2021 1:15:00 AM 8.48 47.264 0.057 8.36 57.92 11.2
4/13/2021 1:30:00 AM 8.46 47.228 0.057 8.36 34.4 11.21
4/13/2021 1:45:00 AM 8.45 47.21 0.057 8.34 33.95 11.21
4/13/2021 2:00:00 AM 8.43 47.174 0.057 8.35 43.34 11.22
4/13/2021 2:15:00 AM 8.4 47.12 0.057 8.33 43.51 11.22
4/13/2021 2:30:00 AM 8.38 47.084 0.057 8.34 46.92 11.23
4/13/2021 2:45:00 AM 8.36 47.048 0.057 8.34 48.19 11.24
4/13/2021 3:00:00 AM 8.34 47.012 0.057 8.34 41.61 11.25
4/13/2021 3:15:00 AM 8.32 46.976 0.057 8.32 42.57 11.25
4/13/2021 3:30:00 AM 8.3 46.94 0.057 8.33 42.1 11.26
4/13/2021 3:45:00 AM 8.28 46.904 0.057 8.34 41.33 11.27
4/13/2021 4:00:00 AM 8.26 46.868 0.057 8.25 77.09 11.28
4/13/2021 4:15:00 AM 8.24 46.832 0.057 8.26 44.23 11.28
4/13/2021 4:30:00 AM 8.21 46.778 0.057 8.36 46.17 11.29
4/13/2021 4:45:00 AM 8.2 46.76 0.057 8.35 56.76 11.29
4/13/2021 5:00:00 AM 8.18 46.724 0.057 8.34 45.58 11.3
4/13/2021 5:15:00 AM 8.16 46.688 0.057 8.34 45.65 11.3
4/13/2021 5:30:00 AM 8.14 46.652 0.057 8.34 53.38 11.31
4/13/2021 5:45:00 AM 8.12 46.616 0.057 8.33 52.59 11.32
4/13/2021 6:00:00 AM 8.11 46.598 0.057 8.33 49.17 11.32
4/13/2021 6:15:00 AM 8.09 46.562 0.057 8.34 64.33 11.33
4/13/2021 6:30:00 AM 8.08 46.544 0.057 8.3 90.19 11.34
4/13/2021 6:45:00 AM 8.06 46.508 0.057 8.34 53.92 11.35
4/13/2021 7:00:00 AM 8.05 46.49 0.057 8.26 65.27 11.36
4/13/2021 7:15:00 AM 8.04 46.472 0.057 8.35 46.88 11.37
4/13/2021 7:30:00 AM 8.04 46.472 0.057 8.34 59.6 11.38
4/13/2021 7:45:00 AM 8.03 46.454 0.057 8.34 46.6 11.4
4/13/2021 8:00:00 AM 8.03 46.454 0.057 8.35 63.72 11.4
4/13/2021 8:15:00 AM 8.02 46.436 0.057 8.36 42.07 11.42
4/13/2021 8:30:00 AM 8.03 46.454 0.057 8.36 39.06 11.45
4/13/2021 8:45:00 AM 8.05 46.49 0.057 8.37 33.31 11.47
4/13/2021 9:00:00 AM 8.06 46.508 0.057 8.38 35.64 11.47
4/13/2021 9:15:00 AM 8.06 46.508 0.057 8.38 39.45 11.47
4/13/2021 9:30:00 AM 8.07 46.526 0.056 8.39 50.41 11.48
4/13/2021 9:45:00 AM 8.11 46.598 0.056 8.41 36.74 11.5
4/13/2021 10:00:00 AM 8.16 46.688 0.056 8.41 40.5 11.51
4/13/2021 10:15:00 AM 8.2 46.76 0.056 8.41 47.15 11.5
4/13/2021 10:30:00 AM 8.25 46.85 0.056 8.42 44.09 11.49
4/13/2021 10:45:00 AM 8.3 46.94 0.056 8.43 49.37 11.49
4/13/2021 11:00:00 AM 8.39 47.102 0.056 8.43 40.35 11.48
4/13/2021 11:15:00 AM 8.59 47.462 0.056 8.44 49.55 11.46
4/13/2021 11:30:00 AM 8.85 47.93 0.056 8.45 38.51 11.39
4/13/2021 11:45:00 AM 8.95 48.11 0.056 8.45 32.76 11.36
4/13/2021 12:00:00 PM 9.05 48.29 0.056 8.45 46.4 11.34
4/13/2021 12:15:00 PM 9.35 48.83 0.056 8.46 40.33 11.28
4/13/2021 12:30:00 PM 9.55 49.19 0.056 8.45 46.63 11.24
4/13/2021 12:45:00 PM 9.84 49.712 0.056 8.47 52.54 11.17
4/13/2021 1:00:00 PM 9.98 49.964 0.056 8.48 51.69 11.12
4/13/2021 1:15:00 PM 9.78 49.604 0.056 8.48 56.27 11.14
4/13/2021 1:30:00 PM 9.82 49.676 0.055 8.48 40.08 11.15
4/13/2021 1:45:00 PM 9.96 49.928 0.055 8.36 41.53 11.11
4/13/2021 2:00:00 PM 9.93 49.874 0.055 8.5 49.12 11.09
4/13/2021 2:15:00 PM 9.84 49.712 0.055 8.48 37.17 11.09
4/13/2021 2:30:00 PM 9.86 49.748 0.055 8.41 40.31 11.1
4/13/2021 2:45:00 PM 9.9 49.82 0.055 8.49 36.77 11.08
4/13/2021 3:00:00 PM 9.89 49.802 0.055 8.49 34.98 11.07
4/13/2021 3:15:00 PM 9.79 49.622 0.055 8.46 34.57 11.04
4/13/2021 3:30:00 PM 9.74 49.532 0.055 8.47 38.72 11.07
4/13/2021 3:45:00 PM 9.79 49.622 0.055 8.47 40.67 11.09
4/13/2021 4:00:00 PM 9.83 49.694 0.055 8.48 40.52 11.06
4/13/2021 4:15:00 PM 9.8 49.64 0.055 8.38 48.5 11.04
4/13/2021 4:30:00 PM 9.75 49.55 0.055 8.45 32.91 11.04
4/13/2021 4:45:00 PM 9.73 49.514 0.055 8.46 46.34 11.05
4/13/2021 5:00:00 PM 9.77 49.586 0.055 8.46 49.11 11.07
4/13/2021 5:15:00 PM 9.8 49.64 0.055 8.46 35.74 11.05
4/13/2021 5:30:00 PM 9.83 49.694 0.055 8.45 44.48 11.05
4/13/2021 5:45:00 PM 9.8 49.64 0.056 8.46 49.53 11.03
4/13/2021 6:00:00 PM 9.74 49.532 0.056 8.44 51.75 11.01
4/13/2021 6:15:00 PM 9.67 49.406 0.056 8.42 44.57 11.01
4/13/2021 6:30:00 PM 9.63 49.334 0.056 8.42 67.88 11.02
4/13/2021 6:45:00 PM 9.62 49.316 0.056 8.42 50.65 11.03
4/13/2021 7:00:00 PM 9.59 49.262 0.056 8.41 42.95 11.01
4/13/2021 7:15:00 PM 9.55 49.19 0.056 8.39 44.21 11
4/13/2021 7:30:00 PM 9.5 49.1 0.056 8.38 36.07 10.99
4/13/2021 7:45:00 PM 9.44 48.992 0.056 8.38 43.96 10.99
4/13/2021 8:00:00 PM 9.38 48.884 0.056 8.37 47.49 10.99
4/13/2021 8:15:00 PM 9.33 48.794 0.056 8.33 40.82 11
4/13/2021 8:30:00 PM 9.28 48.704 0.056 8.37 34 11.01
4/13/2021 8:45:00 PM 9.23 48.614 0.056 8.35 39.92 11.03
4/13/2021 9:00:00 PM 9.18 48.524 0.056 8.29 49.57 11.04
4/13/2021 9:15:00 PM 9.12 48.416 0.056 8.35 40.12 11.05
4/13/2021 9:30:00 PM 9.07 48.326 0.056 8.35 32.44 11.07
4/13/2021 9:45:00 PM 9.02 48.236 0.056 8.33 32.76 11.09
4/13/2021 10:00:00 PM 8.96 48.128 0.056 8.23 37.66 11.1
4/13/2021 10:15:00 PM 8.91 48.038 0.056 8.34 39.74 11.12
4/13/2021 10:30:00 PM 8.85 47.93 0.056 8.34 42.92 11.13
4/13/2021 10:45:00 PM 8.79 47.822 0.057 8.34 31.83 11.14
4/13/2021 11:00:00 PM 8.74 47.732 0.057 8.31 47.29 11.16
4/13/2021 11:15:00 PM 8.68 47.624 0.057 8.34 57.11 11.19
4/13/2021 11:30:00 PM 8.63 47.534 0.057 8.33 35.88 11.19
4/13/2021 11:45:00 PM 8.57 47.426 0.057 8.33 40.57 11.21
4/14/2021 12:00:00 AM 8.51 47.318 0.057 8.22 38.96 11.22
4/14/2021 12:15:00 AM 8.46 47.228 0.057 8.32 42.07 11.24
4/14/2021 12:30:00 AM 8.41 47.138 0.057 8.32 39.02 11.25
4/14/2021 12:45:00 AM 8.36 47.048 0.057 8.33 34.71 11.27
4/14/2021 1:00:00 AM 8.31 46.958 0.057 8.32 41.07 11.28
4/14/2021 1:15:00 AM 8.31 46.958 0.057 8.32 43.45 11.29
4/14/2021 1:30:00 AM 8.29 46.922 0.057 8.31 33.84 11.29
4/14/2021 1:45:00 AM 8.23 46.814 0.057 8.32 38.47 11.3
4/14/2021 2:00:00 AM 8.16 46.688 0.057 8.31 33.24 11.32
4/14/2021 2:15:00 AM 8.11 46.598 0.057 8.31 43.95 11.34
4/14/2021 2:30:00 AM 8.05 46.49 0.057 8.31 36.76 11.35
4/14/2021 2:45:00 AM 7.99 46.382 0.057 8.31 38 11.37
4/14/2021 3:00:00 AM 7.96 46.328 0.057 8.25 34.53 11.38
4/14/2021 3:15:00 AM 7.94 46.292 0.057 8.31 28.88 11.39
4/14/2021 3:30:00 AM 7.92 46.256 0.057 8.31 30.01 11.39
4/14/2021 3:45:00 AM 7.9 46.22 0.057 8.31 42.07 11.4
4/14/2021 4:00:00 AM 7.87 46.166 0.057 8.31 42.08 11.41
4/14/2021 4:15:00 AM 7.85 46.13 0.057 8.29 31.78 11.41
4/14/2021 4:30:00 AM 7.82 46.076 0.057 8.18 47.2 11.42
4/14/2021 4:45:00 AM 7.79 46.022 0.057 8.31 28.42 11.43
4/14/2021 5:00:00 AM 7.75 45.95 0.057 8.3 37.81 11.43
4/14/2021 5:15:00 AM 7.73 45.914 0.057 8.28 25.51 11.45
4/14/2021 5:30:00 AM 7.7 45.86 0.057 8.3 32.98 11.46
4/14/2021 5:45:00 AM 7.69 45.842 0.057 8.3 46.79 11.45
4/14/2021 6:00:00 AM 7.66 45.788 0.057 8.29 50.54 11.46
4/14/2021 6:15:00 AM 7.64 45.752 0.057 8.3 61 11.47
4/14/2021 6:30:00 AM 7.62 45.716 0.057 8.28 45.24 11.49
4/14/2021 6:45:00 AM 7.61 45.698 0.057 8.3 37.88 11.5
4/14/2021 7:00:00 AM 7.59 45.662 0.057 8.31 26.28 11.52
4/14/2021 7:15:00 AM 7.59 45.662 0.057 8.31 37.27 11.55
4/14/2021 7:30:00 AM 7.6 45.68 0.056 8.33 28.95 11.57
4/14/2021 7:45:00 AM 7.61 45.698 0.056 8.29 33.91 11.59
4/14/2021 8:00:00 AM 7.63 45.734 0.056 8.35 44.98 11.61
4/14/2021 8:15:00 AM 7.65 45.77 0.056 8.3 28.37 11.6
4/14/2021 8:30:00 AM 7.68 45.824 0.056 8.35 33.29 11.62
4/14/2021 8:45:00 AM 7.75 45.95 0.056 8.37 46.15 11.62
4/14/2021 9:00:00 AM 7.85 46.13 0.056 8.38 33.74 11.62
4/14/2021 9:15:00 AM 7.93 46.274 0.056 8.39 37.78 11.59
4/14/2021 9:30:00 AM 8.01 46.418 0.056 8.39 29.8 11.57
4/14/2021 9:45:00 AM 8.18 46.724 0.056 8.39 36.89 11.54
4/14/2021 10:00:00 AM 8.25 46.85 0.056 8.41 38.05 11.52
4/14/2021 10:15:00 AM 8.31 46.958 0.056 8.31 41.01 11.5
4/14/2021 10:30:00 AM 8.38 47.084 0.056 8.4 40.43 11.48
4/14/2021 10:45:00 AM 8.42 47.156 0.056 8.43 33.59 11.46
4/14/2021 11:00:00 AM 8.55 47.39 0.056 8.41 37.55 11.46
4/14/2021 11:15:00 AM 8.71 47.678 0.056 8.44 34.56 11.41
4/14/2021 11:30:00 AM 8.97 48.146 0.056 8.44 57.49 11.36
4/14/2021 11:45:00 AM 9.23 48.614 0.055 8.46 47.37 11.31
4/14/2021 12:00:00 PM 9.45 49.01 0.055 8.47 34.92 11.24
4/14/2021 12:15:00 PM 9.68 49.424 0.055 8.46 38.03 11.19
4/14/2021 12:30:00 PM 9.89 49.802 0.055 8.47 33.85 11.13
4/14/2021 12:45:00 PM 10.08 50.144 0.055 8.48 32.23 11.09
4/14/2021 1:00:00 PM 10.06 50.108 0.055 8.48 48.47 11.04
4/14/2021 1:15:00 PM 10.22 50.396 0.055 8.49 56.29 11.02
4/14/2021 1:30:00 PM 10.4 50.72 0.055 8.49 39.23 10.97
4/14/2021 1:45:00 PM 10.47 50.846 0.055 8.49 37.95 10.94
4/14/2021 2:00:00 PM 10.72 51.296 0.055 8.5 36.05 10.88
4/14/2021 2:15:00 PM 10.81 51.458 0.055 8.5 43.69 10.85
4/14/2021 2:30:00 PM 10.95 51.71 0.055 8.51 42.82 10.82
4/14/2021 2:45:00 PM 10.99 51.782 0.055 8.51 35.64 10.79
4/14/2021 3:00:00 PM 11.07 51.926 0.055 8.52 37.75 10.77
4/14/2021 3:15:00 PM 11 51.8 0.055 8.5 32.37 10.75
4/14/2021 3:30:00 PM 10.75 51.35 0.055 8.49 34.17 10.76
4/14/2021 3:45:00 PM 10.81 51.458 0.055 8.5 30.37 10.79
4/14/2021 4:00:00 PM 10.87 51.566 0.055 8.51 48.64 10.75
4/14/2021 4:15:00 PM 10.73 51.314 0.055 8.49 29.85 10.76
4/14/2021 4:30:00 PM 10.63 51.134 0.055 8.49 32.13 10.76
4/14/2021 4:45:00 PM 10.61 51.098 0.055 8.49 39.84 10.78
4/14/2021 5:00:00 PM 10.6 51.08 0.055 8.49 37.53 10.78
4/14/2021 5:15:00 PM 10.55 50.99 0.055 8.48 26.91 10.76
4/14/2021 5:30:00 PM 10.49 50.882 0.055 8.46 27.92 10.75
4/14/2021 5:45:00 PM 10.47 50.846 0.055 8.47 32.15 10.78
4/14/2021 6:00:00 PM 10.45 50.81 0.055 8.46 29.64 10.78
4/14/2021 6:15:00 PM 10.41 50.738 0.056 8.45 35.76 10.76
4/14/2021 6:30:00 PM 10.38 50.684 0.056 8.45 34.2 10.77
4/14/2021 6:45:00 PM 10.35 50.63 0.056 8.45 26.5 10.76
4/14/2021 7:00:00 PM 10.32 50.576 0.056 8.43 29.03 10.76
4/14/2021 7:15:00 PM 10.27 50.486 0.056 8.41 30.37 10.75
4/14/2021 7:30:00 PM 10.21 50.378 0.056 8.41 40.25 10.73
4/14/2021 7:45:00 PM 10.16 50.288 0.056 8.33 50.63 10.73
4/14/2021 8:00:00 PM 10.11 50.198 0.056 8.36 36.63 10.73
4/14/2021 8:15:00 PM 10.08 50.144 0.056 8.38 36.43 10.73
4/14/2021 8:30:00 PM 10.05 50.09 0.056 8.39 32.92 10.74
4/14/2021 8:45:00 PM 10.01 50.018 0.056 8.39 33.28 10.75
4/14/2021 9:00:00 PM 9.97 49.946 0.056 8.38 42.85 10.77
4/14/2021 9:15:00 PM 9.92 49.856 0.056 8.4 44.4 10.78
4/14/2021 9:30:00 PM 9.86 49.748 0.056 8.32 31.57 10.79
4/14/2021 9:45:00 PM 9.81 49.658 0.056 8.39 29.58 10.8
4/14/2021 10:00:00 PM 9.77 49.586 0.056 8.39 40 10.82
4/14/2021 10:15:00 PM 9.7 49.46 0.056 8.37 38.57 10.83
4/14/2021 10:30:00 PM 9.61 49.298 0.056 8.4 31.39 10.86
4/14/2021 10:45:00 PM 9.53 49.154 0.056 8.39 37.12 10.87
4/14/2021 11:00:00 PM 9.46 49.028 0.056 8.37 35.29 10.89
4/14/2021 11:15:00 PM 9.39 48.902 0.056 8.39 26.46 10.91
4/14/2021 11:30:00 PM 9.35 48.83 0.056 8.38 31.47 10.92
4/14/2021 11:45:00 PM 9.32 48.776 0.056 8.27 34.26 10.93
4/15/2021 12:00:00 AM 9.28 48.704 0.056 8.31 34.23 10.94
4/15/2021 12:15:00 AM 9.23 48.614 0.056 8.37 36.13 10.95
4/15/2021 12:30:00 AM 9.17 48.506 0.057 8.35 36.05 10.97
4/15/2021 12:45:00 AM 9.12 48.416 0.057 8.36 33.33 10.98
4/15/2021 1:00:00 AM 9.06 48.308 0.057 8.36 37.97 10.99
4/15/2021 1:15:00 AM 9 48.2 0.057 8.36 23.52 11.01
4/15/2021 1:30:00 AM 8.94 48.092 0.057 8.36 27.38 11.03
4/15/2021 1:45:00 AM 8.89 48.002 0.057 8.35 27.33 11.04
4/15/2021 2:00:00 AM 8.84 47.912 0.056 8.35 31.32 11.04
4/15/2021 2:15:00 AM 8.79 47.822 0.056 8.35 31.81 11.05
4/15/2021 2:30:00 AM 8.74 47.732 0.056 8.35 30.36 11.07
4/15/2021 2:45:00 AM 8.69 47.642 0.056 8.35 44.38 11.08
4/15/2021 3:00:00 AM 8.63 47.534 0.056 8.24 39.89 11.08
4/15/2021 3:15:00 AM 8.57 47.426 0.056 8.35 45.42 11.11
4/15/2021 3:30:00 AM 8.52 47.336 0.056 8.35 25.18 11.12
4/15/2021 3:45:00 AM 8.47 47.246 0.056 8.34 30.93 11.13
4/15/2021 4:00:00 AM 8.42 47.156 0.056 8.34 32.86 11.14
4/15/2021 4:15:00 AM 8.38 47.084 0.056 8.34 37.24 11.16
4/15/2021 4:30:00 AM 8.33 46.994 0.056 8.34 34.25 11.17
4/15/2021 4:45:00 AM 8.28 46.904 0.056 8.34 32.3 11.18
4/15/2021 5:00:00 AM 8.23 46.814 0.056 8.27 35.49 11.19
4/15/2021 5:15:00 AM 8.18 46.724 0.056 8.32 35.96 11.21
4/15/2021 5:30:00 AM 8.12 46.616 0.056 8.32 38.54 11.21
4/15/2021 5:45:00 AM 8.07 46.526 0.056 8.33 27.25 11.23
4/15/2021 6:00:00 AM 8.03 46.454 0.056 8.33 27.39 11.24
4/15/2021 6:15:00 AM 7.99 46.382 0.056 8.33 31.42 11.25
4/15/2021 6:30:00 AM 7.95 46.31 0.056 8.33 36.46 11.27
4/15/2021 6:45:00 AM 7.91 46.238 0.056 8.31 34.82 11.28
4/15/2021 7:00:00 AM 7.89 46.202 0.056 8.34 35.04 11.3
4/15/2021 7:15:00 AM 7.87 46.166 0.056 8.23 36.62 11.32
4/15/2021 7:30:00 AM 7.84 46.112 0.056 8.35 28.79 11.33
4/15/2021 7:45:00 AM 7.82 46.076 0.056 8.35 38.53 11.35
4/15/2021 8:00:00 AM 7.8 46.04 0.056 8.31 29.33 11.35
4/15/2021 8:15:00 AM 7.78 46.004 0.056 8.34 28.17 11.38
4/15/2021 8:30:00 AM 7.78 46.004 0.056 8.36 29.77 11.39
4/15/2021 8:45:00 AM 7.76 45.968 0.056 8.35 51.55 11.4
4/15/2021 9:00:00 AM 7.75 45.95 0.056 8.32 26.28 11.39
4/15/2021 9:15:00 AM 7.74 45.932 0.056 8.37 33.72 11.42
4/15/2021 9:30:00 AM 7.72 45.896 0.056 8.38 29.7 11.42
4/15/2021 9:45:00 AM 7.7 45.86 0.056 8.38 27.63 11.43
4/15/2021 10:00:00 AM 7.69 45.842 0.056 8.38 34.95 11.44
4/15/2021 10:15:00 AM 7.68 45.824 0.056 8.38 35.18 11.43
4/15/2021 10:30:00 AM 7.66 45.788 0.056 8.38 27.82 11.47
4/15/2021 10:45:00 AM 7.65 45.77 0.056 8.39 24.66 11.49
4/15/2021 11:00:00 AM 7.64 45.752 0.056 8.4 44.36 11.5
4/15/2021 11:15:00 AM 7.65 45.77 0.055 8.4 37.41 11.52
4/15/2021 11:30:00 AM 7.69 45.842 0.055 8.42 45.67 11.54
4/15/2021 11:45:00 AM 7.72 45.896 0.055 8.31 35.61 11.53
4/15/2021 12:00:00 PM 7.78 46.004 0.055 8.42 32.24 11.53
4/15/2021 12:15:00 PM 7.92 46.256 0.055 8.33 27.35 11.51
4/15/2021 12:30:00 PM 7.91 46.238 0.055 8.33 37.18 11.48
4/15/2021 12:45:00 PM 7.92 46.256 0.055 8.45 35.63 11.47
4/15/2021 1:00:00 PM 7.77 45.986 0.055 8.4 34.43 11.43
4/15/2021 1:15:00 PM 7.68 45.824 0.055 8.36 31.49 11.48
4/15/2021 1:30:00 PM 7.7 45.86 0.055 8.43 25.61 11.52
4/15/2021 1:45:00 PM 7.78 46.004 0.055 8.43 22.85 11.52
4/15/2021 2:00:00 PM 7.74 45.932 0.055 8.33 30.96 11.5
4/15/2021 2:15:00 PM 7.66 45.788 0.055 8.4 29.38 11.49
4/15/2021 2:30:00 PM 7.59 45.662 0.055 8.42 20.61 11.5
4/15/2021 2:45:00 PM 7.54 45.572 0.055 8.39 26.71 11.51
4/15/2021 3:00:00 PM 7.52 45.536 0.055 8.42 22.13 11.53
4/15/2021 3:15:00 PM 7.5 45.5 0.055 8.41 28.63 11.53
4/15/2021 3:30:00 PM 7.46 45.428 0.055 8.3 23.41 11.52
4/15/2021 3:45:00 PM 7.42 45.356 0.055 8.39 28.27 11.5
4/15/2021 4:00:00 PM 7.37 45.266 0.055 8.39 21.47 11.51
4/15/2021 4:15:00 PM 7.35 45.23 0.055 8.4 33.28 11.55
4/15/2021 4:30:00 PM 7.33 45.194 0.055 8.4 26.98 11.56
4/15/2021 4:45:00 PM 7.31 45.158 0.056 8.36 19.56 11.57
4/15/2021 5:00:00 PM 7.3 45.14 0.056 8.41 25.87 11.59
4/15/2021 5:15:00 PM 7.29 45.122 0.056 8.32 21.86 11.59
4/15/2021 5:30:00 PM 7.27 45.086 0.056 8.41 25.96 11.59
4/15/2021 5:45:00 PM 7.24 45.032 0.056 8.41 34.19 11.59
4/15/2021 6:00:00 PM 7.23 45.014 0.055 8.41 24 11.61
4/15/2021 6:15:00 PM 7.19 44.942 0.056 8.4 29.43 11.59
4/15/2021 6:30:00 PM 7.17 44.906 0.055 8.39 26.75 11.61
4/15/2021 6:45:00 PM 7.14 44.852 0.055 8.39 25.76 11.6
4/15/2021 7:00:00 PM 7.12 44.816 0.055 8.4 29.41 11.61
4/15/2021 7:15:00 PM 7.08 44.744 0.055 8.39 25.12 11.6
4/15/2021 7:30:00 PM 7.04 44.672 0.056 8.28 37.75 11.58
4/15/2021 7:45:00 PM 6.99 44.582 0.056 8.34 29.28 11.56
4/15/2021 8:00:00 PM 6.96 44.528 0.056 8.35 33.68 11.56
4/15/2021 8:15:00 PM 6.92 44.456 0.056 8.34 24.69 11.57
4/15/2021 8:30:00 PM 6.86 44.348 0.056 8.33 26.18 11.58
4/15/2021 8:45:00 PM 6.79 44.222 0.056 8.32 30.56 11.6
4/15/2021 9:00:00 PM 6.72 44.096 0.056 8.34 27.2 11.62
4/15/2021 9:15:00 PM 6.65 43.97 0.056 8.32 27.76 11.64
4/15/2021 9:30:00 PM 6.6 43.88 0.056 8.33 28.59 11.66
4/15/2021 9:45:00 PM 6.58 43.844 0.056 8.33 37.36 11.67
4/15/2021 10:00:00 PM 6.55 43.79 0.056 8.32 35.7 11.68
4/15/2021 10:15:00 PM 6.53 43.754 0.056 8.33 25.74 11.69
4/15/2021 10:30:00 PM 6.49 43.682 0.056 8.32 20.72 11.69
4/15/2021 10:45:00 PM 6.45 43.61 0.056 8.21 18.14 11.7
4/15/2021 11:00:00 PM 6.39 43.502 0.056 8.25 22.6 11.72
4/15/2021 11:15:00 PM 6.34 43.412 0.056 8.3 28.07 11.73
4/15/2021 11:30:00 PM 6.31 43.358 0.056 8.32 27.22 11.74
4/15/2021 11:45:00 PM 6.29 43.322 0.056 8.29 34.05 11.75
4/16/2021 12:00:00 AM 6.26 43.268 0.056 8.18 24.64 11.76
4/16/2021 12:15:00 AM 6.23 43.214 0.056 8.32 18.48 11.77
4/16/2021 12:30:00 AM 6.19 43.142 0.056 8.31 25.01 11.78
4/16/2021 12:45:00 AM 6.16 43.088 0.056 8.31 22.9 11.78
4/16/2021 1:00:00 AM 6.14 43.052 0.056 8.22 28.28 11.79
4/16/2021 1:15:00 AM 6.11 42.998 0.056 8.32 28.84 11.8
4/16/2021 1:30:00 AM 6.09 42.962 0.056 8.29 25.32 11.8
4/16/2021 1:45:00 AM 6.07 42.926 0.056 8.31 23.08 11.81
4/16/2021 2:00:00 AM 6.04 42.872 0.056 8.3 27.74 11.82
4/16/2021 2:15:00 AM 6.01 42.818 0.056 8.18 25.72 11.82
4/16/2021 2:30:00 AM 5.99 42.782 0.056 8.3 27.43 11.83
4/16/2021 2:45:00 AM 5.97 42.746 0.056 8.31 29.76 11.84
4/16/2021 3:00:00 AM 5.95 42.71 0.056 8.31 22.3 11.84
4/16/2021 3:15:00 AM 5.93 42.674 0.056 8.31 27.63 11.85
4/16/2021 3:30:00 AM 5.91 42.638 0.056 8.14 23.58 11.85
4/16/2021 3:45:00 AM 5.88 42.584 0.056 8.32 31.8 11.86
4/16/2021 4:00:00 AM 5.85 42.53 0.056 8.31 18.58 11.87
4/16/2021 4:15:00 AM 5.83 42.494 0.056 8.3 22.41 11.87
4/16/2021 4:30:00 AM 5.81 42.458 0.055 8.3 24.99 11.88
4/16/2021 4:45:00 AM 5.78 42.404 0.055 8.3 48.77 11.89
4/16/2021 5:00:00 AM 5.75 42.35 0.055 8.3 24.2 11.89
4/16/2021 5:15:00 AM 5.73 42.314 0.055 8.3 28.95 11.9
4/16/2021 5:30:00 AM 5.71 42.278 0.055 8.3 27.17 11.91
4/16/2021 5:45:00 AM 5.68 42.224 0.055 8.3 28.44 11.91
4/16/2021 6:00:00 AM 5.63 42.134 0.055 8.3 38.15 11.93
4/16/2021 6:15:00 AM 5.57 42.026 0.055 8.29 25.23 11.94
4/16/2021 6:30:00 AM 5.53 41.954 0.056 8.29 28.34 11.95
4/16/2021 6:45:00 AM 5.52 41.936 0.056 8.3 32.56 11.97
4/16/2021 7:00:00 AM 5.51 41.918 0.056 8.3 39.94 11.99
4/16/2021 7:15:00 AM 5.5 41.9 0.056 8.27 32.68 12
4/16/2021 7:30:00 AM 5.5 41.9 0.057 8.32 38.15 12.03
4/16/2021 7:45:00 AM 5.52 41.936 0.057 8.33 36.14 12.05
4/16/2021 8:00:00 AM 5.54 41.972 0.057 8.34 37.41 12.06
4/16/2021 8:15:00 AM 5.57 42.026 0.057 8.3 41.92 12.06
4/16/2021 8:30:00 AM 5.59 42.062 0.056 8.36 40.39 12.06
4/16/2021 8:45:00 AM 5.61 42.098 0.056 8.34 42.19 12.05
4/16/2021 9:00:00 AM 5.64 42.152 0.056 8.26 55.17 12.05
4/16/2021 9:15:00 AM 5.68 42.224 0.056 8.38 33.45 12.07
4/16/2021 9:30:00 AM 5.76 42.368 0.055